<?xml version="1.0" encoding="UTF-8" standalone="no" ?>
<gpx xmlns="http://www.topografix.com/GPX/1/1" xmlns:xsi="http://www.w3.org/2001/XMLSchema-instance" xsi:schemaLocation="http://www.topografix.com/GPX/1/1 http://www.topografix.com/GPX/1/1/gpx.xsd" version="1.1" creator="VisuGPX - https://www.visugpx.com">
  <metadata>
    <name>Hangard</name>
  </metadata>
  <trk>
    <name><![CDATA[Hangard Randonnée dans l'après-midi]]></name>
    <extensions>
      <line xmlns="http://www.topografix.com/GPX/gpx_style/0/2">
        <color>0000FF</color>
        <width>4</width>
      </line>
    </extensions>
    <trkseg>
      <trkpt lat="49.82386" lon="2.51277">
        <ele>46.2</ele>
        <time>2021-11-21T13:27:48Z</time>
      </trkpt>
      <trkpt lat="49.82386" lon="2.51279">
        <ele>46.2</ele>
        <time>2021-11-21T13:27:49Z</time>
      </trkpt>
      <trkpt lat="49.82387" lon="2.5128">
        <ele>46.2</ele>
        <time>2021-11-21T13:27:51Z</time>
      </trkpt>
      <trkpt lat="49.82387" lon="2.51281">
        <ele>46.2</ele>
        <time>2021-11-21T13:27:53Z</time>
      </trkpt>
      <trkpt lat="49.82387" lon="2.51281">
        <ele>46.2</ele>
        <time>2021-11-21T13:27:54Z</time>
      </trkpt>
      <trkpt lat="49.82388" lon="2.51282">
        <ele>46.3</ele>
        <time>2021-11-21T13:27:56Z</time>
      </trkpt>
      <trkpt lat="49.82389" lon="2.51282">
        <ele>46.3</ele>
        <time>2021-11-21T13:27:57Z</time>
      </trkpt>
      <trkpt lat="49.82389" lon="2.51283">
        <ele>46.3</ele>
        <time>2021-11-21T13:27:59Z</time>
      </trkpt>
      <trkpt lat="49.8239" lon="2.51284">
        <ele>46.3</ele>
        <time>2021-11-21T13:28:00Z</time>
      </trkpt>
      <trkpt lat="49.8239" lon="2.51285">
        <ele>46.3</ele>
        <time>2021-11-21T13:28:01Z</time>
      </trkpt>
      <trkpt lat="49.82391" lon="2.51287">
        <ele>46.4</ele>
        <time>2021-11-21T13:28:03Z</time>
      </trkpt>
      <trkpt lat="49.82392" lon="2.51288">
        <ele>46.4</ele>
        <time>2021-11-21T13:28:04Z</time>
      </trkpt>
      <trkpt lat="49.82392" lon="2.51289">
        <ele>46.4</ele>
        <time>2021-11-21T13:28:05Z</time>
      </trkpt>
      <trkpt lat="49.82394" lon="2.5129">
        <ele>46.5</ele>
        <time>2021-11-21T13:28:07Z</time>
      </trkpt>
      <trkpt lat="49.82394" lon="2.5129">
        <ele>46.5</ele>
        <time>2021-11-21T13:28:08Z</time>
      </trkpt>
      <trkpt lat="49.82395" lon="2.51291">
        <ele>46.5</ele>
        <time>2021-11-21T13:28:09Z</time>
      </trkpt>
      <trkpt lat="49.82396" lon="2.51292">
        <ele>46.5</ele>
        <time>2021-11-21T13:28:10Z</time>
      </trkpt>
      <trkpt lat="49.82395" lon="2.51292">
        <ele>46.5</ele>
        <time>2021-11-21T13:28:12Z</time>
      </trkpt>
      <trkpt lat="49.82394" lon="2.51293">
        <ele>46.6</ele>
        <time>2021-11-21T13:28:13Z</time>
      </trkpt>
      <trkpt lat="49.82394" lon="2.51294">
        <ele>46.6</ele>
        <time>2021-11-21T13:28:15Z</time>
      </trkpt>
      <trkpt lat="49.82395" lon="2.51295">
        <ele>46.6</ele>
        <time>2021-11-21T13:28:16Z</time>
      </trkpt>
      <trkpt lat="49.82395" lon="2.51297">
        <ele>46.6</ele>
        <time>2021-11-21T13:28:18Z</time>
      </trkpt>
      <trkpt lat="49.82395" lon="2.51298">
        <ele>46.6</ele>
        <time>2021-11-21T13:28:19Z</time>
      </trkpt>
      <trkpt lat="49.82395" lon="2.513">
        <ele>46.7</ele>
        <time>2021-11-21T13:28:20Z</time>
      </trkpt>
      <trkpt lat="49.82394" lon="2.51301">
        <ele>46.7</ele>
        <time>2021-11-21T13:28:22Z</time>
      </trkpt>
      <trkpt lat="49.82394" lon="2.51303">
        <ele>46.7</ele>
        <time>2021-11-21T13:28:24Z</time>
      </trkpt>
      <trkpt lat="49.82394" lon="2.51303">
        <ele>46.7</ele>
        <time>2021-11-21T13:28:25Z</time>
      </trkpt>
      <trkpt lat="49.82394" lon="2.51303">
        <ele>46.7</ele>
        <time>2021-11-21T13:28:26Z</time>
      </trkpt>
      <trkpt lat="49.82392" lon="2.51302">
        <ele>46.7</ele>
        <time>2021-11-21T13:28:27Z</time>
      </trkpt>
      <trkpt lat="49.82392" lon="2.51302">
        <ele>46.7</ele>
        <time>2021-11-21T13:28:29Z</time>
      </trkpt>
      <trkpt lat="49.82392" lon="2.51302">
        <ele>46.7</ele>
        <time>2021-11-21T13:28:30Z</time>
      </trkpt>
      <trkpt lat="49.82392" lon="2.51303">
        <ele>46.7</ele>
        <time>2021-11-21T13:28:31Z</time>
      </trkpt>
      <trkpt lat="49.82391" lon="2.51302">
        <ele>46.8</ele>
        <time>2021-11-21T13:28:33Z</time>
      </trkpt>
      <trkpt lat="49.82391" lon="2.51304">
        <ele>46.8</ele>
        <time>2021-11-21T13:28:34Z</time>
      </trkpt>
      <trkpt lat="49.82391" lon="2.51305">
        <ele>46.8</ele>
        <time>2021-11-21T13:28:36Z</time>
      </trkpt>
      <trkpt lat="49.82391" lon="2.51307">
        <ele>46.8</ele>
        <time>2021-11-21T13:28:38Z</time>
      </trkpt>
      <trkpt lat="49.82391" lon="2.51309">
        <ele>46.8</ele>
        <time>2021-11-21T13:28:39Z</time>
      </trkpt>
      <trkpt lat="49.82391" lon="2.51311">
        <ele>46.8</ele>
        <time>2021-11-21T13:28:41Z</time>
      </trkpt>
      <trkpt lat="49.82391" lon="2.51312">
        <ele>46.9</ele>
        <time>2021-11-21T13:28:43Z</time>
      </trkpt>
      <trkpt lat="49.82391" lon="2.51314">
        <ele>46.9</ele>
        <time>2021-11-21T13:28:45Z</time>
      </trkpt>
      <trkpt lat="49.82391" lon="2.51313">
        <ele>46.9</ele>
        <time>2021-11-21T13:28:47Z</time>
      </trkpt>
      <trkpt lat="49.82391" lon="2.51312">
        <ele>46.9</ele>
        <time>2021-11-21T13:28:49Z</time>
      </trkpt>
      <trkpt lat="49.82391" lon="2.51312">
        <ele>46.9</ele>
        <time>2021-11-21T13:28:50Z</time>
      </trkpt>
      <trkpt lat="49.82391" lon="2.51312">
        <ele>46.9</ele>
        <time>2021-11-21T13:28:52Z</time>
      </trkpt>
      <trkpt lat="49.82391" lon="2.51313">
        <ele>46.9</ele>
        <time>2021-11-21T13:28:53Z</time>
      </trkpt>
      <trkpt lat="49.82391" lon="2.51313">
        <ele>46.9</ele>
        <time>2021-11-21T13:28:55Z</time>
      </trkpt>
      <trkpt lat="49.82391" lon="2.51313">
        <ele>46.9</ele>
        <time>2021-11-21T13:28:56Z</time>
      </trkpt>
      <trkpt lat="49.82391" lon="2.51313">
        <ele>46.9</ele>
        <time>2021-11-21T13:28:57Z</time>
      </trkpt>
      <trkpt lat="49.82391" lon="2.51313">
        <ele>46.9</ele>
        <time>2021-11-21T13:28:59Z</time>
      </trkpt>
      <trkpt lat="49.82391" lon="2.51311">
        <ele>46.9</ele>
        <time>2021-11-21T13:29:01Z</time>
      </trkpt>
      <trkpt lat="49.82391" lon="2.5131">
        <ele>46.9</ele>
        <time>2021-11-21T13:29:02Z</time>
      </trkpt>
      <trkpt lat="49.82392" lon="2.51309">
        <ele>46.9</ele>
        <time>2021-11-21T13:29:04Z</time>
      </trkpt>
      <trkpt lat="49.82392" lon="2.51309">
        <ele>46.9</ele>
        <time>2021-11-21T13:29:05Z</time>
      </trkpt>
      <trkpt lat="49.82392" lon="2.51309">
        <ele>46.9</ele>
        <time>2021-11-21T13:29:07Z</time>
      </trkpt>
      <trkpt lat="49.82392" lon="2.51309">
        <ele>46.9</ele>
        <time>2021-11-21T13:29:09Z</time>
      </trkpt>
      <trkpt lat="49.82392" lon="2.51309">
        <ele>46.9</ele>
        <time>2021-11-21T13:29:10Z</time>
      </trkpt>
      <trkpt lat="49.82392" lon="2.51309">
        <ele>46.9</ele>
        <time>2021-11-21T13:29:12Z</time>
      </trkpt>
      <trkpt lat="49.82392" lon="2.51309">
        <ele>46.9</ele>
        <time>2021-11-21T13:29:13Z</time>
      </trkpt>
      <trkpt lat="49.82392" lon="2.51309">
        <ele>46.9</ele>
        <time>2021-11-21T13:29:14Z</time>
      </trkpt>
      <trkpt lat="49.82392" lon="2.51309">
        <ele>46.9</ele>
        <time>2021-11-21T13:29:16Z</time>
      </trkpt>
      <trkpt lat="49.82392" lon="2.51309">
        <ele>46.9</ele>
        <time>2021-11-21T13:29:18Z</time>
      </trkpt>
      <trkpt lat="49.82392" lon="2.51309">
        <ele>46.9</ele>
        <time>2021-11-21T13:29:19Z</time>
      </trkpt>
      <trkpt lat="49.82392" lon="2.51309">
        <ele>46.9</ele>
        <time>2021-11-21T13:29:20Z</time>
      </trkpt>
      <trkpt lat="49.82392" lon="2.51309">
        <ele>46.9</ele>
        <time>2021-11-21T13:29:21Z</time>
      </trkpt>
      <trkpt lat="49.82392" lon="2.51309">
        <ele>46.9</ele>
        <time>2021-11-21T13:29:23Z</time>
      </trkpt>
      <trkpt lat="49.82392" lon="2.51309">
        <ele>46.9</ele>
        <time>2021-11-21T13:29:24Z</time>
      </trkpt>
      <trkpt lat="49.82392" lon="2.51309">
        <ele>46.9</ele>
        <time>2021-11-21T13:29:25Z</time>
      </trkpt>
      <trkpt lat="49.82392" lon="2.51309">
        <ele>46.9</ele>
        <time>2021-11-21T13:29:27Z</time>
      </trkpt>
      <trkpt lat="49.82392" lon="2.51309">
        <ele>46.9</ele>
        <time>2021-11-21T13:29:29Z</time>
      </trkpt>
      <trkpt lat="49.82392" lon="2.51309">
        <ele>46.9</ele>
        <time>2021-11-21T13:29:31Z</time>
      </trkpt>
      <trkpt lat="49.82392" lon="2.51309">
        <ele>46.9</ele>
        <time>2021-11-21T13:29:32Z</time>
      </trkpt>
      <trkpt lat="49.82392" lon="2.51309">
        <ele>46.9</ele>
        <time>2021-11-21T13:29:33Z</time>
      </trkpt>
      <trkpt lat="49.82392" lon="2.51309">
        <ele>46.9</ele>
        <time>2021-11-21T13:29:35Z</time>
      </trkpt>
      <trkpt lat="49.82392" lon="2.51309">
        <ele>46.9</ele>
        <time>2021-11-21T13:29:37Z</time>
      </trkpt>
      <trkpt lat="49.82392" lon="2.51309">
        <ele>46.9</ele>
        <time>2021-11-21T13:29:39Z</time>
      </trkpt>
      <trkpt lat="49.82392" lon="2.51309">
        <ele>46.9</ele>
        <time>2021-11-21T13:29:41Z</time>
      </trkpt>
      <trkpt lat="49.82392" lon="2.51309">
        <ele>46.9</ele>
        <time>2021-11-21T13:29:42Z</time>
      </trkpt>
      <trkpt lat="49.82392" lon="2.51309">
        <ele>46.9</ele>
        <time>2021-11-21T13:29:44Z</time>
      </trkpt>
      <trkpt lat="49.82392" lon="2.51309">
        <ele>46.9</ele>
        <time>2021-11-21T13:29:45Z</time>
      </trkpt>
      <trkpt lat="49.82392" lon="2.51309">
        <ele>46.9</ele>
        <time>2021-11-21T13:29:46Z</time>
      </trkpt>
      <trkpt lat="49.82392" lon="2.51309">
        <ele>46.9</ele>
        <time>2021-11-21T13:29:48Z</time>
      </trkpt>
      <trkpt lat="49.82392" lon="2.51309">
        <ele>46.9</ele>
        <time>2021-11-21T13:29:49Z</time>
      </trkpt>
      <trkpt lat="49.82392" lon="2.51309">
        <ele>46.9</ele>
        <time>2021-11-21T13:29:51Z</time>
      </trkpt>
      <trkpt lat="49.82392" lon="2.51309">
        <ele>46.9</ele>
        <time>2021-11-21T13:29:53Z</time>
      </trkpt>
      <trkpt lat="49.82392" lon="2.51309">
        <ele>46.9</ele>
        <time>2021-11-21T13:29:54Z</time>
      </trkpt>
      <trkpt lat="49.82392" lon="2.51309">
        <ele>46.9</ele>
        <time>2021-11-21T13:29:55Z</time>
      </trkpt>
      <trkpt lat="49.82392" lon="2.51309">
        <ele>46.9</ele>
        <time>2021-11-21T13:29:57Z</time>
      </trkpt>
      <trkpt lat="49.82392" lon="2.51309">
        <ele>46.9</ele>
        <time>2021-11-21T13:29:58Z</time>
      </trkpt>
      <trkpt lat="49.82392" lon="2.51309">
        <ele>46.9</ele>
        <time>2021-11-21T13:29:59Z</time>
      </trkpt>
      <trkpt lat="49.82392" lon="2.5131">
        <ele>46.9</ele>
        <time>2021-11-21T13:30:01Z</time>
      </trkpt>
      <trkpt lat="49.82393" lon="2.51315">
        <ele>47</ele>
        <time>2021-11-21T13:30:02Z</time>
      </trkpt>
      <trkpt lat="49.82392" lon="2.51316">
        <ele>47</ele>
        <time>2021-11-21T13:30:04Z</time>
      </trkpt>
      <trkpt lat="49.82393" lon="2.51318">
        <ele>47</ele>
        <time>2021-11-21T13:30:06Z</time>
      </trkpt>
      <trkpt lat="49.82395" lon="2.5132">
        <ele>47</ele>
        <time>2021-11-21T13:30:08Z</time>
      </trkpt>
      <trkpt lat="49.82395" lon="2.51321">
        <ele>47.1</ele>
        <time>2021-11-21T13:30:09Z</time>
      </trkpt>
      <trkpt lat="49.82395" lon="2.51324">
        <ele>47.1</ele>
        <time>2021-11-21T13:30:11Z</time>
      </trkpt>
      <trkpt lat="49.82395" lon="2.51325">
        <ele>47.1</ele>
        <time>2021-11-21T13:30:12Z</time>
      </trkpt>
      <trkpt lat="49.82396" lon="2.51326">
        <ele>47.1</ele>
        <time>2021-11-21T13:30:13Z</time>
      </trkpt>
      <trkpt lat="49.82396" lon="2.51328">
        <ele>47.1</ele>
        <time>2021-11-21T13:30:15Z</time>
      </trkpt>
      <trkpt lat="49.82396" lon="2.51329">
        <ele>47.1</ele>
        <time>2021-11-21T13:30:16Z</time>
      </trkpt>
      <trkpt lat="49.82396" lon="2.51332">
        <ele>47.1</ele>
        <time>2021-11-21T13:30:18Z</time>
      </trkpt>
      <trkpt lat="49.82396" lon="2.51333">
        <ele>47.1</ele>
        <time>2021-11-21T13:30:19Z</time>
      </trkpt>
      <trkpt lat="49.82396" lon="2.51334">
        <ele>47.1</ele>
        <time>2021-11-21T13:30:20Z</time>
      </trkpt>
      <trkpt lat="49.82395" lon="2.51336">
        <ele>47.2</ele>
        <time>2021-11-21T13:30:21Z</time>
      </trkpt>
      <trkpt lat="49.82395" lon="2.51339">
        <ele>47.2</ele>
        <time>2021-11-21T13:30:23Z</time>
      </trkpt>
      <trkpt lat="49.82395" lon="2.51344">
        <ele>47.2</ele>
        <time>2021-11-21T13:30:25Z</time>
      </trkpt>
      <trkpt lat="49.82394" lon="2.51346">
        <ele>47.2</ele>
        <time>2021-11-21T13:30:26Z</time>
      </trkpt>
      <trkpt lat="49.82394" lon="2.51348">
        <ele>47.2</ele>
        <time>2021-11-21T13:30:28Z</time>
      </trkpt>
      <trkpt lat="49.82394" lon="2.5135">
        <ele>47.2</ele>
        <time>2021-11-21T13:30:30Z</time>
      </trkpt>
      <trkpt lat="49.82393" lon="2.51351">
        <ele>47.2</ele>
        <time>2021-11-21T13:30:31Z</time>
      </trkpt>
      <trkpt lat="49.82393" lon="2.51352">
        <ele>47.3</ele>
        <time>2021-11-21T13:30:32Z</time>
      </trkpt>
      <trkpt lat="49.82393" lon="2.51352">
        <ele>47.3</ele>
        <time>2021-11-21T13:30:33Z</time>
      </trkpt>
      <trkpt lat="49.82393" lon="2.51353">
        <ele>47.3</ele>
        <time>2021-11-21T13:30:35Z</time>
      </trkpt>
      <trkpt lat="49.82392" lon="2.51354">
        <ele>47.3</ele>
        <time>2021-11-21T13:30:36Z</time>
      </trkpt>
      <trkpt lat="49.82392" lon="2.51356">
        <ele>47.3</ele>
        <time>2021-11-21T13:30:37Z</time>
      </trkpt>
      <trkpt lat="49.82392" lon="2.51358">
        <ele>47.3</ele>
        <time>2021-11-21T13:30:39Z</time>
      </trkpt>
      <trkpt lat="49.82393" lon="2.5136">
        <ele>47.3</ele>
        <time>2021-11-21T13:30:40Z</time>
      </trkpt>
      <trkpt lat="49.82393" lon="2.51366">
        <ele>47.3</ele>
        <time>2021-11-21T13:30:42Z</time>
      </trkpt>
      <trkpt lat="49.82393" lon="2.51366">
        <ele>47.3</ele>
        <time>2021-11-21T13:30:43Z</time>
      </trkpt>
      <trkpt lat="49.82393" lon="2.51368">
        <ele>47.3</ele>
        <time>2021-11-21T13:30:44Z</time>
      </trkpt>
      <trkpt lat="49.82393" lon="2.51371">
        <ele>47.3</ele>
        <time>2021-11-21T13:30:46Z</time>
      </trkpt>
      <trkpt lat="49.82394" lon="2.51374">
        <ele>47.3</ele>
        <time>2021-11-21T13:30:47Z</time>
      </trkpt>
      <trkpt lat="49.82393" lon="2.5138">
        <ele>47.3</ele>
        <time>2021-11-21T13:30:49Z</time>
      </trkpt>
      <trkpt lat="49.82393" lon="2.51387">
        <ele>47.4</ele>
        <time>2021-11-21T13:30:51Z</time>
      </trkpt>
      <trkpt lat="49.82393" lon="2.51389">
        <ele>47.4</ele>
        <time>2021-11-21T13:30:52Z</time>
      </trkpt>
      <trkpt lat="49.82393" lon="2.51391">
        <ele>47.4</ele>
        <time>2021-11-21T13:30:53Z</time>
      </trkpt>
      <trkpt lat="49.82393" lon="2.51396">
        <ele>47.4</ele>
        <time>2021-11-21T13:30:55Z</time>
      </trkpt>
      <trkpt lat="49.82393" lon="2.51402">
        <ele>47.4</ele>
        <time>2021-11-21T13:30:57Z</time>
      </trkpt>
      <trkpt lat="49.82393" lon="2.51402">
        <ele>47.4</ele>
        <time>2021-11-21T13:30:58Z</time>
      </trkpt>
      <trkpt lat="49.82393" lon="2.51403">
        <ele>47.4</ele>
        <time>2021-11-21T13:30:59Z</time>
      </trkpt>
      <trkpt lat="49.82393" lon="2.51408">
        <ele>47.4</ele>
        <time>2021-11-21T13:31:01Z</time>
      </trkpt>
      <trkpt lat="49.82393" lon="2.51411">
        <ele>47.4</ele>
        <time>2021-11-21T13:31:03Z</time>
      </trkpt>
      <trkpt lat="49.82393" lon="2.51413">
        <ele>47.4</ele>
        <time>2021-11-21T13:31:04Z</time>
      </trkpt>
      <trkpt lat="49.82393" lon="2.51415">
        <ele>47.4</ele>
        <time>2021-11-21T13:31:05Z</time>
      </trkpt>
      <trkpt lat="49.82393" lon="2.51417">
        <ele>47.4</ele>
        <time>2021-11-21T13:31:07Z</time>
      </trkpt>
      <trkpt lat="49.82393" lon="2.51419">
        <ele>47.4</ele>
        <time>2021-11-21T13:31:08Z</time>
      </trkpt>
      <trkpt lat="49.82394" lon="2.5142">
        <ele>47.4</ele>
        <time>2021-11-21T13:31:09Z</time>
      </trkpt>
      <trkpt lat="49.82394" lon="2.51421">
        <ele>47.4</ele>
        <time>2021-11-21T13:31:10Z</time>
      </trkpt>
      <trkpt lat="49.82395" lon="2.51424">
        <ele>47.4</ele>
        <time>2021-11-21T13:31:12Z</time>
      </trkpt>
      <trkpt lat="49.82395" lon="2.51425">
        <ele>47.4</ele>
        <time>2021-11-21T13:31:13Z</time>
      </trkpt>
      <trkpt lat="49.82395" lon="2.51427">
        <ele>47.4</ele>
        <time>2021-11-21T13:31:15Z</time>
      </trkpt>
      <trkpt lat="49.82394" lon="2.51431">
        <ele>47.4</ele>
        <time>2021-11-21T13:31:17Z</time>
      </trkpt>
      <trkpt lat="49.82394" lon="2.51434">
        <ele>47.4</ele>
        <time>2021-11-21T13:31:19Z</time>
      </trkpt>
      <trkpt lat="49.82394" lon="2.51436">
        <ele>47.4</ele>
        <time>2021-11-21T13:31:21Z</time>
      </trkpt>
      <trkpt lat="49.82395" lon="2.51438">
        <ele>47.4</ele>
        <time>2021-11-21T13:31:22Z</time>
      </trkpt>
      <trkpt lat="49.82395" lon="2.51438">
        <ele>47.4</ele>
        <time>2021-11-21T13:31:23Z</time>
      </trkpt>
      <trkpt lat="49.82395" lon="2.51441">
        <ele>47.4</ele>
        <time>2021-11-21T13:31:25Z</time>
      </trkpt>
      <trkpt lat="49.82396" lon="2.51444">
        <ele>47.4</ele>
        <time>2021-11-21T13:31:27Z</time>
      </trkpt>
      <trkpt lat="49.82396" lon="2.51446">
        <ele>47.4</ele>
        <time>2021-11-21T13:31:29Z</time>
      </trkpt>
      <trkpt lat="49.82397" lon="2.51449">
        <ele>47.4</ele>
        <time>2021-11-21T13:31:31Z</time>
      </trkpt>
      <trkpt lat="49.82397" lon="2.51451">
        <ele>47.5</ele>
        <time>2021-11-21T13:31:32Z</time>
      </trkpt>
      <trkpt lat="49.82398" lon="2.51453">
        <ele>47.5</ele>
        <time>2021-11-21T13:31:34Z</time>
      </trkpt>
      <trkpt lat="49.82399" lon="2.51456">
        <ele>47.5</ele>
        <time>2021-11-21T13:31:36Z</time>
      </trkpt>
      <trkpt lat="49.82399" lon="2.51459">
        <ele>47.5</ele>
        <time>2021-11-21T13:31:37Z</time>
      </trkpt>
      <trkpt lat="49.824" lon="2.51461">
        <ele>47.5</ele>
        <time>2021-11-21T13:31:39Z</time>
      </trkpt>
      <trkpt lat="49.824" lon="2.51464">
        <ele>47.5</ele>
        <time>2021-11-21T13:31:41Z</time>
      </trkpt>
      <trkpt lat="49.824" lon="2.51466">
        <ele>47.5</ele>
        <time>2021-11-21T13:31:42Z</time>
      </trkpt>
      <trkpt lat="49.824" lon="2.51468">
        <ele>47.5</ele>
        <time>2021-11-21T13:31:43Z</time>
      </trkpt>
      <trkpt lat="49.824" lon="2.51469">
        <ele>47.5</ele>
        <time>2021-11-21T13:31:44Z</time>
      </trkpt>
      <trkpt lat="49.824" lon="2.51471">
        <ele>47.5</ele>
        <time>2021-11-21T13:31:46Z</time>
      </trkpt>
      <trkpt lat="49.824" lon="2.51475">
        <ele>47.6</ele>
        <time>2021-11-21T13:31:48Z</time>
      </trkpt>
      <trkpt lat="49.824" lon="2.51476">
        <ele>47.6</ele>
        <time>2021-11-21T13:31:49Z</time>
      </trkpt>
      <trkpt lat="49.824" lon="2.51478">
        <ele>47.6</ele>
        <time>2021-11-21T13:31:50Z</time>
      </trkpt>
      <trkpt lat="49.82401" lon="2.51482">
        <ele>47.6</ele>
        <time>2021-11-21T13:31:52Z</time>
      </trkpt>
      <trkpt lat="49.82401" lon="2.51484">
        <ele>47.6</ele>
        <time>2021-11-21T13:31:53Z</time>
      </trkpt>
      <trkpt lat="49.82401" lon="2.51485">
        <ele>47.6</ele>
        <time>2021-11-21T13:31:54Z</time>
      </trkpt>
      <trkpt lat="49.82402" lon="2.51488">
        <ele>47.6</ele>
        <time>2021-11-21T13:31:56Z</time>
      </trkpt>
      <trkpt lat="49.82402" lon="2.51489">
        <ele>47.9</ele>
        <time>2021-11-21T13:31:57Z</time>
      </trkpt>
      <trkpt lat="49.82402" lon="2.5149">
        <ele>47.9</ele>
        <time>2021-11-21T13:31:59Z</time>
      </trkpt>
      <trkpt lat="49.82402" lon="2.5149">
        <ele>48</ele>
        <time>2021-11-21T13:32:00Z</time>
      </trkpt>
      <trkpt lat="49.82402" lon="2.5149">
        <ele>48</ele>
        <time>2021-11-21T13:32:02Z</time>
      </trkpt>
      <trkpt lat="49.82402" lon="2.5149">
        <ele>48</ele>
        <time>2021-11-21T13:32:04Z</time>
      </trkpt>
      <trkpt lat="49.82402" lon="2.5149">
        <ele>48</ele>
        <time>2021-11-21T13:32:06Z</time>
      </trkpt>
      <trkpt lat="49.82402" lon="2.5149">
        <ele>48</ele>
        <time>2021-11-21T13:32:07Z</time>
      </trkpt>
      <trkpt lat="49.82402" lon="2.5149">
        <ele>48</ele>
        <time>2021-11-21T13:32:09Z</time>
      </trkpt>
      <trkpt lat="49.82402" lon="2.51489">
        <ele>48</ele>
        <time>2021-11-21T13:32:10Z</time>
      </trkpt>
      <trkpt lat="49.82402" lon="2.51489">
        <ele>48</ele>
        <time>2021-11-21T13:32:12Z</time>
      </trkpt>
      <trkpt lat="49.82401" lon="2.51488">
        <ele>48</ele>
        <time>2021-11-21T13:32:13Z</time>
      </trkpt>
      <trkpt lat="49.82401" lon="2.51488">
        <ele>48</ele>
        <time>2021-11-21T13:32:15Z</time>
      </trkpt>
      <trkpt lat="49.824" lon="2.51488">
        <ele>48</ele>
        <time>2021-11-21T13:32:17Z</time>
      </trkpt>
      <trkpt lat="49.824" lon="2.51487">
        <ele>48.1</ele>
        <time>2021-11-21T13:32:18Z</time>
      </trkpt>
      <trkpt lat="49.82399" lon="2.51487">
        <ele>48.1</ele>
        <time>2021-11-21T13:32:20Z</time>
      </trkpt>
      <trkpt lat="49.82399" lon="2.51487">
        <ele>48.1</ele>
        <time>2021-11-21T13:32:21Z</time>
      </trkpt>
      <trkpt lat="49.82399" lon="2.51486">
        <ele>48.1</ele>
        <time>2021-11-21T13:32:23Z</time>
      </trkpt>
      <trkpt lat="49.82399" lon="2.51486">
        <ele>48.1</ele>
        <time>2021-11-21T13:32:25Z</time>
      </trkpt>
      <trkpt lat="49.82399" lon="2.51486">
        <ele>48.1</ele>
        <time>2021-11-21T13:32:26Z</time>
      </trkpt>
      <trkpt lat="49.82399" lon="2.51486">
        <ele>48.1</ele>
        <time>2021-11-21T13:32:27Z</time>
      </trkpt>
      <trkpt lat="49.82399" lon="2.51486">
        <ele>48.1</ele>
        <time>2021-11-21T13:32:29Z</time>
      </trkpt>
      <trkpt lat="49.82399" lon="2.51486">
        <ele>48.1</ele>
        <time>2021-11-21T13:32:30Z</time>
      </trkpt>
      <trkpt lat="49.82399" lon="2.51486">
        <ele>48.1</ele>
        <time>2021-11-21T13:32:31Z</time>
      </trkpt>
      <trkpt lat="49.82399" lon="2.51486">
        <ele>48.1</ele>
        <time>2021-11-21T13:32:32Z</time>
      </trkpt>
      <trkpt lat="49.82399" lon="2.51486">
        <ele>48.1</ele>
        <time>2021-11-21T13:32:34Z</time>
      </trkpt>
      <trkpt lat="49.82399" lon="2.51486">
        <ele>48.1</ele>
        <time>2021-11-21T13:32:36Z</time>
      </trkpt>
      <trkpt lat="49.82399" lon="2.51486">
        <ele>48.1</ele>
        <time>2021-11-21T13:32:37Z</time>
      </trkpt>
      <trkpt lat="49.82399" lon="2.51486">
        <ele>48.1</ele>
        <time>2021-11-21T13:32:39Z</time>
      </trkpt>
      <trkpt lat="49.82399" lon="2.51486">
        <ele>48.1</ele>
        <time>2021-11-21T13:32:40Z</time>
      </trkpt>
      <trkpt lat="49.82399" lon="2.51486">
        <ele>48.1</ele>
        <time>2021-11-21T13:32:41Z</time>
      </trkpt>
      <trkpt lat="49.82399" lon="2.51486">
        <ele>48.1</ele>
        <time>2021-11-21T13:32:42Z</time>
      </trkpt>
      <trkpt lat="49.82399" lon="2.51487">
        <ele>48.1</ele>
        <time>2021-11-21T13:32:44Z</time>
      </trkpt>
      <trkpt lat="49.82399" lon="2.51489">
        <ele>48.1</ele>
        <time>2021-11-21T13:32:46Z</time>
      </trkpt>
      <trkpt lat="49.82401" lon="2.51492">
        <ele>48.2</ele>
        <time>2021-11-21T13:32:48Z</time>
      </trkpt>
      <trkpt lat="49.82401" lon="2.51492">
        <ele>48.2</ele>
        <time>2021-11-21T13:32:49Z</time>
      </trkpt>
      <trkpt lat="49.824" lon="2.51491">
        <ele>48.2</ele>
        <time>2021-11-21T13:32:50Z</time>
      </trkpt>
      <trkpt lat="49.824" lon="2.51492">
        <ele>48.2</ele>
        <time>2021-11-21T13:32:51Z</time>
      </trkpt>
      <trkpt lat="49.824" lon="2.51492">
        <ele>48.2</ele>
        <time>2021-11-21T13:32:52Z</time>
      </trkpt>
      <trkpt lat="49.82402" lon="2.51492">
        <ele>48.3</ele>
        <time>2021-11-21T13:32:54Z</time>
      </trkpt>
      <trkpt lat="49.82403" lon="2.51493">
        <ele>48.3</ele>
        <time>2021-11-21T13:32:55Z</time>
      </trkpt>
      <trkpt lat="49.82404" lon="2.51493">
        <ele>48.3</ele>
        <time>2021-11-21T13:32:57Z</time>
      </trkpt>
      <trkpt lat="49.82405" lon="2.51493">
        <ele>48.3</ele>
        <time>2021-11-21T13:32:58Z</time>
      </trkpt>
      <trkpt lat="49.82406" lon="2.51492">
        <ele>48.4</ele>
        <time>2021-11-21T13:32:59Z</time>
      </trkpt>
      <trkpt lat="49.82407" lon="2.51492">
        <ele>48.4</ele>
        <time>2021-11-21T13:33:00Z</time>
      </trkpt>
      <trkpt lat="49.8241" lon="2.51492">
        <ele>48.5</ele>
        <time>2021-11-21T13:33:02Z</time>
      </trkpt>
      <trkpt lat="49.82411" lon="2.51492">
        <ele>48.6</ele>
        <time>2021-11-21T13:33:03Z</time>
      </trkpt>
      <trkpt lat="49.82414" lon="2.51492">
        <ele>48.7</ele>
        <time>2021-11-21T13:33:05Z</time>
      </trkpt>
      <trkpt lat="49.82415" lon="2.51492">
        <ele>48.7</ele>
        <time>2021-11-21T13:33:06Z</time>
      </trkpt>
      <trkpt lat="49.82416" lon="2.51491">
        <ele>48.8</ele>
        <time>2021-11-21T13:33:07Z</time>
      </trkpt>
      <trkpt lat="49.82418" lon="2.5149">
        <ele>48.9</ele>
        <time>2021-11-21T13:33:09Z</time>
      </trkpt>
      <trkpt lat="49.82419" lon="2.51489">
        <ele>48.9</ele>
        <time>2021-11-21T13:33:11Z</time>
      </trkpt>
      <trkpt lat="49.8242" lon="2.51489">
        <ele>49</ele>
        <time>2021-11-21T13:33:12Z</time>
      </trkpt>
      <trkpt lat="49.82421" lon="2.51489">
        <ele>49.1</ele>
        <time>2021-11-21T13:33:13Z</time>
      </trkpt>
      <trkpt lat="49.82422" lon="2.51488">
        <ele>49.1</ele>
        <time>2021-11-21T13:33:15Z</time>
      </trkpt>
      <trkpt lat="49.82423" lon="2.51488">
        <ele>49.2</ele>
        <time>2021-11-21T13:33:16Z</time>
      </trkpt>
      <trkpt lat="49.82424" lon="2.51488">
        <ele>49.2</ele>
        <time>2021-11-21T13:33:18Z</time>
      </trkpt>
      <trkpt lat="49.82425" lon="2.51488">
        <ele>49.3</ele>
        <time>2021-11-21T13:33:19Z</time>
      </trkpt>
      <trkpt lat="49.82425" lon="2.51488">
        <ele>49.3</ele>
        <time>2021-11-21T13:33:20Z</time>
      </trkpt>
      <trkpt lat="49.82426" lon="2.51487">
        <ele>49.4</ele>
        <time>2021-11-21T13:33:21Z</time>
      </trkpt>
      <trkpt lat="49.82428" lon="2.51487">
        <ele>49.5</ele>
        <time>2021-11-21T13:33:23Z</time>
      </trkpt>
      <trkpt lat="49.82432" lon="2.51486">
        <ele>49.7</ele>
        <time>2021-11-21T13:33:25Z</time>
      </trkpt>
      <trkpt lat="49.82432" lon="2.51486">
        <ele>49.8</ele>
        <time>2021-11-21T13:33:26Z</time>
      </trkpt>
      <trkpt lat="49.82434" lon="2.51486">
        <ele>49.9</ele>
        <time>2021-11-21T13:33:27Z</time>
      </trkpt>
      <trkpt lat="49.82435" lon="2.51486">
        <ele>50</ele>
        <time>2021-11-21T13:33:28Z</time>
      </trkpt>
      <trkpt lat="49.82437" lon="2.51486">
        <ele>50.2</ele>
        <time>2021-11-21T13:33:30Z</time>
      </trkpt>
      <trkpt lat="49.82438" lon="2.51486">
        <ele>50.3</ele>
        <time>2021-11-21T13:33:31Z</time>
      </trkpt>
      <trkpt lat="49.8244" lon="2.51486">
        <ele>50.4</ele>
        <time>2021-11-21T13:33:33Z</time>
      </trkpt>
      <trkpt lat="49.82441" lon="2.51485">
        <ele>50.4</ele>
        <time>2021-11-21T13:33:34Z</time>
      </trkpt>
      <trkpt lat="49.82441" lon="2.51485">
        <ele>50.5</ele>
        <time>2021-11-21T13:33:35Z</time>
      </trkpt>
      <trkpt lat="49.82442" lon="2.51485">
        <ele>50.6</ele>
        <time>2021-11-21T13:33:36Z</time>
      </trkpt>
      <trkpt lat="49.82444" lon="2.51485">
        <ele>50.7</ele>
        <time>2021-11-21T13:33:38Z</time>
      </trkpt>
      <trkpt lat="49.82445" lon="2.51485">
        <ele>50.8</ele>
        <time>2021-11-21T13:33:39Z</time>
      </trkpt>
      <trkpt lat="49.82447" lon="2.51485">
        <ele>50.9</ele>
        <time>2021-11-21T13:33:41Z</time>
      </trkpt>
      <trkpt lat="49.82449" lon="2.51485">
        <ele>51.1</ele>
        <time>2021-11-21T13:33:43Z</time>
      </trkpt>
      <trkpt lat="49.8245" lon="2.51485">
        <ele>51.2</ele>
        <time>2021-11-21T13:33:45Z</time>
      </trkpt>
      <trkpt lat="49.82451" lon="2.51485">
        <ele>51.3</ele>
        <time>2021-11-21T13:33:46Z</time>
      </trkpt>
      <trkpt lat="49.82452" lon="2.51485">
        <ele>51.4</ele>
        <time>2021-11-21T13:33:47Z</time>
      </trkpt>
      <trkpt lat="49.82453" lon="2.51485">
        <ele>51.5</ele>
        <time>2021-11-21T13:33:49Z</time>
      </trkpt>
      <trkpt lat="49.82455" lon="2.51485">
        <ele>51.7</ele>
        <time>2021-11-21T13:33:51Z</time>
      </trkpt>
      <trkpt lat="49.82456" lon="2.51485">
        <ele>51.8</ele>
        <time>2021-11-21T13:33:52Z</time>
      </trkpt>
      <trkpt lat="49.82457" lon="2.51485">
        <ele>51.9</ele>
        <time>2021-11-21T13:33:54Z</time>
      </trkpt>
      <trkpt lat="49.82458" lon="2.51485">
        <ele>52</ele>
        <time>2021-11-21T13:33:55Z</time>
      </trkpt>
      <trkpt lat="49.8246" lon="2.51485">
        <ele>52.1</ele>
        <time>2021-11-21T13:33:56Z</time>
      </trkpt>
      <trkpt lat="49.82461" lon="2.51484">
        <ele>52.3</ele>
        <time>2021-11-21T13:33:58Z</time>
      </trkpt>
      <trkpt lat="49.82462" lon="2.51484">
        <ele>52.4</ele>
        <time>2021-11-21T13:33:59Z</time>
      </trkpt>
      <trkpt lat="49.82464" lon="2.51483">
        <ele>52.5</ele>
        <time>2021-11-21T13:34:01Z</time>
      </trkpt>
      <trkpt lat="49.82465" lon="2.51483">
        <ele>52.7</ele>
        <time>2021-11-21T13:34:02Z</time>
      </trkpt>
      <trkpt lat="49.82466" lon="2.51482">
        <ele>52.8</ele>
        <time>2021-11-21T13:34:04Z</time>
      </trkpt>
      <trkpt lat="49.82468" lon="2.51481">
        <ele>53</ele>
        <time>2021-11-21T13:34:06Z</time>
      </trkpt>
      <trkpt lat="49.8247" lon="2.51481">
        <ele>53.2</ele>
        <time>2021-11-21T13:34:08Z</time>
      </trkpt>
      <trkpt lat="49.82471" lon="2.51481">
        <ele>53.3</ele>
        <time>2021-11-21T13:34:09Z</time>
      </trkpt>
      <trkpt lat="49.82473" lon="2.51481">
        <ele>53.4</ele>
        <time>2021-11-21T13:34:11Z</time>
      </trkpt>
      <trkpt lat="49.82475" lon="2.51481">
        <ele>53.6</ele>
        <time>2021-11-21T13:34:12Z</time>
      </trkpt>
      <trkpt lat="49.82476" lon="2.51481">
        <ele>53.7</ele>
        <time>2021-11-21T13:34:14Z</time>
      </trkpt>
      <trkpt lat="49.82477" lon="2.51481">
        <ele>53.9</ele>
        <time>2021-11-21T13:34:15Z</time>
      </trkpt>
      <trkpt lat="49.82479" lon="2.51481">
        <ele>54.1</ele>
        <time>2021-11-21T13:34:17Z</time>
      </trkpt>
      <trkpt lat="49.8248" lon="2.51481">
        <ele>54.2</ele>
        <time>2021-11-21T13:34:18Z</time>
      </trkpt>
      <trkpt lat="49.82482" lon="2.5148">
        <ele>54.4</ele>
        <time>2021-11-21T13:34:20Z</time>
      </trkpt>
      <trkpt lat="49.82484" lon="2.5148">
        <ele>54.7</ele>
        <time>2021-11-21T13:34:22Z</time>
      </trkpt>
      <trkpt lat="49.82485" lon="2.5148">
        <ele>54.8</ele>
        <time>2021-11-21T13:34:23Z</time>
      </trkpt>
      <trkpt lat="49.82486" lon="2.5148">
        <ele>54.9</ele>
        <time>2021-11-21T13:34:24Z</time>
      </trkpt>
      <trkpt lat="49.82487" lon="2.5148">
        <ele>55</ele>
        <time>2021-11-21T13:34:25Z</time>
      </trkpt>
      <trkpt lat="49.82488" lon="2.5148">
        <ele>55.2</ele>
        <time>2021-11-21T13:34:26Z</time>
      </trkpt>
      <trkpt lat="49.8249" lon="2.51479">
        <ele>55.4</ele>
        <time>2021-11-21T13:34:27Z</time>
      </trkpt>
      <trkpt lat="49.82491" lon="2.51479">
        <ele>55.5</ele>
        <time>2021-11-21T13:34:29Z</time>
      </trkpt>
      <trkpt lat="49.82492" lon="2.51479">
        <ele>55.7</ele>
        <time>2021-11-21T13:34:30Z</time>
      </trkpt>
      <trkpt lat="49.82493" lon="2.51478">
        <ele>55.8</ele>
        <time>2021-11-21T13:34:31Z</time>
      </trkpt>
      <trkpt lat="49.82495" lon="2.51478">
        <ele>56</ele>
        <time>2021-11-21T13:34:33Z</time>
      </trkpt>
      <trkpt lat="49.82497" lon="2.51477">
        <ele>56.2</ele>
        <time>2021-11-21T13:34:35Z</time>
      </trkpt>
      <trkpt lat="49.82499" lon="2.51476">
        <ele>56.5</ele>
        <time>2021-11-21T13:34:37Z</time>
      </trkpt>
      <trkpt lat="49.825" lon="2.51476">
        <ele>56.8</ele>
        <time>2021-11-21T13:34:39Z</time>
      </trkpt>
      <trkpt lat="49.82501" lon="2.51475">
        <ele>56.9</ele>
        <time>2021-11-21T13:34:40Z</time>
      </trkpt>
      <trkpt lat="49.82502" lon="2.51475">
        <ele>57</ele>
        <time>2021-11-21T13:34:41Z</time>
      </trkpt>
      <trkpt lat="49.82504" lon="2.51475">
        <ele>57.2</ele>
        <time>2021-11-21T13:34:43Z</time>
      </trkpt>
      <trkpt lat="49.82505" lon="2.51475">
        <ele>57.3</ele>
        <time>2021-11-21T13:34:44Z</time>
      </trkpt>
      <trkpt lat="49.82505" lon="2.51475">
        <ele>57.4</ele>
        <time>2021-11-21T13:34:45Z</time>
      </trkpt>
      <trkpt lat="49.82506" lon="2.51474">
        <ele>57.5</ele>
        <time>2021-11-21T13:34:46Z</time>
      </trkpt>
      <trkpt lat="49.82507" lon="2.51474">
        <ele>57.7</ele>
        <time>2021-11-21T13:34:48Z</time>
      </trkpt>
      <trkpt lat="49.82508" lon="2.51474">
        <ele>57.8</ele>
        <time>2021-11-21T13:34:49Z</time>
      </trkpt>
      <trkpt lat="49.82509" lon="2.51474">
        <ele>57.9</ele>
        <time>2021-11-21T13:34:50Z</time>
      </trkpt>
      <trkpt lat="49.8251" lon="2.51474">
        <ele>58</ele>
        <time>2021-11-21T13:34:51Z</time>
      </trkpt>
      <trkpt lat="49.82512" lon="2.51473">
        <ele>58.2</ele>
        <time>2021-11-21T13:34:53Z</time>
      </trkpt>
      <trkpt lat="49.82513" lon="2.51473">
        <ele>58.3</ele>
        <time>2021-11-21T13:34:54Z</time>
      </trkpt>
      <trkpt lat="49.82514" lon="2.51473">
        <ele>58.4</ele>
        <time>2021-11-21T13:34:55Z</time>
      </trkpt>
      <trkpt lat="49.82514" lon="2.51473">
        <ele>58.5</ele>
        <time>2021-11-21T13:34:56Z</time>
      </trkpt>
      <trkpt lat="49.82516" lon="2.51472">
        <ele>58.8</ele>
        <time>2021-11-21T13:34:58Z</time>
      </trkpt>
      <trkpt lat="49.82517" lon="2.51472">
        <ele>58.9</ele>
        <time>2021-11-21T13:34:59Z</time>
      </trkpt>
      <trkpt lat="49.82519" lon="2.51472">
        <ele>59.1</ele>
        <time>2021-11-21T13:35:01Z</time>
      </trkpt>
      <trkpt lat="49.82521" lon="2.51472">
        <ele>59.3</ele>
        <time>2021-11-21T13:35:03Z</time>
      </trkpt>
      <trkpt lat="49.82522" lon="2.51472">
        <ele>59.4</ele>
        <time>2021-11-21T13:35:04Z</time>
      </trkpt>
      <trkpt lat="49.82522" lon="2.51472">
        <ele>59.5</ele>
        <time>2021-11-21T13:35:05Z</time>
      </trkpt>
      <trkpt lat="49.82524" lon="2.51471">
        <ele>59.7</ele>
        <time>2021-11-21T13:35:07Z</time>
      </trkpt>
      <trkpt lat="49.82525" lon="2.51471">
        <ele>59.8</ele>
        <time>2021-11-21T13:35:08Z</time>
      </trkpt>
      <trkpt lat="49.82526" lon="2.51471">
        <ele>59.9</ele>
        <time>2021-11-21T13:35:09Z</time>
      </trkpt>
      <trkpt lat="49.82527" lon="2.51471">
        <ele>60</ele>
        <time>2021-11-21T13:35:10Z</time>
      </trkpt>
      <trkpt lat="49.82529" lon="2.5147">
        <ele>60.2</ele>
        <time>2021-11-21T13:35:12Z</time>
      </trkpt>
      <trkpt lat="49.82529" lon="2.5147">
        <ele>60.3</ele>
        <time>2021-11-21T13:35:13Z</time>
      </trkpt>
      <trkpt lat="49.8253" lon="2.5147">
        <ele>60.3</ele>
        <time>2021-11-21T13:35:14Z</time>
      </trkpt>
      <trkpt lat="49.82531" lon="2.5147">
        <ele>60.5</ele>
        <time>2021-11-21T13:35:15Z</time>
      </trkpt>
      <trkpt lat="49.82533" lon="2.5147">
        <ele>60.7</ele>
        <time>2021-11-21T13:35:17Z</time>
      </trkpt>
      <trkpt lat="49.82534" lon="2.5147">
        <ele>60.8</ele>
        <time>2021-11-21T13:35:19Z</time>
      </trkpt>
      <trkpt lat="49.82535" lon="2.5147">
        <ele>60.9</ele>
        <time>2021-11-21T13:35:20Z</time>
      </trkpt>
      <trkpt lat="49.82537" lon="2.5147">
        <ele>61.1</ele>
        <time>2021-11-21T13:35:22Z</time>
      </trkpt>
      <trkpt lat="49.82538" lon="2.5147">
        <ele>61.3</ele>
        <time>2021-11-21T13:35:24Z</time>
      </trkpt>
      <trkpt lat="49.8254" lon="2.51471">
        <ele>61.5</ele>
        <time>2021-11-21T13:35:26Z</time>
      </trkpt>
      <trkpt lat="49.82542" lon="2.51471">
        <ele>61.8</ele>
        <time>2021-11-21T13:35:28Z</time>
      </trkpt>
      <trkpt lat="49.82543" lon="2.51472">
        <ele>61.8</ele>
        <time>2021-11-21T13:35:29Z</time>
      </trkpt>
      <trkpt lat="49.82545" lon="2.51472">
        <ele>62</ele>
        <time>2021-11-21T13:35:31Z</time>
      </trkpt>
      <trkpt lat="49.82547" lon="2.51472">
        <ele>62.2</ele>
        <time>2021-11-21T13:35:33Z</time>
      </trkpt>
      <trkpt lat="49.82547" lon="2.51473">
        <ele>62.3</ele>
        <time>2021-11-21T13:35:34Z</time>
      </trkpt>
      <trkpt lat="49.82548" lon="2.51473">
        <ele>62.4</ele>
        <time>2021-11-21T13:35:35Z</time>
      </trkpt>
      <trkpt lat="49.82549" lon="2.51474">
        <ele>62.5</ele>
        <time>2021-11-21T13:35:36Z</time>
      </trkpt>
      <trkpt lat="49.82551" lon="2.51476">
        <ele>62.7</ele>
        <time>2021-11-21T13:35:38Z</time>
      </trkpt>
      <trkpt lat="49.82552" lon="2.51477">
        <ele>62.8</ele>
        <time>2021-11-21T13:35:39Z</time>
      </trkpt>
      <trkpt lat="49.82553" lon="2.51479">
        <ele>63</ele>
        <time>2021-11-21T13:35:41Z</time>
      </trkpt>
      <trkpt lat="49.82555" lon="2.51482">
        <ele>63.2</ele>
        <time>2021-11-21T13:35:43Z</time>
      </trkpt>
      <trkpt lat="49.82556" lon="2.51484">
        <ele>63.4</ele>
        <time>2021-11-21T13:35:45Z</time>
      </trkpt>
      <trkpt lat="49.82556" lon="2.51485">
        <ele>63.4</ele>
        <time>2021-11-21T13:35:46Z</time>
      </trkpt>
      <trkpt lat="49.82557" lon="2.51486">
        <ele>63.5</ele>
        <time>2021-11-21T13:35:47Z</time>
      </trkpt>
      <trkpt lat="49.82557" lon="2.51489">
        <ele>63.6</ele>
        <time>2021-11-21T13:35:49Z</time>
      </trkpt>
      <trkpt lat="49.82558" lon="2.51491">
        <ele>63.7</ele>
        <time>2021-11-21T13:35:51Z</time>
      </trkpt>
      <trkpt lat="49.82558" lon="2.51492">
        <ele>63.8</ele>
        <time>2021-11-21T13:35:52Z</time>
      </trkpt>
      <trkpt lat="49.82558" lon="2.51494">
        <ele>63.9</ele>
        <time>2021-11-21T13:35:53Z</time>
      </trkpt>
      <trkpt lat="49.82559" lon="2.51494">
        <ele>63.9</ele>
        <time>2021-11-21T13:35:54Z</time>
      </trkpt>
      <trkpt lat="49.82559" lon="2.51496">
        <ele>64</ele>
        <time>2021-11-21T13:35:56Z</time>
      </trkpt>
      <trkpt lat="49.82559" lon="2.51497">
        <ele>64.1</ele>
        <time>2021-11-21T13:35:57Z</time>
      </trkpt>
      <trkpt lat="49.82559" lon="2.51499">
        <ele>64.2</ele>
        <time>2021-11-21T13:35:59Z</time>
      </trkpt>
      <trkpt lat="49.8256" lon="2.515">
        <ele>64.2</ele>
        <time>2021-11-21T13:36:00Z</time>
      </trkpt>
      <trkpt lat="49.8256" lon="2.51503">
        <ele>64.3</ele>
        <time>2021-11-21T13:36:02Z</time>
      </trkpt>
      <trkpt lat="49.8256" lon="2.51504">
        <ele>64.4</ele>
        <time>2021-11-21T13:36:03Z</time>
      </trkpt>
      <trkpt lat="49.82561" lon="2.51506">
        <ele>64.4</ele>
        <time>2021-11-21T13:36:05Z</time>
      </trkpt>
      <trkpt lat="49.82561" lon="2.51507">
        <ele>64.5</ele>
        <time>2021-11-21T13:36:06Z</time>
      </trkpt>
      <trkpt lat="49.8256" lon="2.51509">
        <ele>64.6</ele>
        <time>2021-11-21T13:36:07Z</time>
      </trkpt>
      <trkpt lat="49.82561" lon="2.51512">
        <ele>64.7</ele>
        <time>2021-11-21T13:36:09Z</time>
      </trkpt>
      <trkpt lat="49.82561" lon="2.51514">
        <ele>64.8</ele>
        <time>2021-11-21T13:36:10Z</time>
      </trkpt>
      <trkpt lat="49.82561" lon="2.51517">
        <ele>64.9</ele>
        <time>2021-11-21T13:36:12Z</time>
      </trkpt>
      <trkpt lat="49.82561" lon="2.5152">
        <ele>65.1</ele>
        <time>2021-11-21T13:36:14Z</time>
      </trkpt>
      <trkpt lat="49.82562" lon="2.51522">
        <ele>65.1</ele>
        <time>2021-11-21T13:36:16Z</time>
      </trkpt>
      <trkpt lat="49.82563" lon="2.51526">
        <ele>65.3</ele>
        <time>2021-11-21T13:36:18Z</time>
      </trkpt>
      <trkpt lat="49.82563" lon="2.51528">
        <ele>65.4</ele>
        <time>2021-11-21T13:36:20Z</time>
      </trkpt>
      <trkpt lat="49.82564" lon="2.5153">
        <ele>65.4</ele>
        <time>2021-11-21T13:36:21Z</time>
      </trkpt>
      <trkpt lat="49.82564" lon="2.51532">
        <ele>65.5</ele>
        <time>2021-11-21T13:36:22Z</time>
      </trkpt>
      <trkpt lat="49.82565" lon="2.51534">
        <ele>65.6</ele>
        <time>2021-11-21T13:36:24Z</time>
      </trkpt>
      <trkpt lat="49.82565" lon="2.51536">
        <ele>65.7</ele>
        <time>2021-11-21T13:36:25Z</time>
      </trkpt>
      <trkpt lat="49.82565" lon="2.51537">
        <ele>65.7</ele>
        <time>2021-11-21T13:36:26Z</time>
      </trkpt>
      <trkpt lat="49.82567" lon="2.5154">
        <ele>65.8</ele>
        <time>2021-11-21T13:36:28Z</time>
      </trkpt>
      <trkpt lat="49.82567" lon="2.51541">
        <ele>65.9</ele>
        <time>2021-11-21T13:36:29Z</time>
      </trkpt>
      <trkpt lat="49.82568" lon="2.51543">
        <ele>66</ele>
        <time>2021-11-21T13:36:31Z</time>
      </trkpt>
      <trkpt lat="49.82568" lon="2.51544">
        <ele>66</ele>
        <time>2021-11-21T13:36:32Z</time>
      </trkpt>
      <trkpt lat="49.82569" lon="2.51546">
        <ele>66.1</ele>
        <time>2021-11-21T13:36:33Z</time>
      </trkpt>
      <trkpt lat="49.82569" lon="2.51548">
        <ele>66.2</ele>
        <time>2021-11-21T13:36:34Z</time>
      </trkpt>
      <trkpt lat="49.8257" lon="2.51551">
        <ele>66.3</ele>
        <time>2021-11-21T13:36:36Z</time>
      </trkpt>
      <trkpt lat="49.82571" lon="2.51554">
        <ele>66.4</ele>
        <time>2021-11-21T13:36:38Z</time>
      </trkpt>
      <trkpt lat="49.82571" lon="2.51555">
        <ele>66.5</ele>
        <time>2021-11-21T13:36:39Z</time>
      </trkpt>
      <trkpt lat="49.82572" lon="2.51559">
        <ele>66.7</ele>
        <time>2021-11-21T13:36:41Z</time>
      </trkpt>
      <trkpt lat="49.82573" lon="2.5156">
        <ele>66.8</ele>
        <time>2021-11-21T13:36:42Z</time>
      </trkpt>
      <trkpt lat="49.82573" lon="2.51562">
        <ele>66.9</ele>
        <time>2021-11-21T13:36:44Z</time>
      </trkpt>
      <trkpt lat="49.82574" lon="2.51564">
        <ele>66.9</ele>
        <time>2021-11-21T13:36:45Z</time>
      </trkpt>
      <trkpt lat="49.82574" lon="2.51565">
        <ele>67</ele>
        <time>2021-11-21T13:36:46Z</time>
      </trkpt>
      <trkpt lat="49.82575" lon="2.51567">
        <ele>67.1</ele>
        <time>2021-11-21T13:36:47Z</time>
      </trkpt>
      <trkpt lat="49.82575" lon="2.51569">
        <ele>67.2</ele>
        <time>2021-11-21T13:36:49Z</time>
      </trkpt>
      <trkpt lat="49.82576" lon="2.51571">
        <ele>67.9</ele>
        <time>2021-11-21T13:36:51Z</time>
      </trkpt>
      <trkpt lat="49.82576" lon="2.51572">
        <ele>67.9</ele>
        <time>2021-11-21T13:36:52Z</time>
      </trkpt>
      <trkpt lat="49.82578" lon="2.51575">
        <ele>68.1</ele>
        <time>2021-11-21T13:36:54Z</time>
      </trkpt>
      <trkpt lat="49.82578" lon="2.51575">
        <ele>68.2</ele>
        <time>2021-11-21T13:36:55Z</time>
      </trkpt>
      <trkpt lat="49.8258" lon="2.51577">
        <ele>68.4</ele>
        <time>2021-11-21T13:36:57Z</time>
      </trkpt>
      <trkpt lat="49.82582" lon="2.51578">
        <ele>68.6</ele>
        <time>2021-11-21T13:36:59Z</time>
      </trkpt>
      <trkpt lat="49.82583" lon="2.51578">
        <ele>68.7</ele>
        <time>2021-11-21T13:37:00Z</time>
      </trkpt>
      <trkpt lat="49.82585" lon="2.51579">
        <ele>68.9</ele>
        <time>2021-11-21T13:37:02Z</time>
      </trkpt>
      <trkpt lat="49.82586" lon="2.5158">
        <ele>69</ele>
        <time>2021-11-21T13:37:03Z</time>
      </trkpt>
      <trkpt lat="49.82587" lon="2.5158">
        <ele>69.1</ele>
        <time>2021-11-21T13:37:05Z</time>
      </trkpt>
      <trkpt lat="49.82588" lon="2.5158">
        <ele>69.2</ele>
        <time>2021-11-21T13:37:06Z</time>
      </trkpt>
      <trkpt lat="49.82589" lon="2.5158">
        <ele>69.3</ele>
        <time>2021-11-21T13:37:07Z</time>
      </trkpt>
      <trkpt lat="49.8259" lon="2.5158">
        <ele>69.5</ele>
        <time>2021-11-21T13:37:09Z</time>
      </trkpt>
      <trkpt lat="49.82591" lon="2.5158">
        <ele>69.5</ele>
        <time>2021-11-21T13:37:10Z</time>
      </trkpt>
      <trkpt lat="49.82592" lon="2.5158">
        <ele>69.7</ele>
        <time>2021-11-21T13:37:12Z</time>
      </trkpt>
      <trkpt lat="49.82594" lon="2.51581">
        <ele>69.9</ele>
        <time>2021-11-21T13:37:14Z</time>
      </trkpt>
      <trkpt lat="49.82595" lon="2.51582">
        <ele>69.9</ele>
        <time>2021-11-21T13:37:15Z</time>
      </trkpt>
      <trkpt lat="49.82595" lon="2.51582">
        <ele>70</ele>
        <time>2021-11-21T13:37:16Z</time>
      </trkpt>
      <trkpt lat="49.82597" lon="2.51582">
        <ele>70.2</ele>
        <time>2021-11-21T13:37:18Z</time>
      </trkpt>
      <trkpt lat="49.82598" lon="2.51581">
        <ele>70.3</ele>
        <time>2021-11-21T13:37:19Z</time>
      </trkpt>
      <trkpt lat="49.82599" lon="2.51581">
        <ele>70.4</ele>
        <time>2021-11-21T13:37:20Z</time>
      </trkpt>
      <trkpt lat="49.826" lon="2.51581">
        <ele>70.5</ele>
        <time>2021-11-21T13:37:22Z</time>
      </trkpt>
      <trkpt lat="49.82601" lon="2.5158">
        <ele>70.7</ele>
        <time>2021-11-21T13:37:24Z</time>
      </trkpt>
      <trkpt lat="49.82602" lon="2.5158">
        <ele>70.8</ele>
        <time>2021-11-21T13:37:25Z</time>
      </trkpt>
      <trkpt lat="49.82603" lon="2.51579">
        <ele>70.9</ele>
        <time>2021-11-21T13:37:27Z</time>
      </trkpt>
      <trkpt lat="49.82605" lon="2.51579">
        <ele>71.1</ele>
        <time>2021-11-21T13:37:29Z</time>
      </trkpt>
      <trkpt lat="49.82605" lon="2.51578">
        <ele>71.1</ele>
        <time>2021-11-21T13:37:30Z</time>
      </trkpt>
      <trkpt lat="49.82606" lon="2.51578">
        <ele>71.2</ele>
        <time>2021-11-21T13:37:32Z</time>
      </trkpt>
      <trkpt lat="49.82606" lon="2.51577">
        <ele>71.3</ele>
        <time>2021-11-21T13:37:33Z</time>
      </trkpt>
      <trkpt lat="49.82607" lon="2.51577">
        <ele>71.3</ele>
        <time>2021-11-21T13:37:34Z</time>
      </trkpt>
      <trkpt lat="49.82607" lon="2.51576">
        <ele>71.4</ele>
        <time>2021-11-21T13:37:35Z</time>
      </trkpt>
      <trkpt lat="49.82608" lon="2.51576">
        <ele>71.5</ele>
        <time>2021-11-21T13:37:37Z</time>
      </trkpt>
      <trkpt lat="49.8261" lon="2.51575">
        <ele>71.7</ele>
        <time>2021-11-21T13:37:39Z</time>
      </trkpt>
      <trkpt lat="49.8261" lon="2.51575">
        <ele>71.8</ele>
        <time>2021-11-21T13:37:41Z</time>
      </trkpt>
      <trkpt lat="49.82611" lon="2.51574">
        <ele>71.9</ele>
        <time>2021-11-21T13:37:42Z</time>
      </trkpt>
      <trkpt lat="49.82612" lon="2.51573">
        <ele>72</ele>
        <time>2021-11-21T13:37:44Z</time>
      </trkpt>
      <trkpt lat="49.82614" lon="2.51572">
        <ele>72.2</ele>
        <time>2021-11-21T13:37:46Z</time>
      </trkpt>
      <trkpt lat="49.82615" lon="2.51571">
        <ele>72.4</ele>
        <time>2021-11-21T13:37:48Z</time>
      </trkpt>
      <trkpt lat="49.82616" lon="2.5157">
        <ele>72.5</ele>
        <time>2021-11-21T13:37:49Z</time>
      </trkpt>
      <trkpt lat="49.82618" lon="2.51569">
        <ele>72.6</ele>
        <time>2021-11-21T13:37:51Z</time>
      </trkpt>
      <trkpt lat="49.8262" lon="2.51568">
        <ele>72.9</ele>
        <time>2021-11-21T13:37:53Z</time>
      </trkpt>
      <trkpt lat="49.8262" lon="2.51567">
        <ele>73</ele>
        <time>2021-11-21T13:37:54Z</time>
      </trkpt>
      <trkpt lat="49.82622" lon="2.51566">
        <ele>73.1</ele>
        <time>2021-11-21T13:37:56Z</time>
      </trkpt>
      <trkpt lat="49.82623" lon="2.51564">
        <ele>73.3</ele>
        <time>2021-11-21T13:37:58Z</time>
      </trkpt>
      <trkpt lat="49.82624" lon="2.51563">
        <ele>73.5</ele>
        <time>2021-11-21T13:37:59Z</time>
      </trkpt>
      <trkpt lat="49.82625" lon="2.51562">
        <ele>73.6</ele>
        <time>2021-11-21T13:38:00Z</time>
      </trkpt>
      <trkpt lat="49.82626" lon="2.51562">
        <ele>73.6</ele>
        <time>2021-11-21T13:38:02Z</time>
      </trkpt>
      <trkpt lat="49.82626" lon="2.51561">
        <ele>73.7</ele>
        <time>2021-11-21T13:38:03Z</time>
      </trkpt>
      <trkpt lat="49.82627" lon="2.5156">
        <ele>73.8</ele>
        <time>2021-11-21T13:38:05Z</time>
      </trkpt>
      <trkpt lat="49.82628" lon="2.51559">
        <ele>73.9</ele>
        <time>2021-11-21T13:38:06Z</time>
      </trkpt>
      <trkpt lat="49.82628" lon="2.51559">
        <ele>74</ele>
        <time>2021-11-21T13:38:07Z</time>
      </trkpt>
      <trkpt lat="49.8263" lon="2.51558">
        <ele>74.1</ele>
        <time>2021-11-21T13:38:09Z</time>
      </trkpt>
      <trkpt lat="49.82631" lon="2.51557">
        <ele>74.2</ele>
        <time>2021-11-21T13:38:10Z</time>
      </trkpt>
      <trkpt lat="49.82631" lon="2.51557">
        <ele>74.3</ele>
        <time>2021-11-21T13:38:11Z</time>
      </trkpt>
      <trkpt lat="49.82633" lon="2.51556">
        <ele>74.4</ele>
        <time>2021-11-21T13:38:13Z</time>
      </trkpt>
      <trkpt lat="49.82634" lon="2.51555">
        <ele>74.6</ele>
        <time>2021-11-21T13:38:14Z</time>
      </trkpt>
      <trkpt lat="49.82635" lon="2.51554">
        <ele>74.7</ele>
        <time>2021-11-21T13:38:16Z</time>
      </trkpt>
      <trkpt lat="49.82636" lon="2.51553">
        <ele>74.8</ele>
        <time>2021-11-21T13:38:17Z</time>
      </trkpt>
      <trkpt lat="49.82638" lon="2.51552">
        <ele>75</ele>
        <time>2021-11-21T13:38:19Z</time>
      </trkpt>
      <trkpt lat="49.82638" lon="2.51551">
        <ele>75</ele>
        <time>2021-11-21T13:38:20Z</time>
      </trkpt>
      <trkpt lat="49.82639" lon="2.5155">
        <ele>75.1</ele>
        <time>2021-11-21T13:38:22Z</time>
      </trkpt>
      <trkpt lat="49.82641" lon="2.51548">
        <ele>75.3</ele>
        <time>2021-11-21T13:38:24Z</time>
      </trkpt>
      <trkpt lat="49.82642" lon="2.51547">
        <ele>75.4</ele>
        <time>2021-11-21T13:38:26Z</time>
      </trkpt>
      <trkpt lat="49.82643" lon="2.51547">
        <ele>75.5</ele>
        <time>2021-11-21T13:38:27Z</time>
      </trkpt>
      <trkpt lat="49.82644" lon="2.51545">
        <ele>75.7</ele>
        <time>2021-11-21T13:38:29Z</time>
      </trkpt>
      <trkpt lat="49.82645" lon="2.51544">
        <ele>75.8</ele>
        <time>2021-11-21T13:38:31Z</time>
      </trkpt>
      <trkpt lat="49.82646" lon="2.51543">
        <ele>75.8</ele>
        <time>2021-11-21T13:38:32Z</time>
      </trkpt>
      <trkpt lat="49.82646" lon="2.51543">
        <ele>75.9</ele>
        <time>2021-11-21T13:38:33Z</time>
      </trkpt>
      <trkpt lat="49.82648" lon="2.51542">
        <ele>76</ele>
        <time>2021-11-21T13:38:35Z</time>
      </trkpt>
      <trkpt lat="49.82649" lon="2.5154">
        <ele>76.1</ele>
        <time>2021-11-21T13:38:37Z</time>
      </trkpt>
      <trkpt lat="49.8265" lon="2.51539">
        <ele>76.3</ele>
        <time>2021-11-21T13:38:39Z</time>
      </trkpt>
      <trkpt lat="49.82651" lon="2.51539">
        <ele>76.3</ele>
        <time>2021-11-21T13:38:40Z</time>
      </trkpt>
      <trkpt lat="49.82651" lon="2.51538">
        <ele>76.4</ele>
        <time>2021-11-21T13:38:41Z</time>
      </trkpt>
      <trkpt lat="49.82651" lon="2.51537">
        <ele>76.5</ele>
        <time>2021-11-21T13:38:42Z</time>
      </trkpt>
      <trkpt lat="49.82652" lon="2.51536">
        <ele>76.5</ele>
        <time>2021-11-21T13:38:43Z</time>
      </trkpt>
      <trkpt lat="49.82653" lon="2.51535">
        <ele>76.7</ele>
        <time>2021-11-21T13:38:45Z</time>
      </trkpt>
      <trkpt lat="49.82655" lon="2.51534">
        <ele>76.8</ele>
        <time>2021-11-21T13:38:46Z</time>
      </trkpt>
      <trkpt lat="49.82656" lon="2.51533">
        <ele>76.9</ele>
        <time>2021-11-21T13:38:48Z</time>
      </trkpt>
      <trkpt lat="49.82656" lon="2.51532">
        <ele>77</ele>
        <time>2021-11-21T13:38:49Z</time>
      </trkpt>
      <trkpt lat="49.82658" lon="2.51531">
        <ele>77.1</ele>
        <time>2021-11-21T13:38:51Z</time>
      </trkpt>
      <trkpt lat="49.82659" lon="2.5153">
        <ele>77.3</ele>
        <time>2021-11-21T13:38:53Z</time>
      </trkpt>
      <trkpt lat="49.82661" lon="2.51529">
        <ele>77.4</ele>
        <time>2021-11-21T13:38:54Z</time>
      </trkpt>
      <trkpt lat="49.82662" lon="2.51529">
        <ele>77.5</ele>
        <time>2021-11-21T13:38:56Z</time>
      </trkpt>
      <trkpt lat="49.82663" lon="2.51528">
        <ele>77.6</ele>
        <time>2021-11-21T13:38:57Z</time>
      </trkpt>
      <trkpt lat="49.82665" lon="2.51526">
        <ele>77.8</ele>
        <time>2021-11-21T13:38:59Z</time>
      </trkpt>
      <trkpt lat="49.82666" lon="2.51526">
        <ele>78</ele>
        <time>2021-11-21T13:39:01Z</time>
      </trkpt>
      <trkpt lat="49.82668" lon="2.51524">
        <ele>78.1</ele>
        <time>2021-11-21T13:39:03Z</time>
      </trkpt>
      <trkpt lat="49.8267" lon="2.51524">
        <ele>78.3</ele>
        <time>2021-11-21T13:39:05Z</time>
      </trkpt>
      <trkpt lat="49.82671" lon="2.51524">
        <ele>78.4</ele>
        <time>2021-11-21T13:39:06Z</time>
      </trkpt>
      <trkpt lat="49.82672" lon="2.51523">
        <ele>78.5</ele>
        <time>2021-11-21T13:39:07Z</time>
      </trkpt>
      <trkpt lat="49.82674" lon="2.51522">
        <ele>78.7</ele>
        <time>2021-11-21T13:39:09Z</time>
      </trkpt>
      <trkpt lat="49.82676" lon="2.51521">
        <ele>78.9</ele>
        <time>2021-11-21T13:39:10Z</time>
      </trkpt>
      <trkpt lat="49.82677" lon="2.51521">
        <ele>79</ele>
        <time>2021-11-21T13:39:12Z</time>
      </trkpt>
      <trkpt lat="49.82678" lon="2.51521">
        <ele>79</ele>
        <time>2021-11-21T13:39:13Z</time>
      </trkpt>
      <trkpt lat="49.82679" lon="2.5152">
        <ele>79.2</ele>
        <time>2021-11-21T13:39:14Z</time>
      </trkpt>
      <trkpt lat="49.8268" lon="2.5152">
        <ele>79.2</ele>
        <time>2021-11-21T13:39:15Z</time>
      </trkpt>
      <trkpt lat="49.82681" lon="2.51519">
        <ele>79.3</ele>
        <time>2021-11-21T13:39:16Z</time>
      </trkpt>
      <trkpt lat="49.82682" lon="2.51519">
        <ele>79.4</ele>
        <time>2021-11-21T13:39:17Z</time>
      </trkpt>
      <trkpt lat="49.82684" lon="2.51518">
        <ele>79.6</ele>
        <time>2021-11-21T13:39:19Z</time>
      </trkpt>
      <trkpt lat="49.82685" lon="2.51518">
        <ele>79.7</ele>
        <time>2021-11-21T13:39:20Z</time>
      </trkpt>
      <trkpt lat="49.82686" lon="2.51517">
        <ele>79.8</ele>
        <time>2021-11-21T13:39:21Z</time>
      </trkpt>
      <trkpt lat="49.82688" lon="2.51515">
        <ele>79.9</ele>
        <time>2021-11-21T13:39:23Z</time>
      </trkpt>
      <trkpt lat="49.82689" lon="2.51515">
        <ele>80</ele>
        <time>2021-11-21T13:39:24Z</time>
      </trkpt>
      <trkpt lat="49.8269" lon="2.51514">
        <ele>80.1</ele>
        <time>2021-11-21T13:39:26Z</time>
      </trkpt>
      <trkpt lat="49.82692" lon="2.51513">
        <ele>80.3</ele>
        <time>2021-11-21T13:39:28Z</time>
      </trkpt>
      <trkpt lat="49.82694" lon="2.51513">
        <ele>80.5</ele>
        <time>2021-11-21T13:39:30Z</time>
      </trkpt>
      <trkpt lat="49.82695" lon="2.51512">
        <ele>80.6</ele>
        <time>2021-11-21T13:39:31Z</time>
      </trkpt>
      <trkpt lat="49.82697" lon="2.51512">
        <ele>80.7</ele>
        <time>2021-11-21T13:39:33Z</time>
      </trkpt>
      <trkpt lat="49.82699" lon="2.51511">
        <ele>80.9</ele>
        <time>2021-11-21T13:39:35Z</time>
      </trkpt>
      <trkpt lat="49.82701" lon="2.5151">
        <ele>81</ele>
        <time>2021-11-21T13:39:36Z</time>
      </trkpt>
      <trkpt lat="49.82702" lon="2.5151">
        <ele>81.1</ele>
        <time>2021-11-21T13:39:38Z</time>
      </trkpt>
      <trkpt lat="49.82703" lon="2.5151">
        <ele>81.2</ele>
        <time>2021-11-21T13:39:39Z</time>
      </trkpt>
      <trkpt lat="49.82704" lon="2.5151">
        <ele>81.3</ele>
        <time>2021-11-21T13:39:41Z</time>
      </trkpt>
      <trkpt lat="49.82705" lon="2.5151">
        <ele>81.4</ele>
        <time>2021-11-21T13:39:42Z</time>
      </trkpt>
      <trkpt lat="49.82708" lon="2.51509">
        <ele>81.5</ele>
        <time>2021-11-21T13:39:44Z</time>
      </trkpt>
      <trkpt lat="49.82708" lon="2.51509">
        <ele>81.6</ele>
        <time>2021-11-21T13:39:45Z</time>
      </trkpt>
      <trkpt lat="49.82709" lon="2.51509">
        <ele>81.7</ele>
        <time>2021-11-21T13:39:46Z</time>
      </trkpt>
      <trkpt lat="49.82711" lon="2.51508">
        <ele>81.8</ele>
        <time>2021-11-21T13:39:48Z</time>
      </trkpt>
      <trkpt lat="49.82712" lon="2.51508">
        <ele>81.8</ele>
        <time>2021-11-21T13:39:49Z</time>
      </trkpt>
      <trkpt lat="49.82713" lon="2.51508">
        <ele>81.9</ele>
        <time>2021-11-21T13:39:50Z</time>
      </trkpt>
      <trkpt lat="49.82715" lon="2.51507">
        <ele>82</ele>
        <time>2021-11-21T13:39:52Z</time>
      </trkpt>
      <trkpt lat="49.82717" lon="2.51506">
        <ele>82.2</ele>
        <time>2021-11-21T13:39:54Z</time>
      </trkpt>
      <trkpt lat="49.82717" lon="2.51506">
        <ele>82.2</ele>
        <time>2021-11-21T13:39:55Z</time>
      </trkpt>
      <trkpt lat="49.82719" lon="2.51505">
        <ele>82.3</ele>
        <time>2021-11-21T13:39:57Z</time>
      </trkpt>
      <trkpt lat="49.82721" lon="2.51505">
        <ele>82.5</ele>
        <time>2021-11-21T13:39:59Z</time>
      </trkpt>
      <trkpt lat="49.82722" lon="2.51504">
        <ele>82.6</ele>
        <time>2021-11-21T13:40:01Z</time>
      </trkpt>
      <trkpt lat="49.82723" lon="2.51504">
        <ele>82.7</ele>
        <time>2021-11-21T13:40:02Z</time>
      </trkpt>
      <trkpt lat="49.82724" lon="2.51504">
        <ele>82.7</ele>
        <time>2021-11-21T13:40:03Z</time>
      </trkpt>
      <trkpt lat="49.82726" lon="2.51503">
        <ele>82.9</ele>
        <time>2021-11-21T13:40:05Z</time>
      </trkpt>
      <trkpt lat="49.82727" lon="2.51503">
        <ele>82.9</ele>
        <time>2021-11-21T13:40:06Z</time>
      </trkpt>
      <trkpt lat="49.82729" lon="2.51503">
        <ele>83</ele>
        <time>2021-11-21T13:40:08Z</time>
      </trkpt>
      <trkpt lat="49.82731" lon="2.51502">
        <ele>83.1</ele>
        <time>2021-11-21T13:40:10Z</time>
      </trkpt>
      <trkpt lat="49.82731" lon="2.51502">
        <ele>83.2</ele>
        <time>2021-11-21T13:40:11Z</time>
      </trkpt>
      <trkpt lat="49.82732" lon="2.51502">
        <ele>83.2</ele>
        <time>2021-11-21T13:40:12Z</time>
      </trkpt>
      <trkpt lat="49.82734" lon="2.51503">
        <ele>83.3</ele>
        <time>2021-11-21T13:40:14Z</time>
      </trkpt>
      <trkpt lat="49.82735" lon="2.51504">
        <ele>83.4</ele>
        <time>2021-11-21T13:40:15Z</time>
      </trkpt>
      <trkpt lat="49.82737" lon="2.51505">
        <ele>83.5</ele>
        <time>2021-11-21T13:40:17Z</time>
      </trkpt>
      <trkpt lat="49.82738" lon="2.51506">
        <ele>83.6</ele>
        <time>2021-11-21T13:40:18Z</time>
      </trkpt>
      <trkpt lat="49.82741" lon="2.51506">
        <ele>83.7</ele>
        <time>2021-11-21T13:40:20Z</time>
      </trkpt>
      <trkpt lat="49.82742" lon="2.51506">
        <ele>83.8</ele>
        <time>2021-11-21T13:40:21Z</time>
      </trkpt>
      <trkpt lat="49.82743" lon="2.51506">
        <ele>83.9</ele>
        <time>2021-11-21T13:40:22Z</time>
      </trkpt>
      <trkpt lat="49.82744" lon="2.51506">
        <ele>83.9</ele>
        <time>2021-11-21T13:40:23Z</time>
      </trkpt>
      <trkpt lat="49.82747" lon="2.51506">
        <ele>84.1</ele>
        <time>2021-11-21T13:40:25Z</time>
      </trkpt>
      <trkpt lat="49.82748" lon="2.51506">
        <ele>84.1</ele>
        <time>2021-11-21T13:40:26Z</time>
      </trkpt>
      <trkpt lat="49.8275" lon="2.51506">
        <ele>84.2</ele>
        <time>2021-11-21T13:40:28Z</time>
      </trkpt>
      <trkpt lat="49.82753" lon="2.51506">
        <ele>84.3</ele>
        <time>2021-11-21T13:40:30Z</time>
      </trkpt>
      <trkpt lat="49.82755" lon="2.51506">
        <ele>84.4</ele>
        <time>2021-11-21T13:40:32Z</time>
      </trkpt>
      <trkpt lat="49.82758" lon="2.51507">
        <ele>84.5</ele>
        <time>2021-11-21T13:40:34Z</time>
      </trkpt>
      <trkpt lat="49.82759" lon="2.51507">
        <ele>84.5</ele>
        <time>2021-11-21T13:40:35Z</time>
      </trkpt>
      <trkpt lat="49.8276" lon="2.51507">
        <ele>84.5</ele>
        <time>2021-11-21T13:40:37Z</time>
      </trkpt>
      <trkpt lat="49.82761" lon="2.51508">
        <ele>84.6</ele>
        <time>2021-11-21T13:40:38Z</time>
      </trkpt>
      <trkpt lat="49.82763" lon="2.51508">
        <ele>84.6</ele>
        <time>2021-11-21T13:40:40Z</time>
      </trkpt>
      <trkpt lat="49.82765" lon="2.51509">
        <ele>84.6</ele>
        <time>2021-11-21T13:40:42Z</time>
      </trkpt>
      <trkpt lat="49.82767" lon="2.51511">
        <ele>84.7</ele>
        <time>2021-11-21T13:40:44Z</time>
      </trkpt>
      <trkpt lat="49.82768" lon="2.51511">
        <ele>84.7</ele>
        <time>2021-11-21T13:40:45Z</time>
      </trkpt>
      <trkpt lat="49.8277" lon="2.51512">
        <ele>84.7</ele>
        <time>2021-11-21T13:40:47Z</time>
      </trkpt>
      <trkpt lat="49.82772" lon="2.51513">
        <ele>84.8</ele>
        <time>2021-11-21T13:40:49Z</time>
      </trkpt>
      <trkpt lat="49.82772" lon="2.51513">
        <ele>84.8</ele>
        <time>2021-11-21T13:40:50Z</time>
      </trkpt>
      <trkpt lat="49.82774" lon="2.51514">
        <ele>84.8</ele>
        <time>2021-11-21T13:40:51Z</time>
      </trkpt>
      <trkpt lat="49.82776" lon="2.51515">
        <ele>84.8</ele>
        <time>2021-11-21T13:40:53Z</time>
      </trkpt>
      <trkpt lat="49.82778" lon="2.51516">
        <ele>84.8</ele>
        <time>2021-11-21T13:40:55Z</time>
      </trkpt>
      <trkpt lat="49.82779" lon="2.51516">
        <ele>84.9</ele>
        <time>2021-11-21T13:40:56Z</time>
      </trkpt>
      <trkpt lat="49.82782" lon="2.51518">
        <ele>84.9</ele>
        <time>2021-11-21T13:40:58Z</time>
      </trkpt>
      <trkpt lat="49.82783" lon="2.51518">
        <ele>84.9</ele>
        <time>2021-11-21T13:40:59Z</time>
      </trkpt>
      <trkpt lat="49.82784" lon="2.51519">
        <ele>84.9</ele>
        <time>2021-11-21T13:41:00Z</time>
      </trkpt>
      <trkpt lat="49.82786" lon="2.5152">
        <ele>84.9</ele>
        <time>2021-11-21T13:41:02Z</time>
      </trkpt>
      <trkpt lat="49.82787" lon="2.51521">
        <ele>84.9</ele>
        <time>2021-11-21T13:41:03Z</time>
      </trkpt>
      <trkpt lat="49.82788" lon="2.51521">
        <ele>84.9</ele>
        <time>2021-11-21T13:41:04Z</time>
      </trkpt>
      <trkpt lat="49.82789" lon="2.51522">
        <ele>85</ele>
        <time>2021-11-21T13:41:05Z</time>
      </trkpt>
      <trkpt lat="49.8279" lon="2.51522">
        <ele>85</ele>
        <time>2021-11-21T13:41:06Z</time>
      </trkpt>
      <trkpt lat="49.82792" lon="2.51523">
        <ele>85</ele>
        <time>2021-11-21T13:41:08Z</time>
      </trkpt>
      <trkpt lat="49.82793" lon="2.51524">
        <ele>85</ele>
        <time>2021-11-21T13:41:09Z</time>
      </trkpt>
      <trkpt lat="49.82795" lon="2.51525">
        <ele>85</ele>
        <time>2021-11-21T13:41:11Z</time>
      </trkpt>
      <trkpt lat="49.82796" lon="2.51526">
        <ele>85</ele>
        <time>2021-11-21T13:41:12Z</time>
      </trkpt>
      <trkpt lat="49.82797" lon="2.51526">
        <ele>85</ele>
        <time>2021-11-21T13:41:13Z</time>
      </trkpt>
      <trkpt lat="49.828" lon="2.51528">
        <ele>85</ele>
        <time>2021-11-21T13:41:15Z</time>
      </trkpt>
      <trkpt lat="49.82801" lon="2.51529">
        <ele>85</ele>
        <time>2021-11-21T13:41:16Z</time>
      </trkpt>
      <trkpt lat="49.82801" lon="2.5153">
        <ele>85</ele>
        <time>2021-11-21T13:41:17Z</time>
      </trkpt>
      <trkpt lat="49.82802" lon="2.5153">
        <ele>85</ele>
        <time>2021-11-21T13:41:18Z</time>
      </trkpt>
      <trkpt lat="49.82804" lon="2.51532">
        <ele>85</ele>
        <time>2021-11-21T13:41:20Z</time>
      </trkpt>
      <trkpt lat="49.82806" lon="2.51533">
        <ele>85</ele>
        <time>2021-11-21T13:41:22Z</time>
      </trkpt>
      <trkpt lat="49.82808" lon="2.51534">
        <ele>85</ele>
        <time>2021-11-21T13:41:24Z</time>
      </trkpt>
      <trkpt lat="49.8281" lon="2.51536">
        <ele>85</ele>
        <time>2021-11-21T13:41:26Z</time>
      </trkpt>
      <trkpt lat="49.8281" lon="2.51536">
        <ele>85</ele>
        <time>2021-11-21T13:41:27Z</time>
      </trkpt>
      <trkpt lat="49.82812" lon="2.51538">
        <ele>85</ele>
        <time>2021-11-21T13:41:29Z</time>
      </trkpt>
      <trkpt lat="49.82813" lon="2.51539">
        <ele>85</ele>
        <time>2021-11-21T13:41:30Z</time>
      </trkpt>
      <trkpt lat="49.82815" lon="2.5154">
        <ele>85</ele>
        <time>2021-11-21T13:41:32Z</time>
      </trkpt>
      <trkpt lat="49.82816" lon="2.51541">
        <ele>85</ele>
        <time>2021-11-21T13:41:33Z</time>
      </trkpt>
      <trkpt lat="49.82816" lon="2.51542">
        <ele>85</ele>
        <time>2021-11-21T13:41:34Z</time>
      </trkpt>
      <trkpt lat="49.82818" lon="2.51543">
        <ele>85</ele>
        <time>2021-11-21T13:41:35Z</time>
      </trkpt>
      <trkpt lat="49.82818" lon="2.51543">
        <ele>85</ele>
        <time>2021-11-21T13:41:36Z</time>
      </trkpt>
      <trkpt lat="49.8282" lon="2.51544">
        <ele>84.9</ele>
        <time>2021-11-21T13:41:38Z</time>
      </trkpt>
      <trkpt lat="49.82821" lon="2.51545">
        <ele>84.9</ele>
        <time>2021-11-21T13:41:39Z</time>
      </trkpt>
      <trkpt lat="49.82823" lon="2.51546">
        <ele>84.9</ele>
        <time>2021-11-21T13:41:41Z</time>
      </trkpt>
      <trkpt lat="49.82825" lon="2.51548">
        <ele>84.9</ele>
        <time>2021-11-21T13:41:43Z</time>
      </trkpt>
      <trkpt lat="49.82826" lon="2.51549">
        <ele>84.9</ele>
        <time>2021-11-21T13:41:45Z</time>
      </trkpt>
      <trkpt lat="49.82827" lon="2.5155">
        <ele>84.9</ele>
        <time>2021-11-21T13:41:46Z</time>
      </trkpt>
      <trkpt lat="49.82829" lon="2.51551">
        <ele>84.9</ele>
        <time>2021-11-21T13:41:48Z</time>
      </trkpt>
      <trkpt lat="49.8283" lon="2.51552">
        <ele>84.8</ele>
        <time>2021-11-21T13:41:49Z</time>
      </trkpt>
      <trkpt lat="49.82831" lon="2.51555">
        <ele>84.8</ele>
        <time>2021-11-21T13:41:51Z</time>
      </trkpt>
      <trkpt lat="49.82832" lon="2.51555">
        <ele>84.8</ele>
        <time>2021-11-21T13:41:53Z</time>
      </trkpt>
      <trkpt lat="49.82833" lon="2.51555">
        <ele>84.8</ele>
        <time>2021-11-21T13:41:55Z</time>
      </trkpt>
      <trkpt lat="49.82834" lon="2.51556">
        <ele>84.8</ele>
        <time>2021-11-21T13:41:57Z</time>
      </trkpt>
      <trkpt lat="49.82834" lon="2.51558">
        <ele>84.8</ele>
        <time>2021-11-21T13:41:59Z</time>
      </trkpt>
      <trkpt lat="49.82835" lon="2.51558">
        <ele>84.8</ele>
        <time>2021-11-21T13:42:01Z</time>
      </trkpt>
      <trkpt lat="49.82835" lon="2.51559">
        <ele>84.8</ele>
        <time>2021-11-21T13:42:02Z</time>
      </trkpt>
      <trkpt lat="49.82835" lon="2.51559">
        <ele>84.8</ele>
        <time>2021-11-21T13:42:03Z</time>
      </trkpt>
      <trkpt lat="49.82835" lon="2.51559">
        <ele>84.8</ele>
        <time>2021-11-21T13:42:04Z</time>
      </trkpt>
      <trkpt lat="49.82836" lon="2.51558">
        <ele>84.7</ele>
        <time>2021-11-21T13:42:05Z</time>
      </trkpt>
      <trkpt lat="49.82837" lon="2.51558">
        <ele>84.7</ele>
        <time>2021-11-21T13:42:07Z</time>
      </trkpt>
      <trkpt lat="49.82837" lon="2.51558">
        <ele>84.7</ele>
        <time>2021-11-21T13:42:09Z</time>
      </trkpt>
      <trkpt lat="49.82837" lon="2.51558">
        <ele>84.7</ele>
        <time>2021-11-21T13:42:10Z</time>
      </trkpt>
      <trkpt lat="49.82837" lon="2.51558">
        <ele>84.7</ele>
        <time>2021-11-21T13:42:11Z</time>
      </trkpt>
      <trkpt lat="49.82836" lon="2.51558">
        <ele>84.7</ele>
        <time>2021-11-21T13:42:12Z</time>
      </trkpt>
      <trkpt lat="49.82836" lon="2.51558">
        <ele>84.7</ele>
        <time>2021-11-21T13:42:13Z</time>
      </trkpt>
      <trkpt lat="49.82835" lon="2.51558">
        <ele>84.7</ele>
        <time>2021-11-21T13:42:14Z</time>
      </trkpt>
      <trkpt lat="49.82834" lon="2.51558">
        <ele>84.7</ele>
        <time>2021-11-21T13:42:16Z</time>
      </trkpt>
      <trkpt lat="49.82834" lon="2.51558">
        <ele>84.7</ele>
        <time>2021-11-21T13:42:18Z</time>
      </trkpt>
      <trkpt lat="49.82834" lon="2.51558">
        <ele>84.7</ele>
        <time>2021-11-21T13:42:20Z</time>
      </trkpt>
      <trkpt lat="49.82834" lon="2.51558">
        <ele>84.7</ele>
        <time>2021-11-21T13:42:27Z</time>
      </trkpt>
      <trkpt lat="49.82834" lon="2.51558">
        <ele>84.7</ele>
        <time>2021-11-21T13:42:28Z</time>
      </trkpt>
      <trkpt lat="49.82834" lon="2.51558">
        <ele>84.7</ele>
        <time>2021-11-21T13:42:35Z</time>
      </trkpt>
      <trkpt lat="49.82831" lon="2.51559">
        <ele>84.6</ele>
        <time>2021-11-21T13:42:54Z</time>
      </trkpt>
      <trkpt lat="49.82831" lon="2.51559">
        <ele>84.6</ele>
        <time>2021-11-21T13:42:56Z</time>
      </trkpt>
      <trkpt lat="49.82831" lon="2.51559">
        <ele>84.6</ele>
        <time>2021-11-21T13:42:57Z</time>
      </trkpt>
      <trkpt lat="49.82831" lon="2.51559">
        <ele>84.6</ele>
        <time>2021-11-21T13:42:58Z</time>
      </trkpt>
      <trkpt lat="49.82831" lon="2.51559">
        <ele>84.6</ele>
        <time>2021-11-21T13:42:59Z</time>
      </trkpt>
      <trkpt lat="49.82831" lon="2.51559">
        <ele>84.6</ele>
        <time>2021-11-21T13:43:01Z</time>
      </trkpt>
      <trkpt lat="49.82831" lon="2.51559">
        <ele>84.6</ele>
        <time>2021-11-21T13:43:03Z</time>
      </trkpt>
      <trkpt lat="49.82831" lon="2.51559">
        <ele>84.6</ele>
        <time>2021-11-21T13:43:04Z</time>
      </trkpt>
      <trkpt lat="49.82831" lon="2.51559">
        <ele>84.6</ele>
        <time>2021-11-21T13:43:06Z</time>
      </trkpt>
      <trkpt lat="49.82831" lon="2.51559">
        <ele>84.6</ele>
        <time>2021-11-21T13:43:08Z</time>
      </trkpt>
      <trkpt lat="49.82831" lon="2.51559">
        <ele>84.6</ele>
        <time>2021-11-21T13:43:10Z</time>
      </trkpt>
      <trkpt lat="49.82831" lon="2.51559">
        <ele>84.6</ele>
        <time>2021-11-21T13:43:11Z</time>
      </trkpt>
      <trkpt lat="49.82831" lon="2.51559">
        <ele>84.6</ele>
        <time>2021-11-21T13:43:12Z</time>
      </trkpt>
      <trkpt lat="49.82831" lon="2.51559">
        <ele>84.6</ele>
        <time>2021-11-21T13:43:14Z</time>
      </trkpt>
      <trkpt lat="49.82831" lon="2.51559">
        <ele>84.6</ele>
        <time>2021-11-21T13:43:15Z</time>
      </trkpt>
      <trkpt lat="49.82831" lon="2.51559">
        <ele>84.6</ele>
        <time>2021-11-21T13:43:17Z</time>
      </trkpt>
      <trkpt lat="49.82831" lon="2.51559">
        <ele>84.6</ele>
        <time>2021-11-21T13:43:19Z</time>
      </trkpt>
      <trkpt lat="49.82831" lon="2.51559">
        <ele>84.6</ele>
        <time>2021-11-21T13:43:20Z</time>
      </trkpt>
      <trkpt lat="49.82831" lon="2.51559">
        <ele>84.6</ele>
        <time>2021-11-21T13:43:22Z</time>
      </trkpt>
      <trkpt lat="49.82831" lon="2.51559">
        <ele>84.6</ele>
        <time>2021-11-21T13:43:23Z</time>
      </trkpt>
      <trkpt lat="49.82831" lon="2.51559">
        <ele>84.6</ele>
        <time>2021-11-21T13:43:25Z</time>
      </trkpt>
      <trkpt lat="49.82831" lon="2.51559">
        <ele>84.6</ele>
        <time>2021-11-21T13:43:27Z</time>
      </trkpt>
      <trkpt lat="49.82831" lon="2.51559">
        <ele>84.6</ele>
        <time>2021-11-21T13:43:28Z</time>
      </trkpt>
      <trkpt lat="49.82831" lon="2.51559">
        <ele>84.6</ele>
        <time>2021-11-21T13:43:29Z</time>
      </trkpt>
      <trkpt lat="49.82831" lon="2.51559">
        <ele>84.6</ele>
        <time>2021-11-21T13:43:30Z</time>
      </trkpt>
      <trkpt lat="49.82831" lon="2.51559">
        <ele>84.6</ele>
        <time>2021-11-21T13:43:32Z</time>
      </trkpt>
      <trkpt lat="49.82831" lon="2.51559">
        <ele>84.6</ele>
        <time>2021-11-21T13:43:33Z</time>
      </trkpt>
      <trkpt lat="49.82831" lon="2.51559">
        <ele>84.6</ele>
        <time>2021-11-21T13:43:34Z</time>
      </trkpt>
      <trkpt lat="49.82831" lon="2.51559">
        <ele>84.6</ele>
        <time>2021-11-21T13:43:36Z</time>
      </trkpt>
      <trkpt lat="49.82831" lon="2.51559">
        <ele>84.6</ele>
        <time>2021-11-21T13:43:37Z</time>
      </trkpt>
      <trkpt lat="49.82831" lon="2.51559">
        <ele>84.6</ele>
        <time>2021-11-21T13:43:39Z</time>
      </trkpt>
      <trkpt lat="49.82831" lon="2.51559">
        <ele>84.6</ele>
        <time>2021-11-21T13:43:40Z</time>
      </trkpt>
      <trkpt lat="49.82831" lon="2.51559">
        <ele>84.6</ele>
        <time>2021-11-21T13:43:42Z</time>
      </trkpt>
      <trkpt lat="49.82831" lon="2.51559">
        <ele>84.6</ele>
        <time>2021-11-21T13:43:43Z</time>
      </trkpt>
      <trkpt lat="49.82831" lon="2.51559">
        <ele>84.6</ele>
        <time>2021-11-21T13:43:45Z</time>
      </trkpt>
      <trkpt lat="49.82831" lon="2.51559">
        <ele>84.6</ele>
        <time>2021-11-21T13:43:46Z</time>
      </trkpt>
      <trkpt lat="49.82831" lon="2.51559">
        <ele>84.6</ele>
        <time>2021-11-21T13:43:47Z</time>
      </trkpt>
      <trkpt lat="49.82831" lon="2.51559">
        <ele>84.6</ele>
        <time>2021-11-21T13:43:49Z</time>
      </trkpt>
      <trkpt lat="49.82831" lon="2.51559">
        <ele>84.6</ele>
        <time>2021-11-21T13:43:51Z</time>
      </trkpt>
      <trkpt lat="49.82831" lon="2.51559">
        <ele>84.6</ele>
        <time>2021-11-21T13:43:53Z</time>
      </trkpt>
      <trkpt lat="49.82831" lon="2.51559">
        <ele>84.6</ele>
        <time>2021-11-21T13:43:55Z</time>
      </trkpt>
      <trkpt lat="49.82831" lon="2.51559">
        <ele>84.6</ele>
        <time>2021-11-21T13:43:57Z</time>
      </trkpt>
      <trkpt lat="49.82831" lon="2.51559">
        <ele>84.6</ele>
        <time>2021-11-21T13:43:59Z</time>
      </trkpt>
      <trkpt lat="49.82831" lon="2.51559">
        <ele>84.6</ele>
        <time>2021-11-21T13:44:00Z</time>
      </trkpt>
      <trkpt lat="49.82831" lon="2.51559">
        <ele>84.6</ele>
        <time>2021-11-21T13:44:02Z</time>
      </trkpt>
      <trkpt lat="49.82831" lon="2.51559">
        <ele>84.6</ele>
        <time>2021-11-21T13:44:03Z</time>
      </trkpt>
      <trkpt lat="49.82831" lon="2.51559">
        <ele>84.6</ele>
        <time>2021-11-21T13:44:04Z</time>
      </trkpt>
      <trkpt lat="49.82831" lon="2.51559">
        <ele>84.6</ele>
        <time>2021-11-21T13:44:05Z</time>
      </trkpt>
      <trkpt lat="49.82831" lon="2.51559">
        <ele>84.6</ele>
        <time>2021-11-21T13:44:07Z</time>
      </trkpt>
      <trkpt lat="49.82831" lon="2.51559">
        <ele>84.6</ele>
        <time>2021-11-21T13:44:08Z</time>
      </trkpt>
      <trkpt lat="49.82831" lon="2.51559">
        <ele>84.6</ele>
        <time>2021-11-21T13:44:10Z</time>
      </trkpt>
      <trkpt lat="49.82831" lon="2.51559">
        <ele>84.6</ele>
        <time>2021-11-21T13:44:11Z</time>
      </trkpt>
      <trkpt lat="49.82831" lon="2.51559">
        <ele>84.6</ele>
        <time>2021-11-21T13:44:13Z</time>
      </trkpt>
      <trkpt lat="49.82831" lon="2.51559">
        <ele>84.6</ele>
        <time>2021-11-21T13:44:15Z</time>
      </trkpt>
      <trkpt lat="49.82831" lon="2.51559">
        <ele>84.6</ele>
        <time>2021-11-21T13:44:16Z</time>
      </trkpt>
      <trkpt lat="49.82831" lon="2.51559">
        <ele>84.6</ele>
        <time>2021-11-21T13:44:18Z</time>
      </trkpt>
      <trkpt lat="49.82831" lon="2.51559">
        <ele>84.6</ele>
        <time>2021-11-21T13:44:20Z</time>
      </trkpt>
      <trkpt lat="49.82831" lon="2.51559">
        <ele>84.6</ele>
        <time>2021-11-21T13:44:21Z</time>
      </trkpt>
      <trkpt lat="49.82831" lon="2.51559">
        <ele>84.6</ele>
        <time>2021-11-21T13:44:22Z</time>
      </trkpt>
      <trkpt lat="49.82831" lon="2.51559">
        <ele>84.6</ele>
        <time>2021-11-21T13:44:24Z</time>
      </trkpt>
      <trkpt lat="49.82831" lon="2.51559">
        <ele>84.6</ele>
        <time>2021-11-21T13:44:25Z</time>
      </trkpt>
      <trkpt lat="49.82831" lon="2.51559">
        <ele>84.6</ele>
        <time>2021-11-21T13:44:26Z</time>
      </trkpt>
      <trkpt lat="49.82831" lon="2.51559">
        <ele>84.6</ele>
        <time>2021-11-21T13:44:28Z</time>
      </trkpt>
      <trkpt lat="49.82831" lon="2.51559">
        <ele>84.6</ele>
        <time>2021-11-21T13:44:29Z</time>
      </trkpt>
      <trkpt lat="49.82831" lon="2.51559">
        <ele>84.6</ele>
        <time>2021-11-21T13:44:31Z</time>
      </trkpt>
      <trkpt lat="49.82831" lon="2.51559">
        <ele>84.6</ele>
        <time>2021-11-21T13:44:33Z</time>
      </trkpt>
      <trkpt lat="49.82831" lon="2.51559">
        <ele>84.6</ele>
        <time>2021-11-21T13:44:35Z</time>
      </trkpt>
      <trkpt lat="49.82831" lon="2.51559">
        <ele>84.6</ele>
        <time>2021-11-21T13:44:36Z</time>
      </trkpt>
      <trkpt lat="49.82831" lon="2.51559">
        <ele>84.6</ele>
        <time>2021-11-21T13:44:37Z</time>
      </trkpt>
      <trkpt lat="49.82831" lon="2.51559">
        <ele>84.6</ele>
        <time>2021-11-21T13:44:39Z</time>
      </trkpt>
      <trkpt lat="49.82831" lon="2.51559">
        <ele>84.6</ele>
        <time>2021-11-21T13:44:41Z</time>
      </trkpt>
      <trkpt lat="49.82831" lon="2.51559">
        <ele>84.6</ele>
        <time>2021-11-21T13:44:42Z</time>
      </trkpt>
      <trkpt lat="49.82831" lon="2.51559">
        <ele>84.6</ele>
        <time>2021-11-21T13:44:44Z</time>
      </trkpt>
      <trkpt lat="49.82831" lon="2.51559">
        <ele>84.6</ele>
        <time>2021-11-21T13:44:45Z</time>
      </trkpt>
      <trkpt lat="49.82831" lon="2.51559">
        <ele>84.6</ele>
        <time>2021-11-21T13:44:47Z</time>
      </trkpt>
      <trkpt lat="49.82831" lon="2.51559">
        <ele>84.6</ele>
        <time>2021-11-21T13:44:49Z</time>
      </trkpt>
      <trkpt lat="49.82831" lon="2.51559">
        <ele>84.6</ele>
        <time>2021-11-21T13:44:50Z</time>
      </trkpt>
      <trkpt lat="49.82831" lon="2.51559">
        <ele>84.6</ele>
        <time>2021-11-21T13:44:51Z</time>
      </trkpt>
      <trkpt lat="49.82831" lon="2.51559">
        <ele>84.6</ele>
        <time>2021-11-21T13:44:52Z</time>
      </trkpt>
      <trkpt lat="49.82831" lon="2.51559">
        <ele>84.6</ele>
        <time>2021-11-21T13:44:54Z</time>
      </trkpt>
      <trkpt lat="49.82831" lon="2.5156">
        <ele>84.6</ele>
        <time>2021-11-21T13:44:56Z</time>
      </trkpt>
      <trkpt lat="49.82832" lon="2.51561">
        <ele>84.6</ele>
        <time>2021-11-21T13:44:57Z</time>
      </trkpt>
      <trkpt lat="49.82834" lon="2.51562">
        <ele>84.5</ele>
        <time>2021-11-21T13:44:59Z</time>
      </trkpt>
      <trkpt lat="49.82835" lon="2.51564">
        <ele>84.5</ele>
        <time>2021-11-21T13:45:01Z</time>
      </trkpt>
      <trkpt lat="49.82837" lon="2.51565">
        <ele>84.4</ele>
        <time>2021-11-21T13:45:03Z</time>
      </trkpt>
      <trkpt lat="49.82837" lon="2.51565">
        <ele>84.4</ele>
        <time>2021-11-21T13:45:04Z</time>
      </trkpt>
      <trkpt lat="49.82839" lon="2.51567">
        <ele>84.4</ele>
        <time>2021-11-21T13:45:06Z</time>
      </trkpt>
      <trkpt lat="49.8284" lon="2.51567">
        <ele>84.4</ele>
        <time>2021-11-21T13:45:08Z</time>
      </trkpt>
      <trkpt lat="49.82841" lon="2.51568">
        <ele>84.3</ele>
        <time>2021-11-21T13:45:09Z</time>
      </trkpt>
      <trkpt lat="49.82843" lon="2.5157">
        <ele>84.3</ele>
        <time>2021-11-21T13:45:11Z</time>
      </trkpt>
      <trkpt lat="49.82845" lon="2.51572">
        <ele>84.2</ele>
        <time>2021-11-21T13:45:13Z</time>
      </trkpt>
      <trkpt lat="49.82846" lon="2.51573">
        <ele>84.2</ele>
        <time>2021-11-21T13:45:14Z</time>
      </trkpt>
      <trkpt lat="49.82849" lon="2.51576">
        <ele>84.1</ele>
        <time>2021-11-21T13:45:16Z</time>
      </trkpt>
      <trkpt lat="49.82851" lon="2.51578">
        <ele>84.1</ele>
        <time>2021-11-21T13:45:18Z</time>
      </trkpt>
      <trkpt lat="49.82853" lon="2.51581">
        <ele>84</ele>
        <time>2021-11-21T13:45:20Z</time>
      </trkpt>
      <trkpt lat="49.82854" lon="2.51582">
        <ele>83.9</ele>
        <time>2021-11-21T13:45:21Z</time>
      </trkpt>
      <trkpt lat="49.82857" lon="2.51584">
        <ele>83.9</ele>
        <time>2021-11-21T13:45:23Z</time>
      </trkpt>
      <trkpt lat="49.82858" lon="2.51585">
        <ele>83.8</ele>
        <time>2021-11-21T13:45:24Z</time>
      </trkpt>
      <trkpt lat="49.8286" lon="2.51587">
        <ele>83.8</ele>
        <time>2021-11-21T13:45:26Z</time>
      </trkpt>
      <trkpt lat="49.82861" lon="2.51588">
        <ele>83.7</ele>
        <time>2021-11-21T13:45:27Z</time>
      </trkpt>
      <trkpt lat="49.82862" lon="2.51588">
        <ele>83.7</ele>
        <time>2021-11-21T13:45:28Z</time>
      </trkpt>
      <trkpt lat="49.82864" lon="2.5159">
        <ele>83.6</ele>
        <time>2021-11-21T13:45:30Z</time>
      </trkpt>
      <trkpt lat="49.82867" lon="2.51593">
        <ele>83.6</ele>
        <time>2021-11-21T13:45:32Z</time>
      </trkpt>
      <trkpt lat="49.82868" lon="2.51593">
        <ele>83.5</ele>
        <time>2021-11-21T13:45:34Z</time>
      </trkpt>
      <trkpt lat="49.8287" lon="2.51596">
        <ele>83.5</ele>
        <time>2021-11-21T13:45:36Z</time>
      </trkpt>
      <trkpt lat="49.82872" lon="2.51597">
        <ele>83.4</ele>
        <time>2021-11-21T13:45:38Z</time>
      </trkpt>
      <trkpt lat="49.82873" lon="2.51598">
        <ele>83.4</ele>
        <time>2021-11-21T13:45:39Z</time>
      </trkpt>
      <trkpt lat="49.82874" lon="2.51598">
        <ele>83.4</ele>
        <time>2021-11-21T13:45:40Z</time>
      </trkpt>
      <trkpt lat="49.82876" lon="2.516">
        <ele>83.3</ele>
        <time>2021-11-21T13:45:42Z</time>
      </trkpt>
      <trkpt lat="49.82876" lon="2.51601">
        <ele>83.3</ele>
        <time>2021-11-21T13:45:43Z</time>
      </trkpt>
      <trkpt lat="49.82878" lon="2.51603">
        <ele>83.3</ele>
        <time>2021-11-21T13:45:45Z</time>
      </trkpt>
      <trkpt lat="49.8288" lon="2.51605">
        <ele>83.2</ele>
        <time>2021-11-21T13:45:47Z</time>
      </trkpt>
      <trkpt lat="49.82881" lon="2.51607">
        <ele>83.1</ele>
        <time>2021-11-21T13:45:49Z</time>
      </trkpt>
      <trkpt lat="49.82882" lon="2.51608">
        <ele>83.1</ele>
        <time>2021-11-21T13:45:50Z</time>
      </trkpt>
      <trkpt lat="49.82883" lon="2.51609">
        <ele>83.1</ele>
        <time>2021-11-21T13:45:51Z</time>
      </trkpt>
      <trkpt lat="49.82884" lon="2.5161">
        <ele>83.1</ele>
        <time>2021-11-21T13:45:52Z</time>
      </trkpt>
      <trkpt lat="49.82884" lon="2.51611">
        <ele>83</ele>
        <time>2021-11-21T13:45:53Z</time>
      </trkpt>
      <trkpt lat="49.82886" lon="2.51612">
        <ele>83</ele>
        <time>2021-11-21T13:45:55Z</time>
      </trkpt>
      <trkpt lat="49.82888" lon="2.51614">
        <ele>82.9</ele>
        <time>2021-11-21T13:45:57Z</time>
      </trkpt>
      <trkpt lat="49.8289" lon="2.51616">
        <ele>82.8</ele>
        <time>2021-11-21T13:45:59Z</time>
      </trkpt>
      <trkpt lat="49.82891" lon="2.51617">
        <ele>82.8</ele>
        <time>2021-11-21T13:46:00Z</time>
      </trkpt>
      <trkpt lat="49.82891" lon="2.51617">
        <ele>82.7</ele>
        <time>2021-11-21T13:46:01Z</time>
      </trkpt>
      <trkpt lat="49.82892" lon="2.51618">
        <ele>82.7</ele>
        <time>2021-11-21T13:46:02Z</time>
      </trkpt>
      <trkpt lat="49.82893" lon="2.51619">
        <ele>82.7</ele>
        <time>2021-11-21T13:46:03Z</time>
      </trkpt>
      <trkpt lat="49.82893" lon="2.5162">
        <ele>82.6</ele>
        <time>2021-11-21T13:46:04Z</time>
      </trkpt>
      <trkpt lat="49.82894" lon="2.51621">
        <ele>82.6</ele>
        <time>2021-11-21T13:46:05Z</time>
      </trkpt>
      <trkpt lat="49.82897" lon="2.51623">
        <ele>82.5</ele>
        <time>2021-11-21T13:46:07Z</time>
      </trkpt>
      <trkpt lat="49.82898" lon="2.51624">
        <ele>82.4</ele>
        <time>2021-11-21T13:46:09Z</time>
      </trkpt>
      <trkpt lat="49.82899" lon="2.51624">
        <ele>82.4</ele>
        <time>2021-11-21T13:46:10Z</time>
      </trkpt>
      <trkpt lat="49.829" lon="2.51625">
        <ele>82.4</ele>
        <time>2021-11-21T13:46:11Z</time>
      </trkpt>
      <trkpt lat="49.82902" lon="2.51627">
        <ele>82.3</ele>
        <time>2021-11-21T13:46:13Z</time>
      </trkpt>
      <trkpt lat="49.82903" lon="2.51627">
        <ele>82.2</ele>
        <time>2021-11-21T13:46:14Z</time>
      </trkpt>
      <trkpt lat="49.82906" lon="2.51629">
        <ele>82.1</ele>
        <time>2021-11-21T13:46:16Z</time>
      </trkpt>
      <trkpt lat="49.82908" lon="2.5163">
        <ele>82</ele>
        <time>2021-11-21T13:46:18Z</time>
      </trkpt>
      <trkpt lat="49.82909" lon="2.51631">
        <ele>82</ele>
        <time>2021-11-21T13:46:19Z</time>
      </trkpt>
      <trkpt lat="49.82911" lon="2.51632">
        <ele>81.9</ele>
        <time>2021-11-21T13:46:21Z</time>
      </trkpt>
      <trkpt lat="49.82912" lon="2.51633">
        <ele>81.8</ele>
        <time>2021-11-21T13:46:22Z</time>
      </trkpt>
      <trkpt lat="49.82913" lon="2.51633">
        <ele>81.8</ele>
        <time>2021-11-21T13:46:23Z</time>
      </trkpt>
      <trkpt lat="49.82915" lon="2.51633">
        <ele>81.7</ele>
        <time>2021-11-21T13:46:25Z</time>
      </trkpt>
      <trkpt lat="49.82917" lon="2.51635">
        <ele>81.6</ele>
        <time>2021-11-21T13:46:27Z</time>
      </trkpt>
      <trkpt lat="49.82918" lon="2.51636">
        <ele>81.6</ele>
        <time>2021-11-21T13:46:29Z</time>
      </trkpt>
      <trkpt lat="49.82919" lon="2.51637">
        <ele>81.5</ele>
        <time>2021-11-21T13:46:30Z</time>
      </trkpt>
      <trkpt lat="49.82921" lon="2.51639">
        <ele>81.4</ele>
        <time>2021-11-21T13:46:32Z</time>
      </trkpt>
      <trkpt lat="49.82921" lon="2.5164">
        <ele>81.4</ele>
        <time>2021-11-21T13:46:33Z</time>
      </trkpt>
      <trkpt lat="49.82922" lon="2.5164">
        <ele>81.3</ele>
        <time>2021-11-21T13:46:34Z</time>
      </trkpt>
      <trkpt lat="49.82924" lon="2.51642">
        <ele>81.3</ele>
        <time>2021-11-21T13:46:36Z</time>
      </trkpt>
      <trkpt lat="49.82925" lon="2.51643">
        <ele>81.2</ele>
        <time>2021-11-21T13:46:37Z</time>
      </trkpt>
      <trkpt lat="49.82927" lon="2.51644">
        <ele>81.1</ele>
        <time>2021-11-21T13:46:39Z</time>
      </trkpt>
      <trkpt lat="49.82928" lon="2.51645">
        <ele>81</ele>
        <time>2021-11-21T13:46:40Z</time>
      </trkpt>
      <trkpt lat="49.82928" lon="2.51645">
        <ele>81</ele>
        <time>2021-11-21T13:46:41Z</time>
      </trkpt>
      <trkpt lat="49.8293" lon="2.51647">
        <ele>80.9</ele>
        <time>2021-11-21T13:46:43Z</time>
      </trkpt>
      <trkpt lat="49.82931" lon="2.51647">
        <ele>80.9</ele>
        <time>2021-11-21T13:46:44Z</time>
      </trkpt>
      <trkpt lat="49.82933" lon="2.51648">
        <ele>80.8</ele>
        <time>2021-11-21T13:46:46Z</time>
      </trkpt>
      <trkpt lat="49.82934" lon="2.51649">
        <ele>80.7</ele>
        <time>2021-11-21T13:46:47Z</time>
      </trkpt>
      <trkpt lat="49.82936" lon="2.5165">
        <ele>80.6</ele>
        <time>2021-11-21T13:46:49Z</time>
      </trkpt>
      <trkpt lat="49.82938" lon="2.51651">
        <ele>80.5</ele>
        <time>2021-11-21T13:46:51Z</time>
      </trkpt>
      <trkpt lat="49.82939" lon="2.51652">
        <ele>80.5</ele>
        <time>2021-11-21T13:46:52Z</time>
      </trkpt>
      <trkpt lat="49.8294" lon="2.51652">
        <ele>80.5</ele>
        <time>2021-11-21T13:46:53Z</time>
      </trkpt>
      <trkpt lat="49.82941" lon="2.51654">
        <ele>80.4</ele>
        <time>2021-11-21T13:46:55Z</time>
      </trkpt>
      <trkpt lat="49.82942" lon="2.51654">
        <ele>80.3</ele>
        <time>2021-11-21T13:46:56Z</time>
      </trkpt>
      <trkpt lat="49.82945" lon="2.51656">
        <ele>80.2</ele>
        <time>2021-11-21T13:46:58Z</time>
      </trkpt>
      <trkpt lat="49.82946" lon="2.51656">
        <ele>80.2</ele>
        <time>2021-11-21T13:46:59Z</time>
      </trkpt>
      <trkpt lat="49.82947" lon="2.51657">
        <ele>80.1</ele>
        <time>2021-11-21T13:47:00Z</time>
      </trkpt>
      <trkpt lat="49.82949" lon="2.51658">
        <ele>80</ele>
        <time>2021-11-21T13:47:02Z</time>
      </trkpt>
      <trkpt lat="49.82951" lon="2.51658">
        <ele>80</ele>
        <time>2021-11-21T13:47:04Z</time>
      </trkpt>
      <trkpt lat="49.82952" lon="2.51659">
        <ele>79.9</ele>
        <time>2021-11-21T13:47:05Z</time>
      </trkpt>
      <trkpt lat="49.82955" lon="2.5166">
        <ele>79.8</ele>
        <time>2021-11-21T13:47:07Z</time>
      </trkpt>
      <trkpt lat="49.82956" lon="2.51661">
        <ele>79.8</ele>
        <time>2021-11-21T13:47:08Z</time>
      </trkpt>
      <trkpt lat="49.82958" lon="2.51662">
        <ele>79.7</ele>
        <time>2021-11-21T13:47:10Z</time>
      </trkpt>
      <trkpt lat="49.82959" lon="2.51662">
        <ele>79.6</ele>
        <time>2021-11-21T13:47:11Z</time>
      </trkpt>
      <trkpt lat="49.8296" lon="2.51663">
        <ele>79.6</ele>
        <time>2021-11-21T13:47:12Z</time>
      </trkpt>
      <trkpt lat="49.82961" lon="2.51664">
        <ele>79.6</ele>
        <time>2021-11-21T13:47:14Z</time>
      </trkpt>
      <trkpt lat="49.82964" lon="2.51665">
        <ele>79.4</ele>
        <time>2021-11-21T13:47:16Z</time>
      </trkpt>
      <trkpt lat="49.82965" lon="2.51665">
        <ele>79.4</ele>
        <time>2021-11-21T13:47:17Z</time>
      </trkpt>
      <trkpt lat="49.82967" lon="2.51666">
        <ele>79.4</ele>
        <time>2021-11-21T13:47:19Z</time>
      </trkpt>
      <trkpt lat="49.82968" lon="2.51666">
        <ele>79.3</ele>
        <time>2021-11-21T13:47:20Z</time>
      </trkpt>
      <trkpt lat="49.8297" lon="2.51667">
        <ele>79.3</ele>
        <time>2021-11-21T13:47:21Z</time>
      </trkpt>
      <trkpt lat="49.82972" lon="2.51668">
        <ele>79.2</ele>
        <time>2021-11-21T13:47:23Z</time>
      </trkpt>
      <trkpt lat="49.82973" lon="2.51668">
        <ele>79.2</ele>
        <time>2021-11-21T13:47:25Z</time>
      </trkpt>
      <trkpt lat="49.82974" lon="2.51668">
        <ele>79.1</ele>
        <time>2021-11-21T13:47:26Z</time>
      </trkpt>
      <trkpt lat="49.82976" lon="2.51669">
        <ele>79.1</ele>
        <time>2021-11-21T13:47:27Z</time>
      </trkpt>
      <trkpt lat="49.82978" lon="2.51669">
        <ele>79.1</ele>
        <time>2021-11-21T13:47:29Z</time>
      </trkpt>
      <trkpt lat="49.82979" lon="2.5167">
        <ele>79</ele>
        <time>2021-11-21T13:47:30Z</time>
      </trkpt>
      <trkpt lat="49.82982" lon="2.51671">
        <ele>79</ele>
        <time>2021-11-21T13:47:32Z</time>
      </trkpt>
      <trkpt lat="49.82982" lon="2.51671">
        <ele>79</ele>
        <time>2021-11-21T13:47:33Z</time>
      </trkpt>
      <trkpt lat="49.82984" lon="2.51671">
        <ele>78.9</ele>
        <time>2021-11-21T13:47:35Z</time>
      </trkpt>
      <trkpt lat="49.82986" lon="2.51671">
        <ele>78.9</ele>
        <time>2021-11-21T13:47:37Z</time>
      </trkpt>
      <trkpt lat="49.82987" lon="2.5167">
        <ele>78.9</ele>
        <time>2021-11-21T13:47:39Z</time>
      </trkpt>
      <trkpt lat="49.82988" lon="2.5167">
        <ele>78.9</ele>
        <time>2021-11-21T13:47:40Z</time>
      </trkpt>
      <trkpt lat="49.8299" lon="2.5167">
        <ele>78.9</ele>
        <time>2021-11-21T13:47:42Z</time>
      </trkpt>
      <trkpt lat="49.8299" lon="2.51671">
        <ele>78.8</ele>
        <time>2021-11-21T13:47:44Z</time>
      </trkpt>
      <trkpt lat="49.82992" lon="2.51671">
        <ele>78.8</ele>
        <time>2021-11-21T13:47:46Z</time>
      </trkpt>
      <trkpt lat="49.82993" lon="2.51671">
        <ele>78.8</ele>
        <time>2021-11-21T13:47:47Z</time>
      </trkpt>
      <trkpt lat="49.82993" lon="2.51671">
        <ele>78.8</ele>
        <time>2021-11-21T13:47:48Z</time>
      </trkpt>
      <trkpt lat="49.82995" lon="2.51672">
        <ele>78.8</ele>
        <time>2021-11-21T13:47:50Z</time>
      </trkpt>
      <trkpt lat="49.82996" lon="2.51672">
        <ele>78.7</ele>
        <time>2021-11-21T13:47:51Z</time>
      </trkpt>
      <trkpt lat="49.82998" lon="2.51672">
        <ele>78.7</ele>
        <time>2021-11-21T13:47:53Z</time>
      </trkpt>
      <trkpt lat="49.82999" lon="2.51673">
        <ele>78.7</ele>
        <time>2021-11-21T13:47:55Z</time>
      </trkpt>
      <trkpt lat="49.83" lon="2.51673">
        <ele>78.7</ele>
        <time>2021-11-21T13:47:56Z</time>
      </trkpt>
      <trkpt lat="49.83001" lon="2.51675">
        <ele>78.6</ele>
        <time>2021-11-21T13:47:58Z</time>
      </trkpt>
      <trkpt lat="49.83002" lon="2.51675">
        <ele>78.6</ele>
        <time>2021-11-21T13:47:59Z</time>
      </trkpt>
      <trkpt lat="49.83003" lon="2.51675">
        <ele>78.6</ele>
        <time>2021-11-21T13:48:00Z</time>
      </trkpt>
      <trkpt lat="49.83005" lon="2.51675">
        <ele>78.6</ele>
        <time>2021-11-21T13:48:02Z</time>
      </trkpt>
      <trkpt lat="49.83006" lon="2.51675">
        <ele>78.6</ele>
        <time>2021-11-21T13:48:03Z</time>
      </trkpt>
      <trkpt lat="49.83008" lon="2.51674">
        <ele>78.5</ele>
        <time>2021-11-21T13:48:05Z</time>
      </trkpt>
      <trkpt lat="49.83009" lon="2.51674">
        <ele>78.5</ele>
        <time>2021-11-21T13:48:06Z</time>
      </trkpt>
      <trkpt lat="49.8301" lon="2.51674">
        <ele>78.5</ele>
        <time>2021-11-21T13:48:08Z</time>
      </trkpt>
      <trkpt lat="49.8301" lon="2.51675">
        <ele>78.5</ele>
        <time>2021-11-21T13:48:09Z</time>
      </trkpt>
      <trkpt lat="49.83011" lon="2.51675">
        <ele>78.4</ele>
        <time>2021-11-21T13:48:11Z</time>
      </trkpt>
      <trkpt lat="49.83011" lon="2.51676">
        <ele>78.4</ele>
        <time>2021-11-21T13:48:13Z</time>
      </trkpt>
      <trkpt lat="49.83011" lon="2.51676">
        <ele>78.4</ele>
        <time>2021-11-21T13:48:14Z</time>
      </trkpt>
      <trkpt lat="49.83011" lon="2.51676">
        <ele>78.4</ele>
        <time>2021-11-21T13:48:16Z</time>
      </trkpt>
      <trkpt lat="49.8301" lon="2.51676">
        <ele>78.4</ele>
        <time>2021-11-21T13:48:18Z</time>
      </trkpt>
      <trkpt lat="49.8301" lon="2.51676">
        <ele>78.4</ele>
        <time>2021-11-21T13:48:19Z</time>
      </trkpt>
      <trkpt lat="49.8301" lon="2.51676">
        <ele>78.4</ele>
        <time>2021-11-21T13:48:20Z</time>
      </trkpt>
      <trkpt lat="49.8301" lon="2.51676">
        <ele>78.3</ele>
        <time>2021-11-21T13:48:22Z</time>
      </trkpt>
      <trkpt lat="49.8301" lon="2.51676">
        <ele>78.3</ele>
        <time>2021-11-21T13:48:23Z</time>
      </trkpt>
      <trkpt lat="49.8301" lon="2.51676">
        <ele>78.3</ele>
        <time>2021-11-21T13:48:25Z</time>
      </trkpt>
      <trkpt lat="49.8301" lon="2.51676">
        <ele>78.3</ele>
        <time>2021-11-21T13:48:27Z</time>
      </trkpt>
      <trkpt lat="49.8301" lon="2.51676">
        <ele>78.3</ele>
        <time>2021-11-21T13:48:28Z</time>
      </trkpt>
      <trkpt lat="49.8301" lon="2.51676">
        <ele>78.3</ele>
        <time>2021-11-21T13:48:29Z</time>
      </trkpt>
      <trkpt lat="49.8301" lon="2.51676">
        <ele>78.3</ele>
        <time>2021-11-21T13:48:30Z</time>
      </trkpt>
      <trkpt lat="49.83011" lon="2.51676">
        <ele>78.3</ele>
        <time>2021-11-21T13:48:32Z</time>
      </trkpt>
      <trkpt lat="49.83011" lon="2.51676">
        <ele>78.3</ele>
        <time>2021-11-21T13:48:33Z</time>
      </trkpt>
      <trkpt lat="49.83012" lon="2.51676">
        <ele>78.2</ele>
        <time>2021-11-21T13:48:34Z</time>
      </trkpt>
      <trkpt lat="49.83013" lon="2.51676">
        <ele>78.2</ele>
        <time>2021-11-21T13:48:35Z</time>
      </trkpt>
      <trkpt lat="49.83015" lon="2.51675">
        <ele>78.1</ele>
        <time>2021-11-21T13:48:37Z</time>
      </trkpt>
      <trkpt lat="49.83015" lon="2.51675">
        <ele>78.1</ele>
        <time>2021-11-21T13:48:38Z</time>
      </trkpt>
      <trkpt lat="49.83017" lon="2.51675">
        <ele>78</ele>
        <time>2021-11-21T13:48:40Z</time>
      </trkpt>
      <trkpt lat="49.83018" lon="2.51675">
        <ele>78</ele>
        <time>2021-11-21T13:48:42Z</time>
      </trkpt>
      <trkpt lat="49.8302" lon="2.51675">
        <ele>77.9</ele>
        <time>2021-11-21T13:48:44Z</time>
      </trkpt>
      <trkpt lat="49.83021" lon="2.51674">
        <ele>77.8</ele>
        <time>2021-11-21T13:48:45Z</time>
      </trkpt>
      <trkpt lat="49.83022" lon="2.51674">
        <ele>77.8</ele>
        <time>2021-11-21T13:48:47Z</time>
      </trkpt>
      <trkpt lat="49.83023" lon="2.51674">
        <ele>77.7</ele>
        <time>2021-11-21T13:48:49Z</time>
      </trkpt>
      <trkpt lat="49.83023" lon="2.51674">
        <ele>77.7</ele>
        <time>2021-11-21T13:48:51Z</time>
      </trkpt>
      <trkpt lat="49.83023" lon="2.51674">
        <ele>77.7</ele>
        <time>2021-11-21T13:48:52Z</time>
      </trkpt>
      <trkpt lat="49.83023" lon="2.51674">
        <ele>77.7</ele>
        <time>2021-11-21T13:48:53Z</time>
      </trkpt>
      <trkpt lat="49.83023" lon="2.51674">
        <ele>77.7</ele>
        <time>2021-11-21T13:48:54Z</time>
      </trkpt>
      <trkpt lat="49.83023" lon="2.51674">
        <ele>77.6</ele>
        <time>2021-11-21T13:48:56Z</time>
      </trkpt>
      <trkpt lat="49.83023" lon="2.51674">
        <ele>77.6</ele>
        <time>2021-11-21T13:48:57Z</time>
      </trkpt>
      <trkpt lat="49.83023" lon="2.51674">
        <ele>77.6</ele>
        <time>2021-11-21T13:48:58Z</time>
      </trkpt>
      <trkpt lat="49.83023" lon="2.51674">
        <ele>77.6</ele>
        <time>2021-11-21T13:49:00Z</time>
      </trkpt>
      <trkpt lat="49.83023" lon="2.51674">
        <ele>77.6</ele>
        <time>2021-11-21T13:49:01Z</time>
      </trkpt>
      <trkpt lat="49.83023" lon="2.51674">
        <ele>77.6</ele>
        <time>2021-11-21T13:49:02Z</time>
      </trkpt>
      <trkpt lat="49.83023" lon="2.51674">
        <ele>77.5</ele>
        <time>2021-11-21T13:49:04Z</time>
      </trkpt>
      <trkpt lat="49.83023" lon="2.51674">
        <ele>77.5</ele>
        <time>2021-11-21T13:49:06Z</time>
      </trkpt>
      <trkpt lat="49.83023" lon="2.51674">
        <ele>77.5</ele>
        <time>2021-11-21T13:49:07Z</time>
      </trkpt>
      <trkpt lat="49.83022" lon="2.51674">
        <ele>77.4</ele>
        <time>2021-11-21T13:49:08Z</time>
      </trkpt>
      <trkpt lat="49.83022" lon="2.51674">
        <ele>77.4</ele>
        <time>2021-11-21T13:49:09Z</time>
      </trkpt>
      <trkpt lat="49.83022" lon="2.51674">
        <ele>77.4</ele>
        <time>2021-11-21T13:49:11Z</time>
      </trkpt>
      <trkpt lat="49.83022" lon="2.51674">
        <ele>77.4</ele>
        <time>2021-11-21T13:49:13Z</time>
      </trkpt>
      <trkpt lat="49.83022" lon="2.51674">
        <ele>77.4</ele>
        <time>2021-11-21T13:49:14Z</time>
      </trkpt>
      <trkpt lat="49.83022" lon="2.51674">
        <ele>77.3</ele>
        <time>2021-11-21T13:49:15Z</time>
      </trkpt>
      <trkpt lat="49.83022" lon="2.51674">
        <ele>77.3</ele>
        <time>2021-11-21T13:49:16Z</time>
      </trkpt>
      <trkpt lat="49.83022" lon="2.51674">
        <ele>77.3</ele>
        <time>2021-11-21T13:49:18Z</time>
      </trkpt>
      <trkpt lat="49.83022" lon="2.51674">
        <ele>77.3</ele>
        <time>2021-11-21T13:49:19Z</time>
      </trkpt>
      <trkpt lat="49.83022" lon="2.51675">
        <ele>77.3</ele>
        <time>2021-11-21T13:49:20Z</time>
      </trkpt>
      <trkpt lat="49.83022" lon="2.51675">
        <ele>77.3</ele>
        <time>2021-11-21T13:49:22Z</time>
      </trkpt>
      <trkpt lat="49.83022" lon="2.51675">
        <ele>77.2</ele>
        <time>2021-11-21T13:49:23Z</time>
      </trkpt>
      <trkpt lat="49.83022" lon="2.51675">
        <ele>77.2</ele>
        <time>2021-11-21T13:49:25Z</time>
      </trkpt>
      <trkpt lat="49.83022" lon="2.51675">
        <ele>77.2</ele>
        <time>2021-11-21T13:49:27Z</time>
      </trkpt>
      <trkpt lat="49.83022" lon="2.51675">
        <ele>77.2</ele>
        <time>2021-11-21T13:49:28Z</time>
      </trkpt>
      <trkpt lat="49.83022" lon="2.51675">
        <ele>77.2</ele>
        <time>2021-11-21T13:49:30Z</time>
      </trkpt>
      <trkpt lat="49.83022" lon="2.51675">
        <ele>77.2</ele>
        <time>2021-11-21T13:49:32Z</time>
      </trkpt>
      <trkpt lat="49.83022" lon="2.51675">
        <ele>77.1</ele>
        <time>2021-11-21T13:49:34Z</time>
      </trkpt>
      <trkpt lat="49.83022" lon="2.51675">
        <ele>77.1</ele>
        <time>2021-11-21T13:49:35Z</time>
      </trkpt>
      <trkpt lat="49.83022" lon="2.51675">
        <ele>77.1</ele>
        <time>2021-11-21T13:49:37Z</time>
      </trkpt>
      <trkpt lat="49.83022" lon="2.51675">
        <ele>77.1</ele>
        <time>2021-11-21T13:49:38Z</time>
      </trkpt>
      <trkpt lat="49.83022" lon="2.51675">
        <ele>77.1</ele>
        <time>2021-11-21T13:49:40Z</time>
      </trkpt>
      <trkpt lat="49.83022" lon="2.51675">
        <ele>77</ele>
        <time>2021-11-21T13:49:42Z</time>
      </trkpt>
      <trkpt lat="49.83022" lon="2.51675">
        <ele>77</ele>
        <time>2021-11-21T13:49:43Z</time>
      </trkpt>
      <trkpt lat="49.83021" lon="2.51675">
        <ele>76.9</ele>
        <time>2021-11-21T13:49:45Z</time>
      </trkpt>
      <trkpt lat="49.83021" lon="2.51675">
        <ele>76.9</ele>
        <time>2021-11-21T13:49:47Z</time>
      </trkpt>
      <trkpt lat="49.83021" lon="2.51675">
        <ele>76.9</ele>
        <time>2021-11-21T13:49:49Z</time>
      </trkpt>
      <trkpt lat="49.83021" lon="2.51675">
        <ele>76.9</ele>
        <time>2021-11-21T13:49:51Z</time>
      </trkpt>
      <trkpt lat="49.83021" lon="2.51675">
        <ele>76.9</ele>
        <time>2021-11-21T13:49:52Z</time>
      </trkpt>
      <trkpt lat="49.83021" lon="2.51675">
        <ele>76.8</ele>
        <time>2021-11-21T13:49:54Z</time>
      </trkpt>
      <trkpt lat="49.83021" lon="2.51675">
        <ele>76.8</ele>
        <time>2021-11-21T13:49:56Z</time>
      </trkpt>
      <trkpt lat="49.83021" lon="2.51675">
        <ele>76.8</ele>
        <time>2021-11-21T13:49:58Z</time>
      </trkpt>
      <trkpt lat="49.83021" lon="2.51675">
        <ele>76.8</ele>
        <time>2021-11-21T13:50:00Z</time>
      </trkpt>
      <trkpt lat="49.83021" lon="2.51676">
        <ele>76.8</ele>
        <time>2021-11-21T13:50:02Z</time>
      </trkpt>
      <trkpt lat="49.83021" lon="2.51676">
        <ele>76.8</ele>
        <time>2021-11-21T13:50:03Z</time>
      </trkpt>
      <trkpt lat="49.83021" lon="2.51676">
        <ele>76.7</ele>
        <time>2021-11-21T13:50:05Z</time>
      </trkpt>
      <trkpt lat="49.83021" lon="2.51676">
        <ele>76.7</ele>
        <time>2021-11-21T13:50:07Z</time>
      </trkpt>
      <trkpt lat="49.83021" lon="2.51676">
        <ele>76.7</ele>
        <time>2021-11-21T13:50:09Z</time>
      </trkpt>
      <trkpt lat="49.83021" lon="2.51676">
        <ele>76.7</ele>
        <time>2021-11-21T13:50:10Z</time>
      </trkpt>
      <trkpt lat="49.83021" lon="2.51676">
        <ele>76.7</ele>
        <time>2021-11-21T13:50:11Z</time>
      </trkpt>
      <trkpt lat="49.83021" lon="2.51676">
        <ele>76.7</ele>
        <time>2021-11-21T13:50:13Z</time>
      </trkpt>
      <trkpt lat="49.83021" lon="2.51676">
        <ele>76.7</ele>
        <time>2021-11-21T13:50:15Z</time>
      </trkpt>
      <trkpt lat="49.83021" lon="2.51676">
        <ele>76.6</ele>
        <time>2021-11-21T13:50:16Z</time>
      </trkpt>
      <trkpt lat="49.83021" lon="2.51676">
        <ele>76.6</ele>
        <time>2021-11-21T13:50:18Z</time>
      </trkpt>
      <trkpt lat="49.83021" lon="2.51676">
        <ele>76.6</ele>
        <time>2021-11-21T13:50:20Z</time>
      </trkpt>
      <trkpt lat="49.83021" lon="2.51676">
        <ele>76.6</ele>
        <time>2021-11-21T13:50:21Z</time>
      </trkpt>
      <trkpt lat="49.83021" lon="2.51676">
        <ele>76.6</ele>
        <time>2021-11-21T13:50:22Z</time>
      </trkpt>
      <trkpt lat="49.83021" lon="2.51676">
        <ele>76.6</ele>
        <time>2021-11-21T13:50:24Z</time>
      </trkpt>
      <trkpt lat="49.8302" lon="2.51676">
        <ele>76.6</ele>
        <time>2021-11-21T13:50:25Z</time>
      </trkpt>
      <trkpt lat="49.8302" lon="2.51676">
        <ele>76.6</ele>
        <time>2021-11-21T13:50:26Z</time>
      </trkpt>
      <trkpt lat="49.8302" lon="2.51676">
        <ele>76.6</ele>
        <time>2021-11-21T13:50:28Z</time>
      </trkpt>
      <trkpt lat="49.8302" lon="2.51676">
        <ele>76.6</ele>
        <time>2021-11-21T13:50:30Z</time>
      </trkpt>
      <trkpt lat="49.8302" lon="2.51676">
        <ele>76.6</ele>
        <time>2021-11-21T13:50:31Z</time>
      </trkpt>
      <trkpt lat="49.8302" lon="2.51676">
        <ele>76.6</ele>
        <time>2021-11-21T13:50:32Z</time>
      </trkpt>
      <trkpt lat="49.8302" lon="2.51676">
        <ele>76.6</ele>
        <time>2021-11-21T13:50:34Z</time>
      </trkpt>
      <trkpt lat="49.8302" lon="2.51676">
        <ele>76.6</ele>
        <time>2021-11-21T13:50:36Z</time>
      </trkpt>
      <trkpt lat="49.8302" lon="2.51676">
        <ele>76.6</ele>
        <time>2021-11-21T13:50:38Z</time>
      </trkpt>
      <trkpt lat="49.8302" lon="2.51677">
        <ele>76.6</ele>
        <time>2021-11-21T13:50:39Z</time>
      </trkpt>
      <trkpt lat="49.8302" lon="2.51677">
        <ele>76.6</ele>
        <time>2021-11-21T13:50:41Z</time>
      </trkpt>
      <trkpt lat="49.8302" lon="2.51677">
        <ele>76.6</ele>
        <time>2021-11-21T13:50:42Z</time>
      </trkpt>
      <trkpt lat="49.8302" lon="2.51677">
        <ele>76.5</ele>
        <time>2021-11-21T13:50:45Z</time>
      </trkpt>
      <trkpt lat="49.8302" lon="2.51677">
        <ele>76.5</ele>
        <time>2021-11-21T13:50:47Z</time>
      </trkpt>
      <trkpt lat="49.8302" lon="2.51677">
        <ele>76.5</ele>
        <time>2021-11-21T13:50:49Z</time>
      </trkpt>
      <trkpt lat="49.8302" lon="2.51677">
        <ele>76.5</ele>
        <time>2021-11-21T13:50:51Z</time>
      </trkpt>
      <trkpt lat="49.8302" lon="2.51677">
        <ele>76.5</ele>
        <time>2021-11-21T13:50:52Z</time>
      </trkpt>
      <trkpt lat="49.8302" lon="2.51677">
        <ele>76.5</ele>
        <time>2021-11-21T13:50:55Z</time>
      </trkpt>
      <trkpt lat="49.8302" lon="2.51677">
        <ele>76.5</ele>
        <time>2021-11-21T13:50:57Z</time>
      </trkpt>
      <trkpt lat="49.8302" lon="2.51677">
        <ele>76.5</ele>
        <time>2021-11-21T13:50:58Z</time>
      </trkpt>
      <trkpt lat="49.8302" lon="2.51677">
        <ele>76.5</ele>
        <time>2021-11-21T13:51:00Z</time>
      </trkpt>
      <trkpt lat="49.8302" lon="2.51677">
        <ele>76.5</ele>
        <time>2021-11-21T13:51:01Z</time>
      </trkpt>
      <trkpt lat="49.8302" lon="2.51677">
        <ele>76.5</ele>
        <time>2021-11-21T13:51:04Z</time>
      </trkpt>
      <trkpt lat="49.8302" lon="2.51677">
        <ele>76.5</ele>
        <time>2021-11-21T13:51:06Z</time>
      </trkpt>
      <trkpt lat="49.83019" lon="2.51677">
        <ele>76.5</ele>
        <time>2021-11-21T13:51:07Z</time>
      </trkpt>
      <trkpt lat="49.83019" lon="2.51677">
        <ele>76.5</ele>
        <time>2021-11-21T13:51:09Z</time>
      </trkpt>
      <trkpt lat="49.83019" lon="2.51677">
        <ele>76.5</ele>
        <time>2021-11-21T13:51:11Z</time>
      </trkpt>
      <trkpt lat="49.83019" lon="2.51677">
        <ele>76.5</ele>
        <time>2021-11-21T13:51:12Z</time>
      </trkpt>
      <trkpt lat="49.83019" lon="2.51677">
        <ele>76.5</ele>
        <time>2021-11-21T13:51:14Z</time>
      </trkpt>
      <trkpt lat="49.83019" lon="2.51677">
        <ele>76.5</ele>
        <time>2021-11-21T13:51:15Z</time>
      </trkpt>
      <trkpt lat="49.83019" lon="2.51677">
        <ele>76.5</ele>
        <time>2021-11-21T13:51:16Z</time>
      </trkpt>
      <trkpt lat="49.83019" lon="2.51677">
        <ele>76.4</ele>
        <time>2021-11-21T13:51:18Z</time>
      </trkpt>
      <trkpt lat="49.83019" lon="2.51678">
        <ele>76.4</ele>
        <time>2021-11-21T13:51:20Z</time>
      </trkpt>
      <trkpt lat="49.83019" lon="2.51678">
        <ele>76.4</ele>
        <time>2021-11-21T13:51:22Z</time>
      </trkpt>
      <trkpt lat="49.83019" lon="2.51678">
        <ele>76.4</ele>
        <time>2021-11-21T13:51:23Z</time>
      </trkpt>
      <trkpt lat="49.83019" lon="2.51678">
        <ele>76.4</ele>
        <time>2021-11-21T13:51:24Z</time>
      </trkpt>
      <trkpt lat="49.83019" lon="2.51678">
        <ele>76.4</ele>
        <time>2021-11-21T13:51:26Z</time>
      </trkpt>
      <trkpt lat="49.83019" lon="2.51678">
        <ele>76.4</ele>
        <time>2021-11-21T13:51:27Z</time>
      </trkpt>
      <trkpt lat="49.83018" lon="2.51678">
        <ele>76.3</ele>
        <time>2021-11-21T13:51:29Z</time>
      </trkpt>
      <trkpt lat="49.83018" lon="2.51678">
        <ele>76.3</ele>
        <time>2021-11-21T13:51:30Z</time>
      </trkpt>
      <trkpt lat="49.83017" lon="2.51678">
        <ele>76.3</ele>
        <time>2021-11-21T13:51:31Z</time>
      </trkpt>
      <trkpt lat="49.83014" lon="2.51678">
        <ele>76</ele>
        <time>2021-11-21T13:51:33Z</time>
      </trkpt>
      <trkpt lat="49.83011" lon="2.51678">
        <ele>75.8</ele>
        <time>2021-11-21T13:51:35Z</time>
      </trkpt>
      <trkpt lat="49.83009" lon="2.51677">
        <ele>75.6</ele>
        <time>2021-11-21T13:51:37Z</time>
      </trkpt>
      <trkpt lat="49.83008" lon="2.51678">
        <ele>75.6</ele>
        <time>2021-11-21T13:51:38Z</time>
      </trkpt>
      <trkpt lat="49.83007" lon="2.51678">
        <ele>75.5</ele>
        <time>2021-11-21T13:51:40Z</time>
      </trkpt>
      <trkpt lat="49.83006" lon="2.51679">
        <ele>75.4</ele>
        <time>2021-11-21T13:51:42Z</time>
      </trkpt>
      <trkpt lat="49.83005" lon="2.5168">
        <ele>75.3</ele>
        <time>2021-11-21T13:51:44Z</time>
      </trkpt>
      <trkpt lat="49.83005" lon="2.51681">
        <ele>75.2</ele>
        <time>2021-11-21T13:51:46Z</time>
      </trkpt>
      <trkpt lat="49.83005" lon="2.51683">
        <ele>75.2</ele>
        <time>2021-11-21T13:51:48Z</time>
      </trkpt>
      <trkpt lat="49.83005" lon="2.51683">
        <ele>75.1</ele>
        <time>2021-11-21T13:51:49Z</time>
      </trkpt>
      <trkpt lat="49.83005" lon="2.51684">
        <ele>75.1</ele>
        <time>2021-11-21T13:51:50Z</time>
      </trkpt>
      <trkpt lat="49.83004" lon="2.51684">
        <ele>75</ele>
        <time>2021-11-21T13:51:52Z</time>
      </trkpt>
      <trkpt lat="49.83004" lon="2.51685">
        <ele>75</ele>
        <time>2021-11-21T13:51:53Z</time>
      </trkpt>
      <trkpt lat="49.83004" lon="2.51685">
        <ele>75</ele>
        <time>2021-11-21T13:51:55Z</time>
      </trkpt>
      <trkpt lat="49.83004" lon="2.51685">
        <ele>75</ele>
        <time>2021-11-21T13:51:56Z</time>
      </trkpt>
      <trkpt lat="49.83004" lon="2.51685">
        <ele>75</ele>
        <time>2021-11-21T13:51:58Z</time>
      </trkpt>
      <trkpt lat="49.83004" lon="2.51684">
        <ele>75</ele>
        <time>2021-11-21T13:52:00Z</time>
      </trkpt>
      <trkpt lat="49.83004" lon="2.51684">
        <ele>75</ele>
        <time>2021-11-21T13:52:01Z</time>
      </trkpt>
      <trkpt lat="49.83004" lon="2.51684">
        <ele>75</ele>
        <time>2021-11-21T13:52:02Z</time>
      </trkpt>
      <trkpt lat="49.83004" lon="2.51684">
        <ele>75</ele>
        <time>2021-11-21T13:52:03Z</time>
      </trkpt>
      <trkpt lat="49.83004" lon="2.51684">
        <ele>74.9</ele>
        <time>2021-11-21T13:52:04Z</time>
      </trkpt>
      <trkpt lat="49.83004" lon="2.51684">
        <ele>74.9</ele>
        <time>2021-11-21T13:52:06Z</time>
      </trkpt>
      <trkpt lat="49.83004" lon="2.51684">
        <ele>74.9</ele>
        <time>2021-11-21T13:52:08Z</time>
      </trkpt>
      <trkpt lat="49.83004" lon="2.51684">
        <ele>74.9</ele>
        <time>2021-11-21T13:52:09Z</time>
      </trkpt>
      <trkpt lat="49.83004" lon="2.51684">
        <ele>74.9</ele>
        <time>2021-11-21T13:52:10Z</time>
      </trkpt>
      <trkpt lat="49.83004" lon="2.51684">
        <ele>74.9</ele>
        <time>2021-11-21T13:52:12Z</time>
      </trkpt>
      <trkpt lat="49.83004" lon="2.51684">
        <ele>74.9</ele>
        <time>2021-11-21T13:52:13Z</time>
      </trkpt>
      <trkpt lat="49.83004" lon="2.51684">
        <ele>74.9</ele>
        <time>2021-11-21T13:52:15Z</time>
      </trkpt>
      <trkpt lat="49.83004" lon="2.51684">
        <ele>74.9</ele>
        <time>2021-11-21T13:52:17Z</time>
      </trkpt>
      <trkpt lat="49.83004" lon="2.51684">
        <ele>74.9</ele>
        <time>2021-11-21T13:52:19Z</time>
      </trkpt>
      <trkpt lat="49.83004" lon="2.51684">
        <ele>74.9</ele>
        <time>2021-11-21T13:52:21Z</time>
      </trkpt>
      <trkpt lat="49.83004" lon="2.51684">
        <ele>74.9</ele>
        <time>2021-11-21T13:52:22Z</time>
      </trkpt>
      <trkpt lat="49.83004" lon="2.51684">
        <ele>74.9</ele>
        <time>2021-11-21T13:52:24Z</time>
      </trkpt>
      <trkpt lat="49.83004" lon="2.51684">
        <ele>74.9</ele>
        <time>2021-11-21T13:52:25Z</time>
      </trkpt>
      <trkpt lat="49.83004" lon="2.51684">
        <ele>74.9</ele>
        <time>2021-11-21T13:52:27Z</time>
      </trkpt>
      <trkpt lat="49.83004" lon="2.51684">
        <ele>74.9</ele>
        <time>2021-11-21T13:52:29Z</time>
      </trkpt>
      <trkpt lat="49.83004" lon="2.51684">
        <ele>74.9</ele>
        <time>2021-11-21T13:52:30Z</time>
      </trkpt>
      <trkpt lat="49.83004" lon="2.51684">
        <ele>74.9</ele>
        <time>2021-11-21T13:52:31Z</time>
      </trkpt>
      <trkpt lat="49.83004" lon="2.51684">
        <ele>74.9</ele>
        <time>2021-11-21T13:52:32Z</time>
      </trkpt>
      <trkpt lat="49.83004" lon="2.51684">
        <ele>74.9</ele>
        <time>2021-11-21T13:52:34Z</time>
      </trkpt>
      <trkpt lat="49.83004" lon="2.51684">
        <ele>74.9</ele>
        <time>2021-11-21T13:52:36Z</time>
      </trkpt>
      <trkpt lat="49.83004" lon="2.51684">
        <ele>74.9</ele>
        <time>2021-11-21T13:52:38Z</time>
      </trkpt>
      <trkpt lat="49.83004" lon="2.51684">
        <ele>74.9</ele>
        <time>2021-11-21T13:52:39Z</time>
      </trkpt>
      <trkpt lat="49.83004" lon="2.51684">
        <ele>74.9</ele>
        <time>2021-11-21T13:52:41Z</time>
      </trkpt>
      <trkpt lat="49.83004" lon="2.51684">
        <ele>74.9</ele>
        <time>2021-11-21T13:52:42Z</time>
      </trkpt>
      <trkpt lat="49.83004" lon="2.51684">
        <ele>74.9</ele>
        <time>2021-11-21T13:52:44Z</time>
      </trkpt>
      <trkpt lat="49.83004" lon="2.51684">
        <ele>74.9</ele>
        <time>2021-11-21T13:52:46Z</time>
      </trkpt>
      <trkpt lat="49.83004" lon="2.51684">
        <ele>74.9</ele>
        <time>2021-11-21T13:52:48Z</time>
      </trkpt>
      <trkpt lat="49.83004" lon="2.51684">
        <ele>74.9</ele>
        <time>2021-11-21T13:52:49Z</time>
      </trkpt>
      <trkpt lat="49.83004" lon="2.51684">
        <ele>74.9</ele>
        <time>2021-11-21T13:52:51Z</time>
      </trkpt>
      <trkpt lat="49.83004" lon="2.51684">
        <ele>74.9</ele>
        <time>2021-11-21T13:52:53Z</time>
      </trkpt>
      <trkpt lat="49.83004" lon="2.51684">
        <ele>74.9</ele>
        <time>2021-11-21T13:52:54Z</time>
      </trkpt>
      <trkpt lat="49.83004" lon="2.51684">
        <ele>74.9</ele>
        <time>2021-11-21T13:52:56Z</time>
      </trkpt>
      <trkpt lat="49.83004" lon="2.51684">
        <ele>74.9</ele>
        <time>2021-11-21T13:52:57Z</time>
      </trkpt>
      <trkpt lat="49.83004" lon="2.51684">
        <ele>74.9</ele>
        <time>2021-11-21T13:52:59Z</time>
      </trkpt>
      <trkpt lat="49.83004" lon="2.51684">
        <ele>74.9</ele>
        <time>2021-11-21T13:53:00Z</time>
      </trkpt>
      <trkpt lat="49.83004" lon="2.51684">
        <ele>74.9</ele>
        <time>2021-11-21T13:53:02Z</time>
      </trkpt>
      <trkpt lat="49.83004" lon="2.51684">
        <ele>74.9</ele>
        <time>2021-11-21T13:53:04Z</time>
      </trkpt>
      <trkpt lat="49.83004" lon="2.51684">
        <ele>74.9</ele>
        <time>2021-11-21T13:53:05Z</time>
      </trkpt>
      <trkpt lat="49.83004" lon="2.51684">
        <ele>74.9</ele>
        <time>2021-11-21T13:53:07Z</time>
      </trkpt>
      <trkpt lat="49.83004" lon="2.51684">
        <ele>74.9</ele>
        <time>2021-11-21T13:53:08Z</time>
      </trkpt>
      <trkpt lat="49.83004" lon="2.51684">
        <ele>74.9</ele>
        <time>2021-11-21T13:53:09Z</time>
      </trkpt>
      <trkpt lat="49.83004" lon="2.51684">
        <ele>74.9</ele>
        <time>2021-11-21T13:53:11Z</time>
      </trkpt>
      <trkpt lat="49.83004" lon="2.51684">
        <ele>74.9</ele>
        <time>2021-11-21T13:53:12Z</time>
      </trkpt>
      <trkpt lat="49.83004" lon="2.51684">
        <ele>74.9</ele>
        <time>2021-11-21T13:53:13Z</time>
      </trkpt>
      <trkpt lat="49.83004" lon="2.51684">
        <ele>74.9</ele>
        <time>2021-11-21T13:53:15Z</time>
      </trkpt>
      <trkpt lat="49.83004" lon="2.51684">
        <ele>74.9</ele>
        <time>2021-11-21T13:53:16Z</time>
      </trkpt>
      <trkpt lat="49.83004" lon="2.51684">
        <ele>74.9</ele>
        <time>2021-11-21T13:53:18Z</time>
      </trkpt>
      <trkpt lat="49.83004" lon="2.51684">
        <ele>74.9</ele>
        <time>2021-11-21T13:53:20Z</time>
      </trkpt>
      <trkpt lat="49.83004" lon="2.51684">
        <ele>74.9</ele>
        <time>2021-11-21T13:53:21Z</time>
      </trkpt>
      <trkpt lat="49.83004" lon="2.51684">
        <ele>74.9</ele>
        <time>2021-11-21T13:53:22Z</time>
      </trkpt>
      <trkpt lat="49.83004" lon="2.51684">
        <ele>74.9</ele>
        <time>2021-11-21T13:53:24Z</time>
      </trkpt>
      <trkpt lat="49.83004" lon="2.51684">
        <ele>74.9</ele>
        <time>2021-11-21T13:53:26Z</time>
      </trkpt>
      <trkpt lat="49.83004" lon="2.51684">
        <ele>74.9</ele>
        <time>2021-11-21T13:53:27Z</time>
      </trkpt>
      <trkpt lat="49.83004" lon="2.51684">
        <ele>74.9</ele>
        <time>2021-11-21T13:53:29Z</time>
      </trkpt>
      <trkpt lat="49.83004" lon="2.51684">
        <ele>74.9</ele>
        <time>2021-11-21T13:53:30Z</time>
      </trkpt>
      <trkpt lat="49.83004" lon="2.51684">
        <ele>74.9</ele>
        <time>2021-11-21T13:53:31Z</time>
      </trkpt>
      <trkpt lat="49.83004" lon="2.51684">
        <ele>74.9</ele>
        <time>2021-11-21T13:53:33Z</time>
      </trkpt>
      <trkpt lat="49.83004" lon="2.51684">
        <ele>74.9</ele>
        <time>2021-11-21T13:53:34Z</time>
      </trkpt>
      <trkpt lat="49.83004" lon="2.51684">
        <ele>74.9</ele>
        <time>2021-11-21T13:53:36Z</time>
      </trkpt>
      <trkpt lat="49.83004" lon="2.51684">
        <ele>74.9</ele>
        <time>2021-11-21T13:53:38Z</time>
      </trkpt>
      <trkpt lat="49.83004" lon="2.51684">
        <ele>74.9</ele>
        <time>2021-11-21T13:53:39Z</time>
      </trkpt>
      <trkpt lat="49.83004" lon="2.51684">
        <ele>74.9</ele>
        <time>2021-11-21T13:53:41Z</time>
      </trkpt>
      <trkpt lat="49.83004" lon="2.51684">
        <ele>74.9</ele>
        <time>2021-11-21T13:53:43Z</time>
      </trkpt>
      <trkpt lat="49.83004" lon="2.51684">
        <ele>74.9</ele>
        <time>2021-11-21T13:53:45Z</time>
      </trkpt>
      <trkpt lat="49.83004" lon="2.51684">
        <ele>74.9</ele>
        <time>2021-11-21T13:53:46Z</time>
      </trkpt>
      <trkpt lat="49.83004" lon="2.51684">
        <ele>74.9</ele>
        <time>2021-11-21T13:53:47Z</time>
      </trkpt>
      <trkpt lat="49.83004" lon="2.51684">
        <ele>74.9</ele>
        <time>2021-11-21T13:53:49Z</time>
      </trkpt>
      <trkpt lat="49.83004" lon="2.51684">
        <ele>74.9</ele>
        <time>2021-11-21T13:53:51Z</time>
      </trkpt>
      <trkpt lat="49.83004" lon="2.51684">
        <ele>74.9</ele>
        <time>2021-11-21T13:53:52Z</time>
      </trkpt>
      <trkpt lat="49.83004" lon="2.51684">
        <ele>74.9</ele>
        <time>2021-11-21T13:53:54Z</time>
      </trkpt>
      <trkpt lat="49.83004" lon="2.51684">
        <ele>74.9</ele>
        <time>2021-11-21T13:53:55Z</time>
      </trkpt>
      <trkpt lat="49.83004" lon="2.51684">
        <ele>74.9</ele>
        <time>2021-11-21T13:53:56Z</time>
      </trkpt>
      <trkpt lat="49.83004" lon="2.51684">
        <ele>74.9</ele>
        <time>2021-11-21T13:53:57Z</time>
      </trkpt>
      <trkpt lat="49.83004" lon="2.51684">
        <ele>74.9</ele>
        <time>2021-11-21T13:53:59Z</time>
      </trkpt>
      <trkpt lat="49.83004" lon="2.51684">
        <ele>74.9</ele>
        <time>2021-11-21T13:54:01Z</time>
      </trkpt>
      <trkpt lat="49.83004" lon="2.51684">
        <ele>74.9</ele>
        <time>2021-11-21T13:54:02Z</time>
      </trkpt>
      <trkpt lat="49.83004" lon="2.51684">
        <ele>74.9</ele>
        <time>2021-11-21T13:54:03Z</time>
      </trkpt>
      <trkpt lat="49.83004" lon="2.51684">
        <ele>74.9</ele>
        <time>2021-11-21T13:54:05Z</time>
      </trkpt>
      <trkpt lat="49.83004" lon="2.51684">
        <ele>74.9</ele>
        <time>2021-11-21T13:54:06Z</time>
      </trkpt>
      <trkpt lat="49.83004" lon="2.51684">
        <ele>74.9</ele>
        <time>2021-11-21T13:54:08Z</time>
      </trkpt>
      <trkpt lat="49.83004" lon="2.51684">
        <ele>74.9</ele>
        <time>2021-11-21T13:54:09Z</time>
      </trkpt>
      <trkpt lat="49.83004" lon="2.51684">
        <ele>74.9</ele>
        <time>2021-11-21T13:54:10Z</time>
      </trkpt>
      <trkpt lat="49.83004" lon="2.51684">
        <ele>74.9</ele>
        <time>2021-11-21T13:54:12Z</time>
      </trkpt>
      <trkpt lat="49.83004" lon="2.51684">
        <ele>74.9</ele>
        <time>2021-11-21T13:54:13Z</time>
      </trkpt>
      <trkpt lat="49.83004" lon="2.51684">
        <ele>74.9</ele>
        <time>2021-11-21T13:54:15Z</time>
      </trkpt>
      <trkpt lat="49.83004" lon="2.51684">
        <ele>74.9</ele>
        <time>2021-11-21T13:54:16Z</time>
      </trkpt>
      <trkpt lat="49.83004" lon="2.51684">
        <ele>74.9</ele>
        <time>2021-11-21T13:54:18Z</time>
      </trkpt>
      <trkpt lat="49.83004" lon="2.51684">
        <ele>74.9</ele>
        <time>2021-11-21T13:54:19Z</time>
      </trkpt>
      <trkpt lat="49.83004" lon="2.51684">
        <ele>74.9</ele>
        <time>2021-11-21T13:54:20Z</time>
      </trkpt>
      <trkpt lat="49.83004" lon="2.51684">
        <ele>74.9</ele>
        <time>2021-11-21T13:54:22Z</time>
      </trkpt>
      <trkpt lat="49.83004" lon="2.51684">
        <ele>74.9</ele>
        <time>2021-11-21T13:54:23Z</time>
      </trkpt>
      <trkpt lat="49.83004" lon="2.51684">
        <ele>74.9</ele>
        <time>2021-11-21T13:54:25Z</time>
      </trkpt>
      <trkpt lat="49.83004" lon="2.51684">
        <ele>74.9</ele>
        <time>2021-11-21T13:54:27Z</time>
      </trkpt>
      <trkpt lat="49.83004" lon="2.51684">
        <ele>74.9</ele>
        <time>2021-11-21T13:54:29Z</time>
      </trkpt>
      <trkpt lat="49.83004" lon="2.51684">
        <ele>74.9</ele>
        <time>2021-11-21T13:54:31Z</time>
      </trkpt>
      <trkpt lat="49.83004" lon="2.51684">
        <ele>74.9</ele>
        <time>2021-11-21T13:54:32Z</time>
      </trkpt>
      <trkpt lat="49.83004" lon="2.51684">
        <ele>74.9</ele>
        <time>2021-11-21T13:54:34Z</time>
      </trkpt>
      <trkpt lat="49.83003" lon="2.51688">
        <ele>74.7</ele>
        <time>2021-11-21T13:54:36Z</time>
      </trkpt>
      <trkpt lat="49.83002" lon="2.5169">
        <ele>74.6</ele>
        <time>2021-11-21T13:54:37Z</time>
      </trkpt>
      <trkpt lat="49.83002" lon="2.51694">
        <ele>74.4</ele>
        <time>2021-11-21T13:54:39Z</time>
      </trkpt>
      <trkpt lat="49.83002" lon="2.51697">
        <ele>74.2</ele>
        <time>2021-11-21T13:54:41Z</time>
      </trkpt>
      <trkpt lat="49.83002" lon="2.51698">
        <ele>74.1</ele>
        <time>2021-11-21T13:54:42Z</time>
      </trkpt>
      <trkpt lat="49.83002" lon="2.51701">
        <ele>74</ele>
        <time>2021-11-21T13:54:44Z</time>
      </trkpt>
      <trkpt lat="49.83002" lon="2.51702">
        <ele>73.9</ele>
        <time>2021-11-21T13:54:45Z</time>
      </trkpt>
      <trkpt lat="49.83002" lon="2.51705">
        <ele>73.8</ele>
        <time>2021-11-21T13:54:47Z</time>
      </trkpt>
      <trkpt lat="49.83001" lon="2.51707">
        <ele>73.7</ele>
        <time>2021-11-21T13:54:48Z</time>
      </trkpt>
      <trkpt lat="49.83002" lon="2.51707">
        <ele>73.7</ele>
        <time>2021-11-21T13:54:49Z</time>
      </trkpt>
      <trkpt lat="49.83001" lon="2.5171">
        <ele>73.6</ele>
        <time>2021-11-21T13:54:50Z</time>
      </trkpt>
      <trkpt lat="49.83001" lon="2.51715">
        <ele>73.3</ele>
        <time>2021-11-21T13:54:52Z</time>
      </trkpt>
      <trkpt lat="49.83001" lon="2.51717">
        <ele>73.2</ele>
        <time>2021-11-21T13:54:53Z</time>
      </trkpt>
      <trkpt lat="49.83" lon="2.51721">
        <ele>73</ele>
        <time>2021-11-21T13:54:55Z</time>
      </trkpt>
      <trkpt lat="49.83" lon="2.51724">
        <ele>72.8</ele>
        <time>2021-11-21T13:54:57Z</time>
      </trkpt>
      <trkpt lat="49.82999" lon="2.51726">
        <ele>72.7</ele>
        <time>2021-11-21T13:54:59Z</time>
      </trkpt>
      <trkpt lat="49.82999" lon="2.51727">
        <ele>72.6</ele>
        <time>2021-11-21T13:55:00Z</time>
      </trkpt>
      <trkpt lat="49.82998" lon="2.5173">
        <ele>72.5</ele>
        <time>2021-11-21T13:55:02Z</time>
      </trkpt>
      <trkpt lat="49.82998" lon="2.51732">
        <ele>72.4</ele>
        <time>2021-11-21T13:55:03Z</time>
      </trkpt>
      <trkpt lat="49.82998" lon="2.51733">
        <ele>72.3</ele>
        <time>2021-11-21T13:55:04Z</time>
      </trkpt>
      <trkpt lat="49.82998" lon="2.51736">
        <ele>72.2</ele>
        <time>2021-11-21T13:55:06Z</time>
      </trkpt>
      <trkpt lat="49.82998" lon="2.51737">
        <ele>72.2</ele>
        <time>2021-11-21T13:55:07Z</time>
      </trkpt>
      <trkpt lat="49.82998" lon="2.5174">
        <ele>72</ele>
        <time>2021-11-21T13:55:09Z</time>
      </trkpt>
      <trkpt lat="49.82997" lon="2.51742">
        <ele>71.9</ele>
        <time>2021-11-21T13:55:10Z</time>
      </trkpt>
      <trkpt lat="49.82997" lon="2.51745">
        <ele>71.8</ele>
        <time>2021-11-21T13:55:12Z</time>
      </trkpt>
      <trkpt lat="49.82997" lon="2.51749">
        <ele>71.6</ele>
        <time>2021-11-21T13:55:14Z</time>
      </trkpt>
      <trkpt lat="49.82997" lon="2.5175">
        <ele>71.5</ele>
        <time>2021-11-21T13:55:15Z</time>
      </trkpt>
      <trkpt lat="49.82997" lon="2.51751">
        <ele>71.5</ele>
        <time>2021-11-21T13:55:16Z</time>
      </trkpt>
      <trkpt lat="49.82997" lon="2.51753">
        <ele>71.4</ele>
        <time>2021-11-21T13:55:18Z</time>
      </trkpt>
      <trkpt lat="49.82997" lon="2.51754">
        <ele>71.3</ele>
        <time>2021-11-21T13:55:19Z</time>
      </trkpt>
      <trkpt lat="49.82997" lon="2.51756">
        <ele>71.2</ele>
        <time>2021-11-21T13:55:20Z</time>
      </trkpt>
      <trkpt lat="49.82996" lon="2.51759">
        <ele>71.1</ele>
        <time>2021-11-21T13:55:22Z</time>
      </trkpt>
      <trkpt lat="49.82996" lon="2.51762">
        <ele>71</ele>
        <time>2021-11-21T13:55:24Z</time>
      </trkpt>
      <trkpt lat="49.82996" lon="2.51764">
        <ele>70.8</ele>
        <time>2021-11-21T13:55:26Z</time>
      </trkpt>
      <trkpt lat="49.82997" lon="2.51768">
        <ele>70.7</ele>
        <time>2021-11-21T13:55:28Z</time>
      </trkpt>
      <trkpt lat="49.82996" lon="2.5177">
        <ele>70.6</ele>
        <time>2021-11-21T13:55:30Z</time>
      </trkpt>
      <trkpt lat="49.82996" lon="2.51771">
        <ele>70.5</ele>
        <time>2021-11-21T13:55:31Z</time>
      </trkpt>
      <trkpt lat="49.82996" lon="2.51774">
        <ele>70.4</ele>
        <time>2021-11-21T13:55:33Z</time>
      </trkpt>
      <trkpt lat="49.82995" lon="2.51776">
        <ele>70.3</ele>
        <time>2021-11-21T13:55:35Z</time>
      </trkpt>
      <trkpt lat="49.82994" lon="2.51778">
        <ele>70.2</ele>
        <time>2021-11-21T13:55:37Z</time>
      </trkpt>
      <trkpt lat="49.82994" lon="2.51781">
        <ele>70.1</ele>
        <time>2021-11-21T13:55:39Z</time>
      </trkpt>
      <trkpt lat="49.82993" lon="2.51783">
        <ele>70</ele>
        <time>2021-11-21T13:55:41Z</time>
      </trkpt>
      <trkpt lat="49.82993" lon="2.51784">
        <ele>69.9</ele>
        <time>2021-11-21T13:55:43Z</time>
      </trkpt>
      <trkpt lat="49.82993" lon="2.51785">
        <ele>69.9</ele>
        <time>2021-11-21T13:55:45Z</time>
      </trkpt>
      <trkpt lat="49.82992" lon="2.51786">
        <ele>69.8</ele>
        <time>2021-11-21T13:55:46Z</time>
      </trkpt>
      <trkpt lat="49.82992" lon="2.51789">
        <ele>69.7</ele>
        <time>2021-11-21T13:55:48Z</time>
      </trkpt>
      <trkpt lat="49.82991" lon="2.51792">
        <ele>69.6</ele>
        <time>2021-11-21T13:55:49Z</time>
      </trkpt>
      <trkpt lat="49.8299" lon="2.51794">
        <ele>69.5</ele>
        <time>2021-11-21T13:55:51Z</time>
      </trkpt>
      <trkpt lat="49.82989" lon="2.51796">
        <ele>69.4</ele>
        <time>2021-11-21T13:55:53Z</time>
      </trkpt>
      <trkpt lat="49.82989" lon="2.51797">
        <ele>69.4</ele>
        <time>2021-11-21T13:55:55Z</time>
      </trkpt>
      <trkpt lat="49.82988" lon="2.51799">
        <ele>69.3</ele>
        <time>2021-11-21T13:55:57Z</time>
      </trkpt>
      <trkpt lat="49.82987" lon="2.51801">
        <ele>69.2</ele>
        <time>2021-11-21T13:55:58Z</time>
      </trkpt>
      <trkpt lat="49.82987" lon="2.51803">
        <ele>69.1</ele>
        <time>2021-11-21T13:55:59Z</time>
      </trkpt>
      <trkpt lat="49.82986" lon="2.51805">
        <ele>69</ele>
        <time>2021-11-21T13:56:01Z</time>
      </trkpt>
      <trkpt lat="49.82986" lon="2.51806">
        <ele>69</ele>
        <time>2021-11-21T13:56:02Z</time>
      </trkpt>
      <trkpt lat="49.82985" lon="2.51808">
        <ele>68.9</ele>
        <time>2021-11-21T13:56:03Z</time>
      </trkpt>
      <trkpt lat="49.82984" lon="2.51812">
        <ele>68.8</ele>
        <time>2021-11-21T13:56:05Z</time>
      </trkpt>
      <trkpt lat="49.82983" lon="2.51814">
        <ele>68.7</ele>
        <time>2021-11-21T13:56:07Z</time>
      </trkpt>
      <trkpt lat="49.82983" lon="2.51816">
        <ele>68.6</ele>
        <time>2021-11-21T13:56:08Z</time>
      </trkpt>
      <trkpt lat="49.82982" lon="2.51818">
        <ele>68.5</ele>
        <time>2021-11-21T13:56:09Z</time>
      </trkpt>
      <trkpt lat="49.82982" lon="2.5182">
        <ele>68.5</ele>
        <time>2021-11-21T13:56:11Z</time>
      </trkpt>
      <trkpt lat="49.82981" lon="2.51823">
        <ele>68.3</ele>
        <time>2021-11-21T13:56:13Z</time>
      </trkpt>
      <trkpt lat="49.82981" lon="2.51825">
        <ele>68.3</ele>
        <time>2021-11-21T13:56:14Z</time>
      </trkpt>
      <trkpt lat="49.82981" lon="2.51826">
        <ele>68.3</ele>
        <time>2021-11-21T13:56:15Z</time>
      </trkpt>
      <trkpt lat="49.8298" lon="2.51829">
        <ele>68.2</ele>
        <time>2021-11-21T13:56:17Z</time>
      </trkpt>
      <trkpt lat="49.82979" lon="2.5183">
        <ele>68.1</ele>
        <time>2021-11-21T13:56:18Z</time>
      </trkpt>
      <trkpt lat="49.82979" lon="2.51832">
        <ele>68</ele>
        <time>2021-11-21T13:56:19Z</time>
      </trkpt>
      <trkpt lat="49.82978" lon="2.51835">
        <ele>67.9</ele>
        <time>2021-11-21T13:56:21Z</time>
      </trkpt>
      <trkpt lat="49.82977" lon="2.51837">
        <ele>67.8</ele>
        <time>2021-11-21T13:56:22Z</time>
      </trkpt>
      <trkpt lat="49.82976" lon="2.51841">
        <ele>67.7</ele>
        <time>2021-11-21T13:56:24Z</time>
      </trkpt>
      <trkpt lat="49.82976" lon="2.51842">
        <ele>67.6</ele>
        <time>2021-11-21T13:56:25Z</time>
      </trkpt>
      <trkpt lat="49.82976" lon="2.51844">
        <ele>67.6</ele>
        <time>2021-11-21T13:56:27Z</time>
      </trkpt>
      <trkpt lat="49.82975" lon="2.51848">
        <ele>67.4</ele>
        <time>2021-11-21T13:56:29Z</time>
      </trkpt>
      <trkpt lat="49.82975" lon="2.51849">
        <ele>67.4</ele>
        <time>2021-11-21T13:56:30Z</time>
      </trkpt>
      <trkpt lat="49.82975" lon="2.5185">
        <ele>67.3</ele>
        <time>2021-11-21T13:56:31Z</time>
      </trkpt>
      <trkpt lat="49.82974" lon="2.51854">
        <ele>67.2</ele>
        <time>2021-11-21T13:56:33Z</time>
      </trkpt>
      <trkpt lat="49.82974" lon="2.51857">
        <ele>67.1</ele>
        <time>2021-11-21T13:56:34Z</time>
      </trkpt>
      <trkpt lat="49.82973" lon="2.51859">
        <ele>67</ele>
        <time>2021-11-21T13:56:36Z</time>
      </trkpt>
      <trkpt lat="49.82973" lon="2.51862">
        <ele>66.9</ele>
        <time>2021-11-21T13:56:38Z</time>
      </trkpt>
      <trkpt lat="49.82973" lon="2.51864">
        <ele>66.9</ele>
        <time>2021-11-21T13:56:39Z</time>
      </trkpt>
      <trkpt lat="49.82972" lon="2.51867">
        <ele>66.7</ele>
        <time>2021-11-21T13:56:41Z</time>
      </trkpt>
      <trkpt lat="49.82972" lon="2.51869">
        <ele>66.7</ele>
        <time>2021-11-21T13:56:42Z</time>
      </trkpt>
      <trkpt lat="49.82972" lon="2.5187">
        <ele>66.6</ele>
        <time>2021-11-21T13:56:43Z</time>
      </trkpt>
      <trkpt lat="49.82971" lon="2.51875">
        <ele>66.5</ele>
        <time>2021-11-21T13:56:45Z</time>
      </trkpt>
      <trkpt lat="49.82971" lon="2.51878">
        <ele>66.3</ele>
        <time>2021-11-21T13:56:46Z</time>
      </trkpt>
      <trkpt lat="49.8297" lon="2.51881">
        <ele>66.2</ele>
        <time>2021-11-21T13:56:48Z</time>
      </trkpt>
      <trkpt lat="49.8297" lon="2.51883">
        <ele>66.2</ele>
        <time>2021-11-21T13:56:49Z</time>
      </trkpt>
      <trkpt lat="49.82969" lon="2.51885">
        <ele>66.1</ele>
        <time>2021-11-21T13:56:51Z</time>
      </trkpt>
      <trkpt lat="49.82969" lon="2.51887">
        <ele>66</ele>
        <time>2021-11-21T13:56:53Z</time>
      </trkpt>
      <trkpt lat="49.82968" lon="2.51889">
        <ele>65.9</ele>
        <time>2021-11-21T13:56:54Z</time>
      </trkpt>
      <trkpt lat="49.82968" lon="2.51892">
        <ele>65.8</ele>
        <time>2021-11-21T13:56:56Z</time>
      </trkpt>
      <trkpt lat="49.82967" lon="2.51893">
        <ele>65.7</ele>
        <time>2021-11-21T13:56:57Z</time>
      </trkpt>
      <trkpt lat="49.82967" lon="2.51896">
        <ele>65.6</ele>
        <time>2021-11-21T13:56:59Z</time>
      </trkpt>
      <trkpt lat="49.82967" lon="2.51897">
        <ele>65.6</ele>
        <time>2021-11-21T13:57:00Z</time>
      </trkpt>
      <trkpt lat="49.82966" lon="2.51901">
        <ele>65.4</ele>
        <time>2021-11-21T13:57:01Z</time>
      </trkpt>
      <trkpt lat="49.82966" lon="2.51903">
        <ele>65.4</ele>
        <time>2021-11-21T13:57:03Z</time>
      </trkpt>
      <trkpt lat="49.82965" lon="2.51904">
        <ele>65.3</ele>
        <time>2021-11-21T13:57:04Z</time>
      </trkpt>
      <trkpt lat="49.82965" lon="2.51906">
        <ele>65.2</ele>
        <time>2021-11-21T13:57:06Z</time>
      </trkpt>
      <trkpt lat="49.82965" lon="2.51908">
        <ele>65.1</ele>
        <time>2021-11-21T13:57:07Z</time>
      </trkpt>
      <trkpt lat="49.82964" lon="2.5191">
        <ele>65.1</ele>
        <time>2021-11-21T13:57:09Z</time>
      </trkpt>
      <trkpt lat="49.82964" lon="2.51912">
        <ele>65</ele>
        <time>2021-11-21T13:57:11Z</time>
      </trkpt>
      <trkpt lat="49.82963" lon="2.51914">
        <ele>64.9</ele>
        <time>2021-11-21T13:57:12Z</time>
      </trkpt>
      <trkpt lat="49.82963" lon="2.51916">
        <ele>64.8</ele>
        <time>2021-11-21T13:57:13Z</time>
      </trkpt>
      <trkpt lat="49.82962" lon="2.51919">
        <ele>64.7</ele>
        <time>2021-11-21T13:57:15Z</time>
      </trkpt>
      <trkpt lat="49.82962" lon="2.51921">
        <ele>64.6</ele>
        <time>2021-11-21T13:57:16Z</time>
      </trkpt>
      <trkpt lat="49.82961" lon="2.51925">
        <ele>64.4</ele>
        <time>2021-11-21T13:57:18Z</time>
      </trkpt>
      <trkpt lat="49.82961" lon="2.51926">
        <ele>64.4</ele>
        <time>2021-11-21T13:57:19Z</time>
      </trkpt>
      <trkpt lat="49.8296" lon="2.51929">
        <ele>64.3</ele>
        <time>2021-11-21T13:57:21Z</time>
      </trkpt>
      <trkpt lat="49.8296" lon="2.51931">
        <ele>64.2</ele>
        <time>2021-11-21T13:57:22Z</time>
      </trkpt>
      <trkpt lat="49.82959" lon="2.51934">
        <ele>64.1</ele>
        <time>2021-11-21T13:57:24Z</time>
      </trkpt>
      <trkpt lat="49.82959" lon="2.51936">
        <ele>64</ele>
        <time>2021-11-21T13:57:25Z</time>
      </trkpt>
      <trkpt lat="49.82958" lon="2.51939">
        <ele>63.9</ele>
        <time>2021-11-21T13:57:27Z</time>
      </trkpt>
      <trkpt lat="49.82957" lon="2.51942">
        <ele>63.8</ele>
        <time>2021-11-21T13:57:29Z</time>
      </trkpt>
      <trkpt lat="49.82956" lon="2.51944">
        <ele>63.7</ele>
        <time>2021-11-21T13:57:30Z</time>
      </trkpt>
      <trkpt lat="49.82956" lon="2.51945">
        <ele>63.6</ele>
        <time>2021-11-21T13:57:32Z</time>
      </trkpt>
      <trkpt lat="49.82955" lon="2.51947">
        <ele>63.6</ele>
        <time>2021-11-21T13:57:33Z</time>
      </trkpt>
      <trkpt lat="49.82954" lon="2.5195">
        <ele>63.4</ele>
        <time>2021-11-21T13:57:35Z</time>
      </trkpt>
      <trkpt lat="49.82954" lon="2.51952">
        <ele>63.4</ele>
        <time>2021-11-21T13:57:36Z</time>
      </trkpt>
      <trkpt lat="49.82953" lon="2.51953">
        <ele>63.3</ele>
        <time>2021-11-21T13:57:37Z</time>
      </trkpt>
      <trkpt lat="49.82952" lon="2.51956">
        <ele>63.2</ele>
        <time>2021-11-21T13:57:39Z</time>
      </trkpt>
      <trkpt lat="49.82952" lon="2.51957">
        <ele>63.1</ele>
        <time>2021-11-21T13:57:40Z</time>
      </trkpt>
      <trkpt lat="49.82951" lon="2.51959">
        <ele>63</ele>
        <time>2021-11-21T13:57:42Z</time>
      </trkpt>
      <trkpt lat="49.82949" lon="2.51964">
        <ele>62.8</ele>
        <time>2021-11-21T13:57:44Z</time>
      </trkpt>
      <trkpt lat="49.82949" lon="2.51965">
        <ele>62.8</ele>
        <time>2021-11-21T13:57:45Z</time>
      </trkpt>
      <trkpt lat="49.82948" lon="2.51968">
        <ele>62.7</ele>
        <time>2021-11-21T13:57:47Z</time>
      </trkpt>
      <trkpt lat="49.82947" lon="2.51971">
        <ele>62.5</ele>
        <time>2021-11-21T13:57:49Z</time>
      </trkpt>
      <trkpt lat="49.82946" lon="2.51975">
        <ele>62.4</ele>
        <time>2021-11-21T13:57:51Z</time>
      </trkpt>
      <trkpt lat="49.82945" lon="2.51977">
        <ele>62.3</ele>
        <time>2021-11-21T13:57:53Z</time>
      </trkpt>
      <trkpt lat="49.82944" lon="2.51979">
        <ele>62.2</ele>
        <time>2021-11-21T13:57:54Z</time>
      </trkpt>
      <trkpt lat="49.82944" lon="2.5198">
        <ele>62.1</ele>
        <time>2021-11-21T13:57:55Z</time>
      </trkpt>
      <trkpt lat="49.82943" lon="2.51983">
        <ele>62</ele>
        <time>2021-11-21T13:57:57Z</time>
      </trkpt>
      <trkpt lat="49.82941" lon="2.51987">
        <ele>61.9</ele>
        <time>2021-11-21T13:57:59Z</time>
      </trkpt>
      <trkpt lat="49.82941" lon="2.51988">
        <ele>61.8</ele>
        <time>2021-11-21T13:58:00Z</time>
      </trkpt>
      <trkpt lat="49.8294" lon="2.5199">
        <ele>61.7</ele>
        <time>2021-11-21T13:58:01Z</time>
      </trkpt>
      <trkpt lat="49.82939" lon="2.51993">
        <ele>61.6</ele>
        <time>2021-11-21T13:58:03Z</time>
      </trkpt>
      <trkpt lat="49.82938" lon="2.51996">
        <ele>61.5</ele>
        <time>2021-11-21T13:58:05Z</time>
      </trkpt>
      <trkpt lat="49.82938" lon="2.51997">
        <ele>61.4</ele>
        <time>2021-11-21T13:58:06Z</time>
      </trkpt>
      <trkpt lat="49.82937" lon="2.52">
        <ele>61.3</ele>
        <time>2021-11-21T13:58:08Z</time>
      </trkpt>
      <trkpt lat="49.82937" lon="2.52001">
        <ele>61.3</ele>
        <time>2021-11-21T13:58:09Z</time>
      </trkpt>
      <trkpt lat="49.82936" lon="2.52004">
        <ele>61.2</ele>
        <time>2021-11-21T13:58:11Z</time>
      </trkpt>
      <trkpt lat="49.82936" lon="2.52005">
        <ele>61.1</ele>
        <time>2021-11-21T13:58:12Z</time>
      </trkpt>
      <trkpt lat="49.82935" lon="2.52008">
        <ele>61</ele>
        <time>2021-11-21T13:58:14Z</time>
      </trkpt>
      <trkpt lat="49.82934" lon="2.52011">
        <ele>60.9</ele>
        <time>2021-11-21T13:58:16Z</time>
      </trkpt>
      <trkpt lat="49.82933" lon="2.52014">
        <ele>60.8</ele>
        <time>2021-11-21T13:58:18Z</time>
      </trkpt>
      <trkpt lat="49.82933" lon="2.52016">
        <ele>60.7</ele>
        <time>2021-11-21T13:58:19Z</time>
      </trkpt>
      <trkpt lat="49.82932" lon="2.52017">
        <ele>60.6</ele>
        <time>2021-11-21T13:58:20Z</time>
      </trkpt>
      <trkpt lat="49.82931" lon="2.5202">
        <ele>60.5</ele>
        <time>2021-11-21T13:58:22Z</time>
      </trkpt>
      <trkpt lat="49.8293" lon="2.52023">
        <ele>60.4</ele>
        <time>2021-11-21T13:58:24Z</time>
      </trkpt>
      <trkpt lat="49.8293" lon="2.52024">
        <ele>60.4</ele>
        <time>2021-11-21T13:58:25Z</time>
      </trkpt>
      <trkpt lat="49.82929" lon="2.52027">
        <ele>60.3</ele>
        <time>2021-11-21T13:58:27Z</time>
      </trkpt>
      <trkpt lat="49.82929" lon="2.52029">
        <ele>60.2</ele>
        <time>2021-11-21T13:58:28Z</time>
      </trkpt>
      <trkpt lat="49.82928" lon="2.5203">
        <ele>60.2</ele>
        <time>2021-11-21T13:58:29Z</time>
      </trkpt>
      <trkpt lat="49.82927" lon="2.52034">
        <ele>60</ele>
        <time>2021-11-21T13:58:31Z</time>
      </trkpt>
      <trkpt lat="49.82927" lon="2.52036">
        <ele>60</ele>
        <time>2021-11-21T13:58:32Z</time>
      </trkpt>
      <trkpt lat="49.82926" lon="2.52038">
        <ele>59.9</ele>
        <time>2021-11-21T13:58:34Z</time>
      </trkpt>
      <trkpt lat="49.82925" lon="2.52041">
        <ele>59.8</ele>
        <time>2021-11-21T13:58:36Z</time>
      </trkpt>
      <trkpt lat="49.82925" lon="2.52042">
        <ele>59.8</ele>
        <time>2021-11-21T13:58:37Z</time>
      </trkpt>
      <trkpt lat="49.82924" lon="2.52046">
        <ele>59.7</ele>
        <time>2021-11-21T13:58:39Z</time>
      </trkpt>
      <trkpt lat="49.82924" lon="2.52048">
        <ele>59.6</ele>
        <time>2021-11-21T13:58:40Z</time>
      </trkpt>
      <trkpt lat="49.82922" lon="2.52052">
        <ele>59.5</ele>
        <time>2021-11-21T13:58:42Z</time>
      </trkpt>
      <trkpt lat="49.82922" lon="2.52053">
        <ele>59.5</ele>
        <time>2021-11-21T13:58:43Z</time>
      </trkpt>
      <trkpt lat="49.82921" lon="2.52054">
        <ele>59.4</ele>
        <time>2021-11-21T13:58:44Z</time>
      </trkpt>
      <trkpt lat="49.82921" lon="2.52057">
        <ele>59.3</ele>
        <time>2021-11-21T13:58:46Z</time>
      </trkpt>
      <trkpt lat="49.8292" lon="2.52057">
        <ele>59.3</ele>
        <time>2021-11-21T13:58:47Z</time>
      </trkpt>
      <trkpt lat="49.82919" lon="2.52059">
        <ele>59.2</ele>
        <time>2021-11-21T13:58:49Z</time>
      </trkpt>
      <trkpt lat="49.82919" lon="2.52061">
        <ele>59.2</ele>
        <time>2021-11-21T13:58:51Z</time>
      </trkpt>
      <trkpt lat="49.82918" lon="2.52064">
        <ele>59.1</ele>
        <time>2021-11-21T13:58:53Z</time>
      </trkpt>
      <trkpt lat="49.82917" lon="2.52066">
        <ele>59</ele>
        <time>2021-11-21T13:58:55Z</time>
      </trkpt>
      <trkpt lat="49.82916" lon="2.52069">
        <ele>58.9</ele>
        <time>2021-11-21T13:58:57Z</time>
      </trkpt>
      <trkpt lat="49.82916" lon="2.52072">
        <ele>58.9</ele>
        <time>2021-11-21T13:58:59Z</time>
      </trkpt>
      <trkpt lat="49.82915" lon="2.52074">
        <ele>58.8</ele>
        <time>2021-11-21T13:59:01Z</time>
      </trkpt>
      <trkpt lat="49.82914" lon="2.52076">
        <ele>58.7</ele>
        <time>2021-11-21T13:59:03Z</time>
      </trkpt>
      <trkpt lat="49.82914" lon="2.52077">
        <ele>58.7</ele>
        <time>2021-11-21T13:59:04Z</time>
      </trkpt>
      <trkpt lat="49.82913" lon="2.52079">
        <ele>58.6</ele>
        <time>2021-11-21T13:59:06Z</time>
      </trkpt>
      <trkpt lat="49.82913" lon="2.52082">
        <ele>58.6</ele>
        <time>2021-11-21T13:59:08Z</time>
      </trkpt>
      <trkpt lat="49.82912" lon="2.52083">
        <ele>58.5</ele>
        <time>2021-11-21T13:59:09Z</time>
      </trkpt>
      <trkpt lat="49.82911" lon="2.52086">
        <ele>58.4</ele>
        <time>2021-11-21T13:59:11Z</time>
      </trkpt>
      <trkpt lat="49.82911" lon="2.52088">
        <ele>58.4</ele>
        <time>2021-11-21T13:59:12Z</time>
      </trkpt>
      <trkpt lat="49.82911" lon="2.52089">
        <ele>58.3</ele>
        <time>2021-11-21T13:59:13Z</time>
      </trkpt>
      <trkpt lat="49.8291" lon="2.52091">
        <ele>58.3</ele>
        <time>2021-11-21T13:59:15Z</time>
      </trkpt>
      <trkpt lat="49.8291" lon="2.52093">
        <ele>58.2</ele>
        <time>2021-11-21T13:59:16Z</time>
      </trkpt>
      <trkpt lat="49.82909" lon="2.52095">
        <ele>58.1</ele>
        <time>2021-11-21T13:59:18Z</time>
      </trkpt>
      <trkpt lat="49.82908" lon="2.52097">
        <ele>58.1</ele>
        <time>2021-11-21T13:59:19Z</time>
      </trkpt>
      <trkpt lat="49.82908" lon="2.52098">
        <ele>58</ele>
        <time>2021-11-21T13:59:20Z</time>
      </trkpt>
      <trkpt lat="49.82906" lon="2.52101">
        <ele>57.9</ele>
        <time>2021-11-21T13:59:22Z</time>
      </trkpt>
      <trkpt lat="49.82905" lon="2.52103">
        <ele>57.9</ele>
        <time>2021-11-21T13:59:24Z</time>
      </trkpt>
      <trkpt lat="49.82905" lon="2.52104">
        <ele>57.8</ele>
        <time>2021-11-21T13:59:25Z</time>
      </trkpt>
      <trkpt lat="49.82904" lon="2.52107">
        <ele>57.8</ele>
        <time>2021-11-21T13:59:27Z</time>
      </trkpt>
      <trkpt lat="49.82903" lon="2.5211">
        <ele>57.7</ele>
        <time>2021-11-21T13:59:29Z</time>
      </trkpt>
      <trkpt lat="49.82902" lon="2.52113">
        <ele>57.6</ele>
        <time>2021-11-21T13:59:31Z</time>
      </trkpt>
      <trkpt lat="49.82901" lon="2.52117">
        <ele>57.5</ele>
        <time>2021-11-21T13:59:33Z</time>
      </trkpt>
      <trkpt lat="49.82901" lon="2.52118">
        <ele>57.4</ele>
        <time>2021-11-21T13:59:34Z</time>
      </trkpt>
      <trkpt lat="49.829" lon="2.52119">
        <ele>57.4</ele>
        <time>2021-11-21T13:59:35Z</time>
      </trkpt>
      <trkpt lat="49.829" lon="2.52122">
        <ele>57.3</ele>
        <time>2021-11-21T13:59:37Z</time>
      </trkpt>
      <trkpt lat="49.82899" lon="2.52125">
        <ele>57.3</ele>
        <time>2021-11-21T13:59:39Z</time>
      </trkpt>
      <trkpt lat="49.82899" lon="2.52128">
        <ele>57.2</ele>
        <time>2021-11-21T13:59:41Z</time>
      </trkpt>
      <trkpt lat="49.82899" lon="2.52129">
        <ele>57.1</ele>
        <time>2021-11-21T13:59:42Z</time>
      </trkpt>
      <trkpt lat="49.82898" lon="2.52132">
        <ele>57.1</ele>
        <time>2021-11-21T13:59:44Z</time>
      </trkpt>
      <trkpt lat="49.82897" lon="2.52135">
        <ele>57</ele>
        <time>2021-11-21T13:59:46Z</time>
      </trkpt>
      <trkpt lat="49.82897" lon="2.52136">
        <ele>56.9</ele>
        <time>2021-11-21T13:59:47Z</time>
      </trkpt>
      <trkpt lat="49.82896" lon="2.52139">
        <ele>56.8</ele>
        <time>2021-11-21T13:59:49Z</time>
      </trkpt>
      <trkpt lat="49.82896" lon="2.52141">
        <ele>56.8</ele>
        <time>2021-11-21T13:59:50Z</time>
      </trkpt>
      <trkpt lat="49.82895" lon="2.52145">
        <ele>56.7</ele>
        <time>2021-11-21T13:59:52Z</time>
      </trkpt>
      <trkpt lat="49.82895" lon="2.52146">
        <ele>56.7</ele>
        <time>2021-11-21T13:59:53Z</time>
      </trkpt>
      <trkpt lat="49.82894" lon="2.52148">
        <ele>56.6</ele>
        <time>2021-11-21T13:59:55Z</time>
      </trkpt>
      <trkpt lat="49.82894" lon="2.5215">
        <ele>56.6</ele>
        <time>2021-11-21T13:59:56Z</time>
      </trkpt>
      <trkpt lat="49.82894" lon="2.52151">
        <ele>56.5</ele>
        <time>2021-11-21T13:59:57Z</time>
      </trkpt>
      <trkpt lat="49.82894" lon="2.52154">
        <ele>56.4</ele>
        <time>2021-11-21T13:59:59Z</time>
      </trkpt>
      <trkpt lat="49.82893" lon="2.52157">
        <ele>56.4</ele>
        <time>2021-11-21T14:00:00Z</time>
      </trkpt>
      <trkpt lat="49.82893" lon="2.5216">
        <ele>56.3</ele>
        <time>2021-11-21T14:00:02Z</time>
      </trkpt>
      <trkpt lat="49.82893" lon="2.52161">
        <ele>56.3</ele>
        <time>2021-11-21T14:00:03Z</time>
      </trkpt>
      <trkpt lat="49.82893" lon="2.52163">
        <ele>56.2</ele>
        <time>2021-11-21T14:00:04Z</time>
      </trkpt>
      <trkpt lat="49.82893" lon="2.52165">
        <ele>56.1</ele>
        <time>2021-11-21T14:00:06Z</time>
      </trkpt>
      <trkpt lat="49.82892" lon="2.52167">
        <ele>56.1</ele>
        <time>2021-11-21T14:00:07Z</time>
      </trkpt>
      <trkpt lat="49.82892" lon="2.5217">
        <ele>56</ele>
        <time>2021-11-21T14:00:09Z</time>
      </trkpt>
      <trkpt lat="49.82892" lon="2.52173">
        <ele>55.9</ele>
        <time>2021-11-21T14:00:11Z</time>
      </trkpt>
      <trkpt lat="49.82892" lon="2.52177">
        <ele>55.8</ele>
        <time>2021-11-21T14:00:13Z</time>
      </trkpt>
      <trkpt lat="49.82891" lon="2.5218">
        <ele>55.8</ele>
        <time>2021-11-21T14:00:15Z</time>
      </trkpt>
      <trkpt lat="49.82891" lon="2.52181">
        <ele>55.7</ele>
        <time>2021-11-21T14:00:16Z</time>
      </trkpt>
      <trkpt lat="49.82891" lon="2.52183">
        <ele>55.7</ele>
        <time>2021-11-21T14:00:18Z</time>
      </trkpt>
      <trkpt lat="49.82891" lon="2.52187">
        <ele>55.6</ele>
        <time>2021-11-21T14:00:20Z</time>
      </trkpt>
      <trkpt lat="49.82891" lon="2.5219">
        <ele>55.5</ele>
        <time>2021-11-21T14:00:22Z</time>
      </trkpt>
      <trkpt lat="49.82891" lon="2.52191">
        <ele>55.5</ele>
        <time>2021-11-21T14:00:23Z</time>
      </trkpt>
      <trkpt lat="49.8289" lon="2.52195">
        <ele>55.4</ele>
        <time>2021-11-21T14:00:25Z</time>
      </trkpt>
      <trkpt lat="49.8289" lon="2.52196">
        <ele>55.4</ele>
        <time>2021-11-21T14:00:26Z</time>
      </trkpt>
      <trkpt lat="49.8289" lon="2.52199">
        <ele>55.3</ele>
        <time>2021-11-21T14:00:28Z</time>
      </trkpt>
      <trkpt lat="49.8289" lon="2.52201">
        <ele>55.3</ele>
        <time>2021-11-21T14:00:29Z</time>
      </trkpt>
      <trkpt lat="49.8289" lon="2.52203">
        <ele>55.2</ele>
        <time>2021-11-21T14:00:31Z</time>
      </trkpt>
      <trkpt lat="49.82889" lon="2.52207">
        <ele>55.2</ele>
        <time>2021-11-21T14:00:33Z</time>
      </trkpt>
      <trkpt lat="49.82889" lon="2.52209">
        <ele>55.1</ele>
        <time>2021-11-21T14:00:34Z</time>
      </trkpt>
      <trkpt lat="49.82889" lon="2.5221">
        <ele>55.1</ele>
        <time>2021-11-21T14:00:35Z</time>
      </trkpt>
      <trkpt lat="49.82888" lon="2.52214">
        <ele>55</ele>
        <time>2021-11-21T14:00:37Z</time>
      </trkpt>
      <trkpt lat="49.82888" lon="2.52217">
        <ele>55</ele>
        <time>2021-11-21T14:00:39Z</time>
      </trkpt>
      <trkpt lat="49.82888" lon="2.52219">
        <ele>55</ele>
        <time>2021-11-21T14:00:41Z</time>
      </trkpt>
      <trkpt lat="49.82888" lon="2.5222">
        <ele>54.9</ele>
        <time>2021-11-21T14:00:42Z</time>
      </trkpt>
      <trkpt lat="49.82889" lon="2.52222">
        <ele>54.9</ele>
        <time>2021-11-21T14:00:44Z</time>
      </trkpt>
      <trkpt lat="49.8289" lon="2.52222">
        <ele>54.9</ele>
        <time>2021-11-21T14:00:46Z</time>
      </trkpt>
      <trkpt lat="49.8289" lon="2.52222">
        <ele>54.9</ele>
        <time>2021-11-21T14:00:48Z</time>
      </trkpt>
      <trkpt lat="49.8289" lon="2.52223">
        <ele>54.9</ele>
        <time>2021-11-21T14:00:50Z</time>
      </trkpt>
      <trkpt lat="49.8289" lon="2.52223">
        <ele>54.9</ele>
        <time>2021-11-21T14:00:51Z</time>
      </trkpt>
      <trkpt lat="49.82889" lon="2.52224">
        <ele>54.8</ele>
        <time>2021-11-21T14:00:53Z</time>
      </trkpt>
      <trkpt lat="49.82888" lon="2.52223">
        <ele>54.8</ele>
        <time>2021-11-21T14:00:55Z</time>
      </trkpt>
      <trkpt lat="49.82888" lon="2.52223">
        <ele>54.8</ele>
        <time>2021-11-21T14:00:56Z</time>
      </trkpt>
      <trkpt lat="49.82887" lon="2.52223">
        <ele>54.8</ele>
        <time>2021-11-21T14:00:58Z</time>
      </trkpt>
      <trkpt lat="49.82887" lon="2.52223">
        <ele>54.8</ele>
        <time>2021-11-21T14:00:59Z</time>
      </trkpt>
      <trkpt lat="49.82887" lon="2.52223">
        <ele>54.8</ele>
        <time>2021-11-21T14:01:00Z</time>
      </trkpt>
      <trkpt lat="49.82887" lon="2.52222">
        <ele>54.8</ele>
        <time>2021-11-21T14:01:02Z</time>
      </trkpt>
      <trkpt lat="49.82887" lon="2.52222">
        <ele>54.7</ele>
        <time>2021-11-21T14:01:03Z</time>
      </trkpt>
      <trkpt lat="49.82886" lon="2.52223">
        <ele>54.7</ele>
        <time>2021-11-21T14:01:04Z</time>
      </trkpt>
      <trkpt lat="49.82885" lon="2.52225">
        <ele>54.7</ele>
        <time>2021-11-21T14:01:06Z</time>
      </trkpt>
      <trkpt lat="49.82884" lon="2.52228">
        <ele>54.6</ele>
        <time>2021-11-21T14:01:08Z</time>
      </trkpt>
      <trkpt lat="49.82884" lon="2.52229">
        <ele>54.6</ele>
        <time>2021-11-21T14:01:09Z</time>
      </trkpt>
      <trkpt lat="49.82884" lon="2.52231">
        <ele>54.6</ele>
        <time>2021-11-21T14:01:10Z</time>
      </trkpt>
      <trkpt lat="49.82883" lon="2.52234">
        <ele>54.6</ele>
        <time>2021-11-21T14:01:12Z</time>
      </trkpt>
      <trkpt lat="49.82882" lon="2.52239">
        <ele>54.5</ele>
        <time>2021-11-21T14:01:14Z</time>
      </trkpt>
      <trkpt lat="49.82882" lon="2.5224">
        <ele>54.5</ele>
        <time>2021-11-21T14:01:15Z</time>
      </trkpt>
      <trkpt lat="49.82881" lon="2.52242">
        <ele>54.4</ele>
        <time>2021-11-21T14:01:16Z</time>
      </trkpt>
      <trkpt lat="49.82881" lon="2.52245">
        <ele>54.4</ele>
        <time>2021-11-21T14:01:18Z</time>
      </trkpt>
      <trkpt lat="49.8288" lon="2.52246">
        <ele>54.4</ele>
        <time>2021-11-21T14:01:19Z</time>
      </trkpt>
      <trkpt lat="49.82879" lon="2.5225">
        <ele>54.3</ele>
        <time>2021-11-21T14:01:21Z</time>
      </trkpt>
      <trkpt lat="49.82878" lon="2.52253">
        <ele>54.3</ele>
        <time>2021-11-21T14:01:23Z</time>
      </trkpt>
      <trkpt lat="49.82878" lon="2.52254">
        <ele>54.3</ele>
        <time>2021-11-21T14:01:24Z</time>
      </trkpt>
      <trkpt lat="49.82877" lon="2.52255">
        <ele>54.2</ele>
        <time>2021-11-21T14:01:25Z</time>
      </trkpt>
      <trkpt lat="49.82876" lon="2.52259">
        <ele>54.2</ele>
        <time>2021-11-21T14:01:27Z</time>
      </trkpt>
      <trkpt lat="49.82876" lon="2.52261">
        <ele>54.1</ele>
        <time>2021-11-21T14:01:29Z</time>
      </trkpt>
      <trkpt lat="49.82875" lon="2.52262">
        <ele>54.1</ele>
        <time>2021-11-21T14:01:30Z</time>
      </trkpt>
      <trkpt lat="49.82874" lon="2.52265">
        <ele>54.1</ele>
        <time>2021-11-21T14:01:32Z</time>
      </trkpt>
      <trkpt lat="49.82874" lon="2.52267">
        <ele>54.1</ele>
        <time>2021-11-21T14:01:33Z</time>
      </trkpt>
      <trkpt lat="49.82873" lon="2.52271">
        <ele>54</ele>
        <time>2021-11-21T14:01:35Z</time>
      </trkpt>
      <trkpt lat="49.82873" lon="2.52272">
        <ele>54</ele>
        <time>2021-11-21T14:01:36Z</time>
      </trkpt>
      <trkpt lat="49.82872" lon="2.52276">
        <ele>53.9</ele>
        <time>2021-11-21T14:01:38Z</time>
      </trkpt>
      <trkpt lat="49.82872" lon="2.52277">
        <ele>53.9</ele>
        <time>2021-11-21T14:01:39Z</time>
      </trkpt>
      <trkpt lat="49.82872" lon="2.52279">
        <ele>53.9</ele>
        <time>2021-11-21T14:01:40Z</time>
      </trkpt>
      <trkpt lat="49.82871" lon="2.5228">
        <ele>53.9</ele>
        <time>2021-11-21T14:01:42Z</time>
      </trkpt>
      <trkpt lat="49.82871" lon="2.52281">
        <ele>53.9</ele>
        <time>2021-11-21T14:01:43Z</time>
      </trkpt>
      <trkpt lat="49.82871" lon="2.52282">
        <ele>53.8</ele>
        <time>2021-11-21T14:01:45Z</time>
      </trkpt>
      <trkpt lat="49.82871" lon="2.52282">
        <ele>53.8</ele>
        <time>2021-11-21T14:01:46Z</time>
      </trkpt>
      <trkpt lat="49.82871" lon="2.52283">
        <ele>53.8</ele>
        <time>2021-11-21T14:01:48Z</time>
      </trkpt>
      <trkpt lat="49.82871" lon="2.52284">
        <ele>53.8</ele>
        <time>2021-11-21T14:01:49Z</time>
      </trkpt>
      <trkpt lat="49.82871" lon="2.52284">
        <ele>53.8</ele>
        <time>2021-11-21T14:01:51Z</time>
      </trkpt>
      <trkpt lat="49.82871" lon="2.52285">
        <ele>53.8</ele>
        <time>2021-11-21T14:01:52Z</time>
      </trkpt>
      <trkpt lat="49.8287" lon="2.52287">
        <ele>53.8</ele>
        <time>2021-11-21T14:01:54Z</time>
      </trkpt>
      <trkpt lat="49.8287" lon="2.52288">
        <ele>53.8</ele>
        <time>2021-11-21T14:01:55Z</time>
      </trkpt>
      <trkpt lat="49.8287" lon="2.5229">
        <ele>53.7</ele>
        <time>2021-11-21T14:01:57Z</time>
      </trkpt>
      <trkpt lat="49.82869" lon="2.52292">
        <ele>53.7</ele>
        <time>2021-11-21T14:01:59Z</time>
      </trkpt>
      <trkpt lat="49.82869" lon="2.52294">
        <ele>53.7</ele>
        <time>2021-11-21T14:02:00Z</time>
      </trkpt>
      <trkpt lat="49.82868" lon="2.52296">
        <ele>53.7</ele>
        <time>2021-11-21T14:02:02Z</time>
      </trkpt>
      <trkpt lat="49.82867" lon="2.52298">
        <ele>53.6</ele>
        <time>2021-11-21T14:02:04Z</time>
      </trkpt>
      <trkpt lat="49.82866" lon="2.52301">
        <ele>53.6</ele>
        <time>2021-11-21T14:02:06Z</time>
      </trkpt>
      <trkpt lat="49.82866" lon="2.52303">
        <ele>53.6</ele>
        <time>2021-11-21T14:02:07Z</time>
      </trkpt>
      <trkpt lat="49.82865" lon="2.52306">
        <ele>53.5</ele>
        <time>2021-11-21T14:02:09Z</time>
      </trkpt>
      <trkpt lat="49.82865" lon="2.52307">
        <ele>53.5</ele>
        <time>2021-11-21T14:02:11Z</time>
      </trkpt>
      <trkpt lat="49.82863" lon="2.5231">
        <ele>53.5</ele>
        <time>2021-11-21T14:02:13Z</time>
      </trkpt>
      <trkpt lat="49.82863" lon="2.52312">
        <ele>53.4</ele>
        <time>2021-11-21T14:02:14Z</time>
      </trkpt>
      <trkpt lat="49.82862" lon="2.52313">
        <ele>53.4</ele>
        <time>2021-11-21T14:02:15Z</time>
      </trkpt>
      <trkpt lat="49.82861" lon="2.52317">
        <ele>53.4</ele>
        <time>2021-11-21T14:02:17Z</time>
      </trkpt>
      <trkpt lat="49.82861" lon="2.5232">
        <ele>53.4</ele>
        <time>2021-11-21T14:02:19Z</time>
      </trkpt>
      <trkpt lat="49.8286" lon="2.52321">
        <ele>53.4</ele>
        <time>2021-11-21T14:02:20Z</time>
      </trkpt>
      <trkpt lat="49.82859" lon="2.52324">
        <ele>53.3</ele>
        <time>2021-11-21T14:02:22Z</time>
      </trkpt>
      <trkpt lat="49.82859" lon="2.52325">
        <ele>53.3</ele>
        <time>2021-11-21T14:02:23Z</time>
      </trkpt>
      <trkpt lat="49.82858" lon="2.52327">
        <ele>53.3</ele>
        <time>2021-11-21T14:02:24Z</time>
      </trkpt>
      <trkpt lat="49.82857" lon="2.52329">
        <ele>53.3</ele>
        <time>2021-11-21T14:02:26Z</time>
      </trkpt>
      <trkpt lat="49.82856" lon="2.52329">
        <ele>53.2</ele>
        <time>2021-11-21T14:02:27Z</time>
      </trkpt>
      <trkpt lat="49.82855" lon="2.5233">
        <ele>53.2</ele>
        <time>2021-11-21T14:02:29Z</time>
      </trkpt>
      <trkpt lat="49.82855" lon="2.52331">
        <ele>53.2</ele>
        <time>2021-11-21T14:02:31Z</time>
      </trkpt>
      <trkpt lat="49.82854" lon="2.52333">
        <ele>53.2</ele>
        <time>2021-11-21T14:02:33Z</time>
      </trkpt>
      <trkpt lat="49.82854" lon="2.52335">
        <ele>53.1</ele>
        <time>2021-11-21T14:02:35Z</time>
      </trkpt>
      <trkpt lat="49.82854" lon="2.52336">
        <ele>53.1</ele>
        <time>2021-11-21T14:02:36Z</time>
      </trkpt>
      <trkpt lat="49.82853" lon="2.52339">
        <ele>53</ele>
        <time>2021-11-21T14:02:38Z</time>
      </trkpt>
      <trkpt lat="49.82853" lon="2.52339">
        <ele>53</ele>
        <time>2021-11-21T14:02:39Z</time>
      </trkpt>
      <trkpt lat="49.82853" lon="2.52342">
        <ele>53</ele>
        <time>2021-11-21T14:02:41Z</time>
      </trkpt>
      <trkpt lat="49.82852" lon="2.52344">
        <ele>52.9</ele>
        <time>2021-11-21T14:02:43Z</time>
      </trkpt>
      <trkpt lat="49.82852" lon="2.52346">
        <ele>52.9</ele>
        <time>2021-11-21T14:02:44Z</time>
      </trkpt>
      <trkpt lat="49.82851" lon="2.52348">
        <ele>52.8</ele>
        <time>2021-11-21T14:02:45Z</time>
      </trkpt>
      <trkpt lat="49.82851" lon="2.52351">
        <ele>52.8</ele>
        <time>2021-11-21T14:02:47Z</time>
      </trkpt>
      <trkpt lat="49.8285" lon="2.52353">
        <ele>52.7</ele>
        <time>2021-11-21T14:02:49Z</time>
      </trkpt>
      <trkpt lat="49.8285" lon="2.52355">
        <ele>52.7</ele>
        <time>2021-11-21T14:02:50Z</time>
      </trkpt>
      <trkpt lat="49.82849" lon="2.52356">
        <ele>52.7</ele>
        <time>2021-11-21T14:02:51Z</time>
      </trkpt>
      <trkpt lat="49.82849" lon="2.52359">
        <ele>52.6</ele>
        <time>2021-11-21T14:02:53Z</time>
      </trkpt>
      <trkpt lat="49.82849" lon="2.52361">
        <ele>52.6</ele>
        <time>2021-11-21T14:02:54Z</time>
      </trkpt>
      <trkpt lat="49.82848" lon="2.52364">
        <ele>52.5</ele>
        <time>2021-11-21T14:02:56Z</time>
      </trkpt>
      <trkpt lat="49.82848" lon="2.52367">
        <ele>52.5</ele>
        <time>2021-11-21T14:02:58Z</time>
      </trkpt>
      <trkpt lat="49.82848" lon="2.52368">
        <ele>52.4</ele>
        <time>2021-11-21T14:02:59Z</time>
      </trkpt>
      <trkpt lat="49.82848" lon="2.52371">
        <ele>52.4</ele>
        <time>2021-11-21T14:03:01Z</time>
      </trkpt>
      <trkpt lat="49.82847" lon="2.52374">
        <ele>52.3</ele>
        <time>2021-11-21T14:03:03Z</time>
      </trkpt>
      <trkpt lat="49.82847" lon="2.52378">
        <ele>52.3</ele>
        <time>2021-11-21T14:03:05Z</time>
      </trkpt>
      <trkpt lat="49.82847" lon="2.52381">
        <ele>52.2</ele>
        <time>2021-11-21T14:03:07Z</time>
      </trkpt>
      <trkpt lat="49.82847" lon="2.52384">
        <ele>52.2</ele>
        <time>2021-11-21T14:03:09Z</time>
      </trkpt>
      <trkpt lat="49.82847" lon="2.52386">
        <ele>52.2</ele>
        <time>2021-11-21T14:03:10Z</time>
      </trkpt>
      <trkpt lat="49.82847" lon="2.5239">
        <ele>52.1</ele>
        <time>2021-11-21T14:03:12Z</time>
      </trkpt>
      <trkpt lat="49.82847" lon="2.52394">
        <ele>52</ele>
        <time>2021-11-21T14:03:14Z</time>
      </trkpt>
      <trkpt lat="49.82847" lon="2.52395">
        <ele>52</ele>
        <time>2021-11-21T14:03:15Z</time>
      </trkpt>
      <trkpt lat="49.82847" lon="2.52396">
        <ele>52</ele>
        <time>2021-11-21T14:03:16Z</time>
      </trkpt>
      <trkpt lat="49.82847" lon="2.52399">
        <ele>52</ele>
        <time>2021-11-21T14:03:18Z</time>
      </trkpt>
      <trkpt lat="49.82847" lon="2.52401">
        <ele>51.9</ele>
        <time>2021-11-21T14:03:19Z</time>
      </trkpt>
      <trkpt lat="49.82847" lon="2.52404">
        <ele>51.9</ele>
        <time>2021-11-21T14:03:21Z</time>
      </trkpt>
      <trkpt lat="49.82847" lon="2.52406">
        <ele>51.9</ele>
        <time>2021-11-21T14:03:22Z</time>
      </trkpt>
      <trkpt lat="49.82848" lon="2.52409">
        <ele>51.8</ele>
        <time>2021-11-21T14:03:24Z</time>
      </trkpt>
      <trkpt lat="49.82848" lon="2.52411">
        <ele>51.8</ele>
        <time>2021-11-21T14:03:26Z</time>
      </trkpt>
      <trkpt lat="49.82848" lon="2.52413">
        <ele>51.8</ele>
        <time>2021-11-21T14:03:27Z</time>
      </trkpt>
      <trkpt lat="49.82848" lon="2.52416">
        <ele>51.7</ele>
        <time>2021-11-21T14:03:29Z</time>
      </trkpt>
      <trkpt lat="49.82848" lon="2.52417">
        <ele>51.7</ele>
        <time>2021-11-21T14:03:30Z</time>
      </trkpt>
      <trkpt lat="49.82848" lon="2.5242">
        <ele>51.7</ele>
        <time>2021-11-21T14:03:32Z</time>
      </trkpt>
      <trkpt lat="49.82848" lon="2.52421">
        <ele>51.7</ele>
        <time>2021-11-21T14:03:33Z</time>
      </trkpt>
      <trkpt lat="49.82849" lon="2.52424">
        <ele>51.7</ele>
        <time>2021-11-21T14:03:35Z</time>
      </trkpt>
      <trkpt lat="49.82849" lon="2.52427">
        <ele>51.6</ele>
        <time>2021-11-21T14:03:37Z</time>
      </trkpt>
      <trkpt lat="49.82848" lon="2.52429">
        <ele>51.6</ele>
        <time>2021-11-21T14:03:39Z</time>
      </trkpt>
      <trkpt lat="49.82847" lon="2.52431">
        <ele>51.6</ele>
        <time>2021-11-21T14:03:40Z</time>
      </trkpt>
      <trkpt lat="49.82846" lon="2.52433">
        <ele>51.6</ele>
        <time>2021-11-21T14:03:42Z</time>
      </trkpt>
      <trkpt lat="49.82845" lon="2.52434">
        <ele>51.6</ele>
        <time>2021-11-21T14:03:44Z</time>
      </trkpt>
      <trkpt lat="49.82845" lon="2.52434">
        <ele>51.6</ele>
        <time>2021-11-21T14:03:45Z</time>
      </trkpt>
      <trkpt lat="49.82845" lon="2.52433">
        <ele>51.6</ele>
        <time>2021-11-21T14:03:47Z</time>
      </trkpt>
      <trkpt lat="49.82845" lon="2.52433">
        <ele>51.6</ele>
        <time>2021-11-21T14:03:48Z</time>
      </trkpt>
      <trkpt lat="49.82845" lon="2.52433">
        <ele>51.5</ele>
        <time>2021-11-21T14:03:50Z</time>
      </trkpt>
      <trkpt lat="49.82846" lon="2.52433">
        <ele>51.5</ele>
        <time>2021-11-21T14:03:51Z</time>
      </trkpt>
      <trkpt lat="49.82846" lon="2.52434">
        <ele>51.5</ele>
        <time>2021-11-21T14:03:52Z</time>
      </trkpt>
      <trkpt lat="49.82847" lon="2.52434">
        <ele>51.5</ele>
        <time>2021-11-21T14:03:53Z</time>
      </trkpt>
      <trkpt lat="49.82847" lon="2.52435">
        <ele>51.5</ele>
        <time>2021-11-21T14:03:54Z</time>
      </trkpt>
      <trkpt lat="49.82848" lon="2.52436">
        <ele>51.5</ele>
        <time>2021-11-21T14:03:55Z</time>
      </trkpt>
      <trkpt lat="49.82848" lon="2.52438">
        <ele>51.5</ele>
        <time>2021-11-21T14:03:57Z</time>
      </trkpt>
      <trkpt lat="49.82847" lon="2.52441">
        <ele>51.5</ele>
        <time>2021-11-21T14:03:59Z</time>
      </trkpt>
      <trkpt lat="49.82847" lon="2.52442">
        <ele>51.5</ele>
        <time>2021-11-21T14:04:00Z</time>
      </trkpt>
      <trkpt lat="49.82847" lon="2.52444">
        <ele>51.5</ele>
        <time>2021-11-21T14:04:02Z</time>
      </trkpt>
      <trkpt lat="49.82847" lon="2.52445">
        <ele>51.4</ele>
        <time>2021-11-21T14:04:03Z</time>
      </trkpt>
      <trkpt lat="49.82847" lon="2.52447">
        <ele>51.4</ele>
        <time>2021-11-21T14:04:04Z</time>
      </trkpt>
      <trkpt lat="49.82848" lon="2.52449">
        <ele>51.4</ele>
        <time>2021-11-21T14:04:06Z</time>
      </trkpt>
      <trkpt lat="49.82848" lon="2.5245">
        <ele>51.4</ele>
        <time>2021-11-21T14:04:07Z</time>
      </trkpt>
      <trkpt lat="49.82848" lon="2.52453">
        <ele>51.4</ele>
        <time>2021-11-21T14:04:09Z</time>
      </trkpt>
      <trkpt lat="49.82849" lon="2.52455">
        <ele>51.4</ele>
        <time>2021-11-21T14:04:10Z</time>
      </trkpt>
      <trkpt lat="49.82849" lon="2.52456">
        <ele>51.4</ele>
        <time>2021-11-21T14:04:11Z</time>
      </trkpt>
      <trkpt lat="49.82849" lon="2.52458">
        <ele>51.4</ele>
        <time>2021-11-21T14:04:13Z</time>
      </trkpt>
      <trkpt lat="49.82849" lon="2.5246">
        <ele>51.4</ele>
        <time>2021-11-21T14:04:14Z</time>
      </trkpt>
      <trkpt lat="49.82849" lon="2.52461">
        <ele>51.3</ele>
        <time>2021-11-21T14:04:15Z</time>
      </trkpt>
      <trkpt lat="49.82849" lon="2.52463">
        <ele>51.3</ele>
        <time>2021-11-21T14:04:16Z</time>
      </trkpt>
      <trkpt lat="49.82849" lon="2.52465">
        <ele>51.3</ele>
        <time>2021-11-21T14:04:18Z</time>
      </trkpt>
      <trkpt lat="49.82849" lon="2.52466">
        <ele>51.6</ele>
        <time>2021-11-21T14:04:19Z</time>
      </trkpt>
      <trkpt lat="49.82849" lon="2.52468">
        <ele>51.6</ele>
        <time>2021-11-21T14:04:21Z</time>
      </trkpt>
      <trkpt lat="49.82849" lon="2.52468">
        <ele>51.6</ele>
        <time>2021-11-21T14:04:22Z</time>
      </trkpt>
      <trkpt lat="49.82849" lon="2.52469">
        <ele>51.7</ele>
        <time>2021-11-21T14:04:24Z</time>
      </trkpt>
      <trkpt lat="49.82849" lon="2.52469">
        <ele>51.7</ele>
        <time>2021-11-21T14:04:25Z</time>
      </trkpt>
      <trkpt lat="49.82848" lon="2.52472">
        <ele>51.8</ele>
        <time>2021-11-21T14:04:27Z</time>
      </trkpt>
      <trkpt lat="49.82848" lon="2.52472">
        <ele>51.8</ele>
        <time>2021-11-21T14:04:29Z</time>
      </trkpt>
      <trkpt lat="49.82848" lon="2.52473">
        <ele>51.8</ele>
        <time>2021-11-21T14:04:30Z</time>
      </trkpt>
      <trkpt lat="49.8285" lon="2.52474">
        <ele>51.9</ele>
        <time>2021-11-21T14:04:32Z</time>
      </trkpt>
      <trkpt lat="49.82851" lon="2.52474">
        <ele>51.9</ele>
        <time>2021-11-21T14:04:33Z</time>
      </trkpt>
      <trkpt lat="49.82852" lon="2.52474">
        <ele>52</ele>
        <time>2021-11-21T14:04:34Z</time>
      </trkpt>
      <trkpt lat="49.82854" lon="2.52474">
        <ele>52</ele>
        <time>2021-11-21T14:04:36Z</time>
      </trkpt>
      <trkpt lat="49.82854" lon="2.52473">
        <ele>52.1</ele>
        <time>2021-11-21T14:04:37Z</time>
      </trkpt>
      <trkpt lat="49.82855" lon="2.52471">
        <ele>52.2</ele>
        <time>2021-11-21T14:04:39Z</time>
      </trkpt>
      <trkpt lat="49.82856" lon="2.5247">
        <ele>52.2</ele>
        <time>2021-11-21T14:04:40Z</time>
      </trkpt>
      <trkpt lat="49.82856" lon="2.52469">
        <ele>52.2</ele>
        <time>2021-11-21T14:04:41Z</time>
      </trkpt>
      <trkpt lat="49.82857" lon="2.52467">
        <ele>52.3</ele>
        <time>2021-11-21T14:04:43Z</time>
      </trkpt>
      <trkpt lat="49.82859" lon="2.52466">
        <ele>52.4</ele>
        <time>2021-11-21T14:04:45Z</time>
      </trkpt>
      <trkpt lat="49.8286" lon="2.52467">
        <ele>52.5</ele>
        <time>2021-11-21T14:04:47Z</time>
      </trkpt>
      <trkpt lat="49.82861" lon="2.52465">
        <ele>52.6</ele>
        <time>2021-11-21T14:04:49Z</time>
      </trkpt>
      <trkpt lat="49.82862" lon="2.52464">
        <ele>52.6</ele>
        <time>2021-11-21T14:04:51Z</time>
      </trkpt>
      <trkpt lat="49.82862" lon="2.52463">
        <ele>52.7</ele>
        <time>2021-11-21T14:04:52Z</time>
      </trkpt>
      <trkpt lat="49.82862" lon="2.52462">
        <ele>52.7</ele>
        <time>2021-11-21T14:04:53Z</time>
      </trkpt>
      <trkpt lat="49.82863" lon="2.52461">
        <ele>52.7</ele>
        <time>2021-11-21T14:04:55Z</time>
      </trkpt>
      <trkpt lat="49.82864" lon="2.5246">
        <ele>52.8</ele>
        <time>2021-11-21T14:04:56Z</time>
      </trkpt>
      <trkpt lat="49.82864" lon="2.5246">
        <ele>52.8</ele>
        <time>2021-11-21T14:04:57Z</time>
      </trkpt>
      <trkpt lat="49.82865" lon="2.52459">
        <ele>52.8</ele>
        <time>2021-11-21T14:04:59Z</time>
      </trkpt>
      <trkpt lat="49.82865" lon="2.52459">
        <ele>52.9</ele>
        <time>2021-11-21T14:05:00Z</time>
      </trkpt>
      <trkpt lat="49.82865" lon="2.52457">
        <ele>52.9</ele>
        <time>2021-11-21T14:05:02Z</time>
      </trkpt>
      <trkpt lat="49.82866" lon="2.52456">
        <ele>53</ele>
        <time>2021-11-21T14:05:04Z</time>
      </trkpt>
      <trkpt lat="49.82866" lon="2.52456">
        <ele>53</ele>
        <time>2021-11-21T14:05:06Z</time>
      </trkpt>
      <trkpt lat="49.82867" lon="2.52454">
        <ele>53.1</ele>
        <time>2021-11-21T14:05:08Z</time>
      </trkpt>
      <trkpt lat="49.82868" lon="2.52454">
        <ele>53.1</ele>
        <time>2021-11-21T14:05:09Z</time>
      </trkpt>
      <trkpt lat="49.82869" lon="2.52452">
        <ele>53.2</ele>
        <time>2021-11-21T14:05:11Z</time>
      </trkpt>
      <trkpt lat="49.8287" lon="2.5245">
        <ele>53.3</ele>
        <time>2021-11-21T14:05:13Z</time>
      </trkpt>
      <trkpt lat="49.82871" lon="2.52448">
        <ele>53.3</ele>
        <time>2021-11-21T14:05:14Z</time>
      </trkpt>
      <trkpt lat="49.82872" lon="2.52446">
        <ele>53.4</ele>
        <time>2021-11-21T14:05:16Z</time>
      </trkpt>
      <trkpt lat="49.82873" lon="2.52445">
        <ele>53.5</ele>
        <time>2021-11-21T14:05:17Z</time>
      </trkpt>
      <trkpt lat="49.82875" lon="2.52443">
        <ele>53.6</ele>
        <time>2021-11-21T14:05:19Z</time>
      </trkpt>
      <trkpt lat="49.82875" lon="2.52441">
        <ele>53.6</ele>
        <time>2021-11-21T14:05:20Z</time>
      </trkpt>
      <trkpt lat="49.82876" lon="2.52439">
        <ele>53.7</ele>
        <time>2021-11-21T14:05:22Z</time>
      </trkpt>
      <trkpt lat="49.82876" lon="2.52438">
        <ele>53.8</ele>
        <time>2021-11-21T14:05:23Z</time>
      </trkpt>
      <trkpt lat="49.82876" lon="2.52436">
        <ele>53.8</ele>
        <time>2021-11-21T14:05:25Z</time>
      </trkpt>
      <trkpt lat="49.82876" lon="2.52436">
        <ele>53.8</ele>
        <time>2021-11-21T14:05:26Z</time>
      </trkpt>
      <trkpt lat="49.82876" lon="2.52436">
        <ele>53.8</ele>
        <time>2021-11-21T14:05:28Z</time>
      </trkpt>
      <trkpt lat="49.82876" lon="2.52436">
        <ele>53.8</ele>
        <time>2021-11-21T14:05:30Z</time>
      </trkpt>
      <trkpt lat="49.82876" lon="2.52436">
        <ele>53.8</ele>
        <time>2021-11-21T14:05:32Z</time>
      </trkpt>
      <trkpt lat="49.82876" lon="2.52436">
        <ele>53.8</ele>
        <time>2021-11-21T14:05:34Z</time>
      </trkpt>
      <trkpt lat="49.82876" lon="2.52436">
        <ele>53.8</ele>
        <time>2021-11-21T14:05:35Z</time>
      </trkpt>
      <trkpt lat="49.82876" lon="2.52436">
        <ele>53.8</ele>
        <time>2021-11-21T14:05:36Z</time>
      </trkpt>
      <trkpt lat="49.82876" lon="2.52436">
        <ele>53.8</ele>
        <time>2021-11-21T14:05:38Z</time>
      </trkpt>
      <trkpt lat="49.82876" lon="2.52437">
        <ele>53.8</ele>
        <time>2021-11-21T14:05:39Z</time>
      </trkpt>
      <trkpt lat="49.82876" lon="2.52437">
        <ele>53.8</ele>
        <time>2021-11-21T14:05:41Z</time>
      </trkpt>
      <trkpt lat="49.82876" lon="2.52437">
        <ele>53.8</ele>
        <time>2021-11-21T14:05:43Z</time>
      </trkpt>
      <trkpt lat="49.82876" lon="2.52437">
        <ele>53.8</ele>
        <time>2021-11-21T14:05:45Z</time>
      </trkpt>
      <trkpt lat="49.82876" lon="2.52437">
        <ele>53.8</ele>
        <time>2021-11-21T14:05:46Z</time>
      </trkpt>
      <trkpt lat="49.82876" lon="2.52437">
        <ele>53.9</ele>
        <time>2021-11-21T14:05:48Z</time>
      </trkpt>
      <trkpt lat="49.82876" lon="2.52437">
        <ele>53.9</ele>
        <time>2021-11-21T14:05:50Z</time>
      </trkpt>
      <trkpt lat="49.82876" lon="2.52437">
        <ele>53.9</ele>
        <time>2021-11-21T14:05:51Z</time>
      </trkpt>
      <trkpt lat="49.82876" lon="2.52437">
        <ele>53.9</ele>
        <time>2021-11-21T14:05:52Z</time>
      </trkpt>
      <trkpt lat="49.82876" lon="2.52437">
        <ele>53.9</ele>
        <time>2021-11-21T14:05:54Z</time>
      </trkpt>
      <trkpt lat="49.82876" lon="2.52437">
        <ele>53.9</ele>
        <time>2021-11-21T14:05:56Z</time>
      </trkpt>
      <trkpt lat="49.82876" lon="2.52437">
        <ele>53.9</ele>
        <time>2021-11-21T14:05:57Z</time>
      </trkpt>
      <trkpt lat="49.82876" lon="2.52437">
        <ele>53.9</ele>
        <time>2021-11-21T14:05:59Z</time>
      </trkpt>
      <trkpt lat="49.82876" lon="2.52437">
        <ele>53.9</ele>
        <time>2021-11-21T14:06:01Z</time>
      </trkpt>
      <trkpt lat="49.82876" lon="2.52437">
        <ele>53.9</ele>
        <time>2021-11-21T14:06:03Z</time>
      </trkpt>
      <trkpt lat="49.82876" lon="2.52437">
        <ele>53.9</ele>
        <time>2021-11-21T14:06:05Z</time>
      </trkpt>
      <trkpt lat="49.82876" lon="2.52438">
        <ele>53.9</ele>
        <time>2021-11-21T14:06:06Z</time>
      </trkpt>
      <trkpt lat="49.82875" lon="2.52439">
        <ele>53.9</ele>
        <time>2021-11-21T14:06:08Z</time>
      </trkpt>
      <trkpt lat="49.82876" lon="2.52438">
        <ele>54</ele>
        <time>2021-11-21T14:06:10Z</time>
      </trkpt>
      <trkpt lat="49.82877" lon="2.52436">
        <ele>54.1</ele>
        <time>2021-11-21T14:06:12Z</time>
      </trkpt>
      <trkpt lat="49.82877" lon="2.52436">
        <ele>54.1</ele>
        <time>2021-11-21T14:06:13Z</time>
      </trkpt>
      <trkpt lat="49.82877" lon="2.52436">
        <ele>54.1</ele>
        <time>2021-11-21T14:06:15Z</time>
      </trkpt>
      <trkpt lat="49.82877" lon="2.52437">
        <ele>54.1</ele>
        <time>2021-11-21T14:06:17Z</time>
      </trkpt>
      <trkpt lat="49.82877" lon="2.52437">
        <ele>54.1</ele>
        <time>2021-11-21T14:06:19Z</time>
      </trkpt>
      <trkpt lat="49.82877" lon="2.52437">
        <ele>54.1</ele>
        <time>2021-11-21T14:06:20Z</time>
      </trkpt>
      <trkpt lat="49.82877" lon="2.52437">
        <ele>54.1</ele>
        <time>2021-11-21T14:06:22Z</time>
      </trkpt>
      <trkpt lat="49.82878" lon="2.52436">
        <ele>54.1</ele>
        <time>2021-11-21T14:06:24Z</time>
      </trkpt>
      <trkpt lat="49.8288" lon="2.52433">
        <ele>54.2</ele>
        <time>2021-11-21T14:06:26Z</time>
      </trkpt>
      <trkpt lat="49.82883" lon="2.5243">
        <ele>54.4</ele>
        <time>2021-11-21T14:06:28Z</time>
      </trkpt>
      <trkpt lat="49.82884" lon="2.52429">
        <ele>54.4</ele>
        <time>2021-11-21T14:06:29Z</time>
      </trkpt>
      <trkpt lat="49.82886" lon="2.52428">
        <ele>54.5</ele>
        <time>2021-11-21T14:06:31Z</time>
      </trkpt>
      <trkpt lat="49.82888" lon="2.52427">
        <ele>54.6</ele>
        <time>2021-11-21T14:06:33Z</time>
      </trkpt>
      <trkpt lat="49.82889" lon="2.52425">
        <ele>54.7</ele>
        <time>2021-11-21T14:06:35Z</time>
      </trkpt>
      <trkpt lat="49.82889" lon="2.52425">
        <ele>54.7</ele>
        <time>2021-11-21T14:06:36Z</time>
      </trkpt>
      <trkpt lat="49.8289" lon="2.52422">
        <ele>54.8</ele>
        <time>2021-11-21T14:06:38Z</time>
      </trkpt>
      <trkpt lat="49.82891" lon="2.52421">
        <ele>54.9</ele>
        <time>2021-11-21T14:06:39Z</time>
      </trkpt>
      <trkpt lat="49.82892" lon="2.5242">
        <ele>54.9</ele>
        <time>2021-11-21T14:06:40Z</time>
      </trkpt>
      <trkpt lat="49.82892" lon="2.52419">
        <ele>54.9</ele>
        <time>2021-11-21T14:06:41Z</time>
      </trkpt>
      <trkpt lat="49.82893" lon="2.52418">
        <ele>55</ele>
        <time>2021-11-21T14:06:43Z</time>
      </trkpt>
      <trkpt lat="49.82895" lon="2.52416">
        <ele>55.1</ele>
        <time>2021-11-21T14:06:45Z</time>
      </trkpt>
      <trkpt lat="49.82896" lon="2.52415">
        <ele>55.1</ele>
        <time>2021-11-21T14:06:47Z</time>
      </trkpt>
      <trkpt lat="49.82897" lon="2.52413">
        <ele>55.2</ele>
        <time>2021-11-21T14:06:49Z</time>
      </trkpt>
      <trkpt lat="49.82897" lon="2.52412">
        <ele>55.3</ele>
        <time>2021-11-21T14:06:51Z</time>
      </trkpt>
      <trkpt lat="49.82898" lon="2.5241">
        <ele>55.3</ele>
        <time>2021-11-21T14:06:52Z</time>
      </trkpt>
      <trkpt lat="49.829" lon="2.52407">
        <ele>55.5</ele>
        <time>2021-11-21T14:06:54Z</time>
      </trkpt>
      <trkpt lat="49.82902" lon="2.52405">
        <ele>55.6</ele>
        <time>2021-11-21T14:06:55Z</time>
      </trkpt>
      <trkpt lat="49.82904" lon="2.52401">
        <ele>55.7</ele>
        <time>2021-11-21T14:06:57Z</time>
      </trkpt>
      <trkpt lat="49.82905" lon="2.52399">
        <ele>55.8</ele>
        <time>2021-11-21T14:06:58Z</time>
      </trkpt>
      <trkpt lat="49.82907" lon="2.52397">
        <ele>55.9</ele>
        <time>2021-11-21T14:07:00Z</time>
      </trkpt>
      <trkpt lat="49.82909" lon="2.52394">
        <ele>56</ele>
        <time>2021-11-21T14:07:02Z</time>
      </trkpt>
      <trkpt lat="49.8291" lon="2.52392">
        <ele>56.1</ele>
        <time>2021-11-21T14:07:04Z</time>
      </trkpt>
      <trkpt lat="49.82911" lon="2.52391">
        <ele>56.1</ele>
        <time>2021-11-21T14:07:05Z</time>
      </trkpt>
      <trkpt lat="49.82912" lon="2.52389">
        <ele>56.2</ele>
        <time>2021-11-21T14:07:07Z</time>
      </trkpt>
      <trkpt lat="49.82913" lon="2.52388">
        <ele>56.3</ele>
        <time>2021-11-21T14:07:08Z</time>
      </trkpt>
      <trkpt lat="49.82913" lon="2.52387">
        <ele>56.3</ele>
        <time>2021-11-21T14:07:09Z</time>
      </trkpt>
      <trkpt lat="49.82914" lon="2.52384">
        <ele>56.4</ele>
        <time>2021-11-21T14:07:11Z</time>
      </trkpt>
      <trkpt lat="49.82915" lon="2.52382">
        <ele>56.5</ele>
        <time>2021-11-21T14:07:13Z</time>
      </trkpt>
      <trkpt lat="49.82916" lon="2.5238">
        <ele>56.6</ele>
        <time>2021-11-21T14:07:15Z</time>
      </trkpt>
      <trkpt lat="49.82917" lon="2.52379">
        <ele>56.6</ele>
        <time>2021-11-21T14:07:16Z</time>
      </trkpt>
      <trkpt lat="49.82918" lon="2.52376">
        <ele>56.7</ele>
        <time>2021-11-21T14:07:18Z</time>
      </trkpt>
      <trkpt lat="49.82919" lon="2.52375">
        <ele>56.7</ele>
        <time>2021-11-21T14:07:19Z</time>
      </trkpt>
      <trkpt lat="49.8292" lon="2.52372">
        <ele>56.8</ele>
        <time>2021-11-21T14:07:21Z</time>
      </trkpt>
      <trkpt lat="49.8292" lon="2.52371">
        <ele>56.9</ele>
        <time>2021-11-21T14:07:22Z</time>
      </trkpt>
      <trkpt lat="49.82921" lon="2.5237">
        <ele>56.9</ele>
        <time>2021-11-21T14:07:24Z</time>
      </trkpt>
      <trkpt lat="49.82921" lon="2.52369">
        <ele>56.9</ele>
        <time>2021-11-21T14:07:25Z</time>
      </trkpt>
      <trkpt lat="49.82921" lon="2.52369">
        <ele>56.9</ele>
        <time>2021-11-21T14:07:26Z</time>
      </trkpt>
      <trkpt lat="49.82921" lon="2.52369">
        <ele>56.9</ele>
        <time>2021-11-21T14:07:28Z</time>
      </trkpt>
      <trkpt lat="49.82921" lon="2.52369">
        <ele>56.9</ele>
        <time>2021-11-21T14:07:29Z</time>
      </trkpt>
      <trkpt lat="49.82921" lon="2.5237">
        <ele>56.9</ele>
        <time>2021-11-21T14:07:30Z</time>
      </trkpt>
      <trkpt lat="49.82921" lon="2.5237">
        <ele>57</ele>
        <time>2021-11-21T14:07:32Z</time>
      </trkpt>
      <trkpt lat="49.82921" lon="2.5237">
        <ele>57</ele>
        <time>2021-11-21T14:07:33Z</time>
      </trkpt>
      <trkpt lat="49.82921" lon="2.5237">
        <ele>57</ele>
        <time>2021-11-21T14:07:35Z</time>
      </trkpt>
      <trkpt lat="49.82921" lon="2.5237">
        <ele>57</ele>
        <time>2021-11-21T14:07:36Z</time>
      </trkpt>
      <trkpt lat="49.82921" lon="2.5237">
        <ele>57</ele>
        <time>2021-11-21T14:07:38Z</time>
      </trkpt>
      <trkpt lat="49.82921" lon="2.5237">
        <ele>57</ele>
        <time>2021-11-21T14:07:39Z</time>
      </trkpt>
      <trkpt lat="49.82921" lon="2.5237">
        <ele>57</ele>
        <time>2021-11-21T14:07:40Z</time>
      </trkpt>
      <trkpt lat="49.82921" lon="2.5237">
        <ele>57</ele>
        <time>2021-11-21T14:07:42Z</time>
      </trkpt>
    </trkseg>
  </trk>
</gpx>